Darstellungsparameter: Aktuell verwendete Einstellungen:
Skalierung der Graphiken ... ?
xyx+y,   Skalierungsfaktor:      Skalierung: Modus: x, Faktor: 1
Darstellungszeitraum ... ?
Vom - - bis: - -   Zeitraum: 07.12.2010 - 06.06.2011
Min/Max/Avg-Anzeige ... ?
Zeige MMA aktuell
Zeige MMA Monat
Zeige MMA alles
Zeige --A aktuell
Zeige --A Monat
Zeige --A alles
Keine MMA-Anzeige
MMA:
Minimum Maximum Average (ber die Originaldaten)
MMA-Basis: 23.02.2003 - 07.06.2011
Quicknavigation für Darstellung... ?
Tage:      1T, 2T, 3T, 5T -1T -2T -3T -5T +1T +2T +3T +5T
Wochen: 1W, 2W, 3W -1W -2W -3W +1W +2W +3W
Monate: 1M, 3M, 6M -1M -3M -6M +1M +3M +6M
Jahre:    1J, 3J, 5J, 10J -1J -3J -5J -10J +1J +3J +5J +10J
Nutze für die Darstellung ... ?
Originaldaten oder ...
Mittelwerte Minima Maxima auf...
Stundenbasis Tagesbasis Wochenbasis
Monatsbasis Jahresbasis      Datenbasis: Mittelwerte auf Stundenbasis
Darstellen als:
Statistik (Auto) Statistik J:M      Darstellung:
Zur Graphik,    zurück zur Übersicht aller Sensoren.
 
Tabellarische Datenbersicht: ?
 
Sensor: Nr:Datum:Temp:Abs-Feuchte:Windchill:Wind:
Aussen-T/F 1 07-12-2010 00:00:00 -1.06 C 3.6 g/m*3 -1.06 C 0 km/h
2 07-12-2010 01:00:00 -1.16 C 3.68 g/m*3 -1.16 C 0 km/h
3 07-12-2010 02:00:00 -0.56 C 3.77 g/m*3 -0.56 C 0 km/h
4 07-12-2010 03:00:00 -0.56 C 3.73 g/m*3 -0.56 C 0 km/h
5 07-12-2010 04:00:00 -0.74 C 3.7 g/m*3 -0.74 C 0 km/h
6 07-12-2010 05:00:00 -0.94 C 3.68 g/m*3 -0.94 C 0 km/h
7 07-12-2010 06:00:00 -0.78 C 3.68 g/m*3 -0.78 C 0 km/h
8 07-12-2010 07:00:00 -1 C 3.57 g/m*3 -1 C 0 km/h
9 07-12-2010 08:00:00 -0.84 C 3.6 g/m*3 -0.84 C 0 km/h
10 07-12-2010 09:00:00 -0.4 C 3.61 g/m*3 -0.4 C 0 km/h
11 07-12-2010 10:00:00 0.18 C 3.6 g/m*3 0.18 C 0 km/h
12 07-12-2010 11:00:00 0.56 C 3.61 g/m*3 0.56 C 0 km/h
13 07-12-2010 12:00:00 1.12 C 3.63 g/m*3 1.12 C 0 km/h
14 07-12-2010 13:00:00 1.44 C 3.61 g/m*3 1.44 C 0 km/h
15 07-12-2010 14:00:00 1.06 C 3.67 g/m*3 1.06 C 0 km/h
16 07-12-2010 15:00:00 0.4 C 3.81 g/m*3 0.4 C 0 km/h
17 07-12-2010 16:00:00 -0.22 C 4.06 g/m*3 -0.22 C 0 km/h
18 07-12-2010 17:00:00 -0.3 C 4.2 g/m*3 -0.3 C 0 km/h
19 07-12-2010 18:00:00 -0.26 C 4.26 g/m*3 -0.26 C 0 km/h
20 07-12-2010 19:00:00 -0.2 C 4.31 g/m*3 -0.2 C 0 km/h
21 07-12-2010 20:00:00 -0.16 C 4.36 g/m*3 -0.16 C 0 km/h
22 07-12-2010 21:00:00 -0.2 C 4.36 g/m*3 -0.2 C 0 km/h
23 07-12-2010 22:00:00 -0.18 C 4.4 g/m*3 -0.18 C 0 km/h
24 07-12-2010 23:00:00 -0.2 C 4.4 g/m*3 -0.2 C 0 km/h
25 08-12-2010 00:00:00 -0.2 C 4.4 g/m*3 -0.2 C 0 km/h
Sensor: Nr:Datum:Temp:Abs-Feuchte:Windchill:Wind:
Aussen-T/F 26 08-12-2010 01:00:00 -0.2 C 4.4 g/m*3 -0.2 C 0 km/h
27 08-12-2010 02:00:00 -0.16 C 4.41 g/m*3 -0.16 C 0 km/h
28 08-12-2010 03:00:00 -0.18 C 4.4 g/m*3 -0.18 C 0 km/h
29 08-12-2010 04:00:00 -0.08 C 4.43 g/m*3 -0.08 C 0 km/h
30 08-12-2010 05:00:00 -0.08 C 4.46 g/m*3 -0.08 C 0 km/h
31 08-12-2010 06:00:00 -0.06 C 4.49 g/m*3 -0.06 C 0 km/h
32 08-12-2010 07:00:00 -0.02 C 4.5 g/m*3 -0.02 C 0 km/h
33 08-12-2010 08:00:00 0 C 4.51 g/m*3 0 C 0 km/h
34 08-12-2010 09:00:00 0.08 C 4.53 g/m*3 0.08 C 0 km/h
35 08-12-2010 10:00:00 0.18 C 4.56 g/m*3 0.18 C 0 km/h
36 08-12-2010 11:00:00 0.34 C 4.63 g/m*3 0.34 C 0 km/h
37 08-12-2010 12:00:00 0.56 C 4.67 g/m*3 0.56 C 0 km/h
38 08-12-2010 13:00:00 0.62 C 4.58 g/m*3 0.62 C 0 km/h
39 08-12-2010 14:00:00 0.42 C 4.44 g/m*3 0.42 C 0 km/h
40 08-12-2010 15:00:00 -0.08 C 4.29 g/m*3 -0.08 C 0 km/h
41 08-12-2010 16:00:00 -0.3 C 4.26 g/m*3 -0.3 C 0 km/h
42 08-12-2010 17:00:00 -0.36 C 4.24 g/m*3 -0.36 C 0 km/h
43 08-12-2010 18:00:00 -0.74 C 4.1 g/m*3 -0.74 C 0 km/h
44 08-12-2010 19:00:00 -0.92 C 4.05 g/m*3 -0.92 C 0 km/h
45 08-12-2010 20:00:00 -1.06 C 4.02 g/m*3 -1.06 C 0 km/h
46 08-12-2010 21:00:00 -1.24 C 3.94 g/m*3 -1.24 C 0 km/h
47 08-12-2010 22:00:00 -1.44 C 3.82 g/m*3 -1.44 C 0 km/h
48 08-12-2010 23:00:00 -1.3 C 3.74 g/m*3 -1.3 C 0 km/h
49 09-12-2010 00:00:00 -1.32 C 3.64 g/m*3 -1.32 C 0 km/h
50 09-12-2010 01:00:00 -1.52 C 3.56 g/m*3 -1.52 C 0 km/h
Sensor: Nr:Datum:Temp:Abs-Feuchte:Windchill:Wind:
Aussen-T/F 51 09-12-2010 02:00:00 -1.74 C 3.55 g/m*3 -1.74 C 0 km/h
52 09-12-2010 03:00:00 -1.7 C 3.69 g/m*3 -1.7 C 0 km/h
53 09-12-2010 04:00:00 -1.62 C 3.72 g/m*3 -1.62 C 0 km/h
54 09-12-2010 05:00:00 -1.04 C 3.84 g/m*3 -1.04 C 0 km/h
55 09-12-2010 06:00:00 -0.42 C 3.9 g/m*3 -0.42 C 0 km/h
56 09-12-2010 07:00:00 -0.28 C 3.95 g/m*3 -0.28 C 0 km/h
57 09-12-2010 08:00:00 -0.38 C 3.91 g/m*3 -0.38 C 0 km/h
58 09-12-2010 09:00:00 -0.08 C 3.93 g/m*3 -0.08 C 0 km/h
59 09-12-2010 10:00:00 0.32 C 4 g/m*3 0.32 C 0 km/h
60 09-12-2010 11:00:00 0.8 C 4.06 g/m*3 0.8 C 0 km/h
61 09-12-2010 12:00:00 2.18 C 4.07 g/m*3 2.18 C 0 km/h
62 09-12-2010 13:00:00 1.74 C 4.11 g/m*3 1.74 C 0 km/h
63 09-12-2010 14:00:00 2.12 C 3.92 g/m*3 2.12 C 0 km/h
64 09-12-2010 15:00:00 1.84 C 3.75 g/m*3 1.84 C 0 km/h
65 09-12-2010 16:00:00 1.52 C 3.66 g/m*3 1.52 C 0 km/h
66 09-12-2010 17:00:00 1.5 C 3.89 g/m*3 1.5 C 0 km/h
67 09-12-2010 18:00:00 1.68 C 4.03 g/m*3 1.68 C 0 km/h
68 09-12-2010 19:00:00 2.16 C 3.9 g/m*3 2.16 C 0 km/h
69 09-12-2010 20:00:00 2.44 C 4 g/m*3 2.44 C 0 km/h
70 09-12-2010 21:00:00 2.58 C 4.06 g/m*3 2.58 C 0 km/h
71 09-12-2010 22:00:00 2.44 C 4.16 g/m*3 2.44 C 0 km/h
72 09-12-2010 23:00:00 1.5 C 4.43 g/m*3 1.5 C 0 km/h
73 10-12-2010 00:00:00 1.9 C 4.42 g/m*3 1.9 C 0 km/h
74 10-12-2010 01:00:00 2.04 C 4.36 g/m*3 2.04 C 0 km/h
75 10-12-2010 02:00:00 1.7 C 4.26 g/m*3 1.7 C 0 km/h
Sensor: Nr:Datum:Temp:Abs-Feuchte:Windchill:Wind:
Aussen-T/F 76 10-12-2010 03:00:00 1.24 C 4.52 g/m*3 1.24 C 0 km/h
77 10-12-2010 04:00:00 1.7 C 4.79 g/m*3 1.7 C 0 km/h
78 10-12-2010 05:00:00 2.52 C 4.87 g/m*3 2.52 C 0 km/h
79 10-12-2010 06:00:00 1.84 C 4.73 g/m*3 1.84 C 0 km/h
80 10-12-2010 07:00:00 0.76 C 4.53 g/m*3 0.76 C 0 km/h
81 10-12-2010 08:00:00 -0.32 C 4.28 g/m*3 -0.32 C 0 km/h
82 10-12-2010 09:00:00 -0.4 C 4.3 g/m*3 -0.4 C 0 km/h
83 10-12-2010 10:00:00 0.06 C 4.45 g/m*3 0.06 C 0 km/h
84 10-12-2010 11:00:00 1.38 C 4.82 g/m*3 1.38 C 0 km/h
85 10-12-2010 12:00:00 2.24 C 4.95 g/m*3 2.24 C 0 km/h
86 10-12-2010 13:00:00 2.96 C 4.9 g/m*3 2.96 C 0 km/h
87 10-12-2010 14:00:00 2.82 C 4.65 g/m*3 2.82 C 0 km/h
88 10-12-2010 15:00:00 1.78 C 4.64 g/m*3 1.78 C 0 km/h
89 10-12-2010 16:00:00 1.54 C 4.8 g/m*3 1.54 C 0 km/h
90 10-12-2010 17:00:00 1.84 C 4.95 g/m*3 1.84 C 0 km/h
91 10-12-2010 18:00:00 1.86 C 4.93 g/m*3 1.86 C 0 km/h
92 10-12-2010 19:00:00 2.28 C 4.97 g/m*3 2.28 C 0 km/h
93 10-12-2010 20:00:00 2.6 C 4.93 g/m*3 2.6 C 0 km/h
94 10-12-2010 21:00:00 2.5 C 4.85 g/m*3 2.5 C 0 km/h
95 10-12-2010 22:00:00 2.52 C 4.87 g/m*3 2.52 C 0 km/h
96 10-12-2010 23:00:00 2.24 C 4.86 g/m*3 2.24 C 0 km/h
97 11-12-2010 00:00:00 2.18 C 4.97 g/m*3 2.18 C 0 km/h
98 11-12-2010 01:00:00 2.46 C 5.08 g/m*3 2.46 C 0 km/h
99 11-12-2010 02:00:00 2.72 C 5.13 g/m*3 2.72 C 0 km/h
100 11-12-2010 03:00:00 2.54 C 5.1 g/m*3 2.54 C 0 km/h
Sensor: Nr:Datum:Temp:Abs-Feuchte:Windchill:Wind:
Aussen-T/F 101 11-12-2010 04:00:00 3.26 C 5.24 g/m*3 3.26 C 0 km/h
102 11-12-2010 05:00:00 3.86 C 5.19 g/m*3 3.86 C 0 km/h
103 11-12-2010 06:00:00 3.36 C 5.15 g/m*3 3.36 C 0 km/h
104 11-12-2010 07:00:00 4.14 C 5.21 g/m*3 4.14 C 0 km/h
105 11-12-2010 08:00:00 4.86 C 5.01 g/m*3 4.86 C 0 km/h
106 11-12-2010 09:00:00 4.16 C 5.04 g/m*3 4.16 C 0 km/h
107 11-12-2010 10:00:00 3.9 C 5.38 g/m*3 3.9 C 0 km/h
108 11-12-2010 11:00:00 4.3 C 5.37 g/m*3 4.3 C 0 km/h
109 11-12-2010 12:00:00 4.54 C 5.56 g/m*3 4.54 C 0 km/h
110 11-12-2010 13:00:00 4.86 C 5.39 g/m*3 4.86 C 0 km/h
111 11-12-2010 14:00:00 4.9 C 5.31 g/m*3 4.9 C 0 km/h
112 11-12-2010 15:00:00 5.06 C 5.18 g/m*3 5.06 C 0 km/h
113 11-12-2010 16:00:00 4.9 C 5.24 g/m*3 4.9 C 0 km/h
114 11-12-2010 17:00:00 5.16 C 5.22 g/m*3 5.16 C 0 km/h
115 11-12-2010 18:00:00 4.22 C 5.21 g/m*3 4.22 C 0 km/h
116 11-12-2010 19:00:00 4.26 C 5.2 g/m*3 4.26 C 0 km/h
117 11-12-2010 20:00:00 4.82 C 5.01 g/m*3 4.82 C 0 km/h
118 11-12-2010 21:00:00 4.4 C 5.04 g/m*3 4.4 C 0 km/h
119 11-12-2010 22:00:00 4.3 C 5.03 g/m*3 4.3 C 0 km/h
120 11-12-2010 23:00:00 4.66 C 4.89 g/m*3 4.66 C 0 km/h
121 12-12-2010 00:00:00 4.26 C 4.97 g/m*3 4.26 C 0 km/h
122 12-12-2010 01:00:00 4.84 C 4.84 g/m*3 4.84 C 0 km/h
123 12-12-2010 02:00:00 4.82 C 4.58 g/m*3 4.82 C 0 km/h
124 12-12-2010 03:00:00 4.2 C 4.66 g/m*3 4.2 C 0 km/h
125 12-12-2010 04:00:00 3.68 C 5.18 g/m*3 3.68 C 0 km/h
Sensor: Nr:Datum:Temp:Abs-Feuchte:Windchill:Wind:
Aussen-T/F 126 12-12-2010 05:00:00 3.44 C 5.11 g/m*3 3.44 C 0 km/h
127 12-12-2010 06:00:00 3.04 C 5.07 g/m*3 3.04 C 0 km/h
128 12-12-2010 07:00:00 3.86 C 4.93 g/m*3 3.86 C 0 km/h
129 12-12-2010 08:00:00 3.62 C 4.87 g/m*3 3.62 C 0 km/h
130 12-12-2010 09:00:00 3.7 C 4.96 g/m*3 3.7 C 0 km/h
131 12-12-2010 10:00:00 3.86 C 5.03 g/m*3 3.86 C 0 km/h
132 12-12-2010 11:00:00 4.12 C 5.14 g/m*3 4.12 C 0 km/h
133 12-12-2010 12:00:00 4.5 C 5.34 g/m*3 4.5 C 0 km/h
134 12-12-2010 13:00:00 4.82 C 5.17 g/m*3 4.82 C 0 km/h
135 12-12-2010 14:00:00 3.46 C 4.95 g/m*3 3.46 C 0 km/h
136 12-12-2010 15:00:00 3.1 C 5.21 g/m*3 3.1 C 0 km/h
137 12-12-2010 16:00:00 2.7 C 5.12 g/m*3 2.7 C 0 km/h
138 12-12-2010 17:00:00 2.48 C 4.62 g/m*3 2.48 C 0 km/h
139 12-12-2010 18:00:00 1.86 C 4.15 g/m*3 1.86 C 0 km/h
140 12-12-2010 19:00:00 1.38 C 3.91 g/m*3 1.38 C 0 km/h
141 12-12-2010 20:00:00 1.18 C 3.56 g/m*3 1.18 C 0 km/h
142 12-12-2010 21:00:00 0.76 C 3.35 g/m*3 0.76 C 0 km/h
143 12-12-2010 22:00:00 0.4 C 3.18 g/m*3 0.4 C 0 km/h
144 12-12-2010 23:00:00 -0.04 C 2.73 g/m*3 -0.04 C 0 km/h
145 13-12-2010 00:00:00 -0.52 C 2.5 g/m*3 -0.52 C 0 km/h
146 13-12-2010 01:00:00 -0.84 C 2.45 g/m*3 -0.84 C 0 km/h
147 13-12-2010 02:00:00 -2.28 C 2.3 g/m*3 -2.28 C 0 km/h
148 13-12-2010 03:00:00 -3.5 C 2.27 g/m*3 -3.5 C 0 km/h
149 13-12-2010 04:00:00 -4.2 C 2.29 g/m*3 -4.2 C 0 km/h
150 13-12-2010 05:00:00 -5.8 C 2.22 g/m*3 -5.8 C 0 km/h
Sensor: Nr:Datum:Temp:Abs-Feuchte:Windchill:Wind:
Aussen-T/F 151 13-12-2010 06:00:00 -6.94 C 2.21 g/m*3 -6.94 C 0 km/h
152 13-12-2010 07:00:00 -7.2 C 2.22 g/m*3 -7.2 C 0 km/h
153 13-12-2010 08:00:00 -7.18 C 2.27 g/m*3 -7.18 C 0 km/h
154 13-12-2010 09:00:00 -7.12 C 2.29 g/m*3 -7.12 C 0 km/h
155 13-12-2010 10:00:00 -6.62 C 2.4 g/m*3 -6.62 C 0 km/h
156 13-12-2010 11:00:00 -4 C 2.63 g/m*3 -4 C 0 km/h
157 13-12-2010 12:00:00 -2.78 C 2.52 g/m*3 -2.78 C 0 km/h
158 13-12-2010 13:00:00 -2.32 C 2.5 g/m*3 -2.32 C 0 km/h
159 13-12-2010 14:00:00 -2.2 C 2.39 g/m*3 -2.2 C 0 km/h
160 13-12-2010 15:00:00 -3.66 C 2.47 g/m*3 -3.66 C 0 km/h
161 13-12-2010 16:00:00 -4.98 C 2.58 g/m*3 -4.98 C 0 km/h
162 13-12-2010 17:00:00 -5.88 C 2.5 g/m*3 -5.88 C 0 km/h
163 13-12-2010 18:00:00 -6.2 C 2.48 g/m*3 -6.2 C 0 km/h
164 13-12-2010 19:00:00 -5.44 C 2.72 g/m*3 -5.44 C 0 km/h
165 13-12-2010 20:00:00 -4.86 C 2.8 g/m*3 -4.86 C 0 km/h
166 13-12-2010 21:00:00 -4.22 C 2.82 g/m*3 -4.22 C 0 km/h
167 13-12-2010 22:00:00 -3.92 C 2.86 g/m*3 -3.92 C 0 km/h
168 13-12-2010 23:00:00 -4.1 C 3 g/m*3 -4.1 C 0 km/h
169 14-12-2010 00:00:00 -4.1 C 3.02 g/m*3 -4.1 C 0 km/h
170 14-12-2010 01:00:00 -4.06 C 3.03 g/m*3 -4.06 C 0 km/h
171 14-12-2010 02:00:00 -3.84 C 3.07 g/m*3 -3.84 C 0 km/h
172 14-12-2010 03:00:00 -3.66 C 3.11 g/m*3 -3.66 C 0 km/h
173 14-12-2010 04:00:00 -3.62 C 3.09 g/m*3 -3.62 C 0 km/h
174 14-12-2010 05:00:00 -3.8 C 3.04 g/m*3 -3.8 C 0 km/h
175 14-12-2010 06:00:00 -4.7 C 2.87 g/m*3 -4.7 C 0 km/h
Sensor: Nr:Datum:Temp:Abs-Feuchte:Windchill:Wind:
Aussen-T/F 176 14-12-2010 07:00:00 -6.22 C 2.59 g/m*3 -6.22 C 0 km/h
177 14-12-2010 08:00:00 -6.38 C 2.62 g/m*3 -6.38 C 0 km/h
178 14-12-2010 09:00:00 -6 C 2.69 g/m*3 -6 C 0 km/h
179 14-12-2010 10:00:00 -4.06 C 3 g/m*3 -4.06 C 0 km/h
180 14-12-2010 11:00:00 -3.24 C 2.75 g/m*3 -3.24 C 0 km/h
181 14-12-2010 12:00:00 -2.42 C 2.66 g/m*3 -2.42 C 0 km/h
182 14-12-2010 13:00:00 -2.2 C 2.64 g/m*3 -2.2 C 0 km/h
183 14-12-2010 14:00:00 -2.44 C 2.66 g/m*3 -2.44 C 0 km/h
184 14-12-2010 15:00:00 -2.76 C 2.7 g/m*3 -2.76 C 0 km/h
185 14-12-2010 16:00:00 -2.9 C 2.8 g/m*3 -2.9 C 0 km/h
186 14-12-2010 17:00:00 -2.98 C 2.91 g/m*3 -2.98 C 0 km/h
187 14-12-2010 18:00:00 -3.06 C 2.78 g/m*3 -3.06 C 0 km/h
188 14-12-2010 19:00:00 -2.82 C 2.84 g/m*3 -2.82 C 0 km/h
189 14-12-2010 20:00:00 -3.04 C 2.74 g/m*3 -3.04 C 0 km/h
190 14-12-2010 21:00:00 -3.12 C 2.64 g/m*3 -3.12 C 0 km/h
191 14-12-2010 22:00:00 -3.16 C 2.58 g/m*3 -3.16 C 0 km/h
192 14-12-2010 23:00:00 -3.22 C 2.51 g/m*3 -3.22 C 0 km/h
193 15-12-2010 00:00:00 -3.3 C 2.5 g/m*3 -3.3 C 0 km/h
194 15-12-2010 01:00:00 -3.26 C 2.57 g/m*3 -3.26 C 0 km/h
195 15-12-2010 02:00:00 -4.16 C 2.54 g/m*3 -4.16 C 0 km/h
196 15-12-2010 03:00:00 -4.9 C 2.5 g/m*3 -4.9 C 0 km/h
197 15-12-2010 04:00:00 -4.86 C 2.54 g/m*3 -4.86 C 0 km/h
198 15-12-2010 05:00:00 -4.72 C 2.63 g/m*3 -4.72 C 0 km/h
199 15-12-2010 06:00:00 -3.78 C 2.71 g/m*3 -3.78 C 0 km/h
200 15-12-2010 07:00:00 -3.42 C 2.81 g/m*3 -3.42 C 0 km/h
Sensor: Nr:Datum:Temp:Abs-Feuchte:Windchill:Wind:
Aussen-T/F 201 15-12-2010 08:00:00 -3.3 C 2.88 g/m*3 -3.3 C 0 km/h
202 15-12-2010 09:00:00 -2.56 C 3.02 g/m*3 -2.56 C 0 km/h
203 15-12-2010 10:00:00 -1.76 C 3.22 g/m*3 -1.76 C 0 km/h
204 15-12-2010 11:00:00 -0.68 C 3.51 g/m*3 -0.68 C 0 km/h
205 15-12-2010 12:00:00 -0.48 C 3.47 g/m*3 -0.48 C 0 km/h
206 15-12-2010 13:00:00 -0.38 C 3.56 g/m*3 -0.38 C 0 km/h
207 15-12-2010 14:00:00 -0.12 C 3.36 g/m*3 -0.12 C 0 km/h
208 15-12-2010 15:00:00 -1.44 C 2.8 g/m*3 -1.44 C 0 km/h
209 15-12-2010 16:00:00 -3.2 C 2.7 g/m*3 -3.2 C 0 km/h
210 15-12-2010 17:00:00 -4.34 C 2.74 g/m*3 -4.34 C 0 km/h
211 15-12-2010 18:00:00 -4.86 C 2.77 g/m*3 -4.86 C 0 km/h
212 15-12-2010 19:00:00 -4.42 C 2.86 g/m*3 -4.42 C 0 km/h
213 15-12-2010 20:00:00 -3.62 C 2.83 g/m*3 -3.62 C 0 km/h
214 15-12-2010 21:00:00 -3.18 C 2.77 g/m*3 -3.18 C 0 km/h
215 15-12-2010 22:00:00 -3.78 C 2.76 g/m*3 -3.78 C 0 km/h
216 15-12-2010 23:00:00 -4.54 C 2.76 g/m*3 -4.54 C 0 km/h
217 16-12-2010 00:00:00 -4.68 C 2.85 g/m*3 -4.68 C 0 km/h
218 16-12-2010 01:00:00 -4.84 C 2.87 g/m*3 -4.84 C 0 km/h
219 16-12-2010 02:00:00 -5.3 C 2.73 g/m*3 -5.3 C 0 km/h
220 16-12-2010 03:00:00 -5.36 C 2.75 g/m*3 -5.36 C 0 km/h
221 16-12-2010 04:00:00 -5.58 C 2.66 g/m*3 -5.58 C 0 km/h
222 16-12-2010 05:00:00 -6.4 C 2.41 g/m*3 -6.4 C 0 km/h
223 16-12-2010 06:00:00 -7.54 C 2.25 g/m*3 -7.54 C 0 km/h
224 16-12-2010 07:00:00 -8.28 C 2.11 g/m*3 -8.28 C 0 km/h
225 16-12-2010 08:00:00 -7.86 C 2.18 g/m*3 -7.86 C 0 km/h
Sensor: Nr:Datum:Temp:Abs-Feuchte:Windchill:Wind:
Aussen-T/F 226 16-12-2010 09:00:00 -6.6 C 2.26 g/m*3 -6.6 C 0 km/h
227 16-12-2010 10:00:00 -4.84 C 2.47 g/m*3 -4.84 C 0 km/h
228 16-12-2010 11:00:00 -3.42 C 2.65 g/m*3 -3.42 C 0 km/h
229 16-12-2010 12:00:00 -2.84 C 2.8 g/m*3 -2.84 C 0 km/h
230 16-12-2010 13:00:00 -2.12 C 2.99 g/m*3 -2.12 C 0 km/h
231 16-12-2010 14:00:00 -1.72 C 3.2 g/m*3 -1.72 C 0 km/h
232 16-12-2010 15:00:00 -1.4 C 3.45 g/m*3 -1.4 C 0 km/h
233 16-12-2010 16:00:00 -1.3 C 3.43 g/m*3 -1.3 C 0 km/h
234 16-12-2010 17:00:00 -1.26 C 3.47 g/m*3 -1.26 C 0 km/h
235 16-12-2010 18:00:00 -0.7 C 3.61 g/m*3 -0.7 C 0 km/h
236 16-12-2010 19:00:00 -0.28 C 3.67 g/m*3 -0.28 C 0 km/h
237 16-12-2010 20:00:00 0.02 C 3.69 g/m*3 0.02 C 0 km/h
238 16-12-2010 21:00:00 -0.12 C 3.79 g/m*3 -0.12 C 0 km/h
239 16-12-2010 22:00:00 -0.34 C 3.88 g/m*3 -0.34 C 0 km/h
240 16-12-2010 23:00:00 -0.46 C 3.84 g/m*3 -0.46 C 0 km/h
241 17-12-2010 00:00:00 -0.28 C 3.85 g/m*3 -0.28 C 0 km/h
242 17-12-2010 01:00:00 -0.34 C 3.88 g/m*3 -0.34 C 0 km/h
243 17-12-2010 02:00:00 -0.58 C 3.62 g/m*3 -0.58 C 0 km/h
244 17-12-2010 03:00:00 -1.2 C 3.36 g/m*3 -1.2 C 0 km/h
245 17-12-2010 04:00:00 -1.28 C 3.16 g/m*3 -1.28 C 0 km/h
246 17-12-2010 05:00:00 -1.62 C 3.26 g/m*3 -1.62 C 0 km/h
247 17-12-2010 06:00:00 -2.24 C 2.97 g/m*3 -2.24 C 0 km/h
248 17-12-2010 07:00:00 -2.28 C 2.65 g/m*3 -2.28 C 0 km/h
249 17-12-2010 08:00:00 -2.22 C 3 g/m*3 -2.22 C 0 km/h
250 17-12-2010 09:00:00 -1.92 C 3.01 g/m*3 -1.92 C 0 km/h
Sensor: Nr:Datum:Temp:Abs-Feuchte:Windchill:Wind:
Aussen-T/F 251 17-12-2010 10:00:00 -1.66 C 2.95 g/m*3 -1.66 C 0 km/h
252 17-12-2010 11:00:00 -1.2 C 2.74 g/m*3 -1.2 C 0 km/h
253 17-12-2010 12:00:00 -1.14 C 2.52 g/m*3 -1.14 C 0 km/h
254 17-12-2010 13:00:00 -1.22 C 2.43 g/m*3 -1.22 C 0 km/h
255 17-12-2010 14:00:00 -1.4 C 2.66 g/m*3 -1.4 C 0 km/h
256 17-12-2010 15:00:00 -1.82 C 2.98 g/m*3 -1.82 C 0 km/h
257 17-12-2010 16:00:00 -2.08 C 3 g/m*3 -2.08 C 0 km/h
258 17-12-2010 17:00:00 -4.06 C 2.8 g/m*3 -4.06 C 0 km/h
259 17-12-2010 18:00:00 -5.22 C 2.69 g/m*3 -5.22 C 0 km/h
260 17-12-2010 19:00:00 -6.48 C 2.51 g/m*3 -6.48 C 0 km/h
261 17-12-2010 20:00:00 -6.58 C 2.52 g/m*3 -6.58 C 0 km/h
262 17-12-2010 21:00:00 -6.94 C 2.44 g/m*3 -6.94 C 0 km/h
263 17-12-2010 22:00:00 -6.92 C 2.44 g/m*3 -6.92 C 0 km/h
264 17-12-2010 23:00:00 -5.9 C 2.66 g/m*3 -5.9 C 0 km/h
265 18-12-2010 00:00:00 -4.74 C 2.93 g/m*3 -4.74 C 0 km/h
266 18-12-2010 01:00:00 -4.44 C 2.9 g/m*3 -4.44 C 0 km/h
267 18-12-2010 02:00:00 -5.28 C 2.7 g/m*3 -5.28 C 0 km/h
268 18-12-2010 03:00:00 -4.36 C 2.87 g/m*3 -4.36 C 0 km/h
269 18-12-2010 04:00:00 -4.36 C 2.94 g/m*3 -4.36 C 0 km/h
270 18-12-2010 05:00:00 -4.44 C 2.98 g/m*3 -4.44 C 0 km/h
271 18-12-2010 06:00:00 -4.34 C 3.01 g/m*3 -4.34 C 0 km/h
272 18-12-2010 07:00:00 -5.26 C 2.81 g/m*3 -5.26 C 0 km/h
273 18-12-2010 08:00:00 -5.34 C 2.8 g/m*3 -5.34 C 0 km/h
274 18-12-2010 09:00:00 -4.84 C 2.73 g/m*3 -4.84 C 0 km/h
275 18-12-2010 10:00:00 -3.82 C 2.68 g/m*3 -3.82 C 0 km/h
Sensor: Nr:Datum:Temp:Abs-Feuchte:Windchill:Wind:
Aussen-T/F 276 18-12-2010 11:00:00 -3.48 C 2.59 g/m*3 -3.48 C 0 km/h
277 18-12-2010 12:00:00 -3.28 C 2.46 g/m*3 -3.28 C 0 km/h
278 18-12-2010 13:00:00 -2.96 C 2.36 g/m*3 -2.96 C 0 km/h
279 18-12-2010 14:00:00 -3.84 C 2.29 g/m*3 -3.84 C 0 km/h
280 18-12-2010 15:00:00 -5.48 C 2.31 g/m*3 -5.48 C 0 km/h
281 18-12-2010 16:00:00 -7.06 C 2.27 g/m*3 -7.06 C 0 km/h
282 18-12-2010 17:00:00 -7.56 C 2.29 g/m*3 -7.56 C 0 km/h
283 18-12-2010 18:00:00 -6.74 C 2.48 g/m*3 -6.74 C 0 km/h
284 18-12-2010 19:00:00 -5.34 C 2.79 g/m*3 -5.34 C 0 km/h
285 18-12-2010 20:00:00 -4.36 C 2.97 g/m*3 -4.36 C 0 km/h
286 18-12-2010 21:00:00 -3.98 C 3.05 g/m*3 -3.98 C 0 km/h
287 18-12-2010 22:00:00 -3.42 C 3.2 g/m*3 -3.42 C 0 km/h
288 18-12-2010 23:00:00 -3.08 C 3.28 g/m*3 -3.08 C 0 km/h
289 19-12-2010 00:00:00 -2.56 C 3.41 g/m*3 -2.56 C 0 km/h
290 19-12-2010 01:00:00 -2.44 C 3.53 g/m*3 -2.44 C 0 km/h
291 19-12-2010 02:00:00 -2.5 C 3.54 g/m*3 -2.5 C 0 km/h
292 19-12-2010 03:00:00 -2.7 C 3.49 g/m*3 -2.7 C 0 km/h
293 19-12-2010 04:00:00 -2.46 C 3.55 g/m*3 -2.46 C 0 km/h
294 19-12-2010 05:00:00 -1.02 C 3.67 g/m*3 -1.02 C 0 km/h
295 19-12-2010 06:00:00 -1.64 C 3.24 g/m*3 -1.64 C 0 km/h
296 19-12-2010 07:00:00 -2.58 C 3.19 g/m*3 -2.58 C 0 km/h
297 19-12-2010 08:00:00 -2.5 C 3.2 g/m*3 -2.5 C 0 km/h
298 19-12-2010 09:00:00 -2.04 C 3.37 g/m*3 -2.04 C 0 km/h
299 19-12-2010 10:00:00 -0.94 C 3.41 g/m*3 -0.94 C 0 km/h
300 19-12-2010 11:00:00 -0.38 C 3.56 g/m*3 -0.38 C 0 km/h
Sensor: Nr:Datum:Temp:Abs-Feuchte:Windchill:Wind:
Aussen-T/F 301 19-12-2010 12:00:00 0.3 C 3.6 g/m*3 0.3 C 0 km/h
302 19-12-2010 13:00:00 0.14 C 3.71 g/m*3 0.14 C 0 km/h
303 19-12-2010 14:00:00 -0.18 C 3.94 g/m*3 -0.18 C 0 km/h
304 19-12-2010 15:00:00 -0.4 C 4.08 g/m*3 -0.4 C 0 km/h
305 19-12-2010 16:00:00 -0.3 C 4.23 g/m*3 -0.3 C 0 km/h
306 19-12-2010 17:00:00 -0.2 C 4.33 g/m*3 -0.2 C 0 km/h
307 19-12-2010 18:00:00 -0.18 C 4.36 g/m*3 -0.18 C 0 km/h
308 19-12-2010 19:00:00 -0.04 C 4.45 g/m*3 -0.04 C 0 km/h
309 19-12-2010 20:00:00 0.08 C 4.49 g/m*3 0.08 C 0 km/h
310 19-12-2010 21:00:00 1.1 C 4.84 g/m*3 1.1 C 0 km/h
311 19-12-2010 22:00:00 1.92 C 5.06 g/m*3 1.92 C 0 km/h
312 19-12-2010 23:00:00 4.42 C 5.05 g/m*3 4.42 C 0 km/h
313 20-12-2010 00:00:00 4.02 C 4.62 g/m*3 4.02 C 0 km/h
314 20-12-2010 01:00:00 1.68 C 4.43 g/m*3 1.68 C 0 km/h
315 20-12-2010 02:00:00 0.42 C 3.7 g/m*3 0.42 C 0 km/h
316 20-12-2010 03:00:00 -0.08 C 3.63 g/m*3 -0.08 C 0 km/h
317 20-12-2010 04:00:00 -0.44 C 3.67 g/m*3 -0.44 C 0 km/h
318 20-12-2010 05:00:00 -1.02 C 3.56 g/m*3 -1.02 C 0 km/h
319 20-12-2010 06:00:00 -1.66 C 3.46 g/m*3 -1.66 C 0 km/h
320 20-12-2010 07:00:00 -2.6 C 3.38 g/m*3 -2.6 C 0 km/h
321 20-12-2010 08:00:00 -2.42 C 3.54 g/m*3 -2.42 C 0 km/h
322 20-12-2010 09:00:00 -1.8 C 3.59 g/m*3 -1.8 C 0 km/h
323 20-12-2010 10:00:00 -1.22 C 3.33 g/m*3 -1.22 C 0 km/h
324 20-12-2010 11:00:00 -0.8 C 3.28 g/m*3 -0.8 C 0 km/h
325 20-12-2010 12:00:00 -1.06 C 3.27 g/m*3 -1.06 C 0 km/h
Sensor: Nr:Datum:Temp:Abs-Feuchte:Windchill:Wind:
Aussen-T/F 326 20-12-2010 13:00:00 -0.92 C 3.28 g/m*3 -0.92 C 0 km/h
327 20-12-2010 14:00:00 -0.98 C 3.26 g/m*3 -0.98 C 0 km/h
328 20-12-2010 15:00:00 -1.08 C 3.26 g/m*3 -1.08 C 0 km/h
329 20-12-2010 16:00:00 -3.04 C 3.05 g/m*3 -3.04 C 0 km/h
330 20-12-2010 17:00:00 -3.52 C 3.23 g/m*3 -3.52 C 0 km/h
331 20-12-2010 18:00:00 -3.04 C 3.42 g/m*3 -3.04 C 0 km/h
332 20-12-2010 19:00:00 -3 C 3.45 g/m*3 -3 C 0 km/h
333 20-12-2010 20:00:00 -2.92 C 3.48 g/m*3 -2.92 C 0 km/h
334 20-12-2010 21:00:00 -3.64 C 3.26 g/m*3 -3.64 C 0 km/h
335 20-12-2010 22:00:00 -4.3 C 3.11 g/m*3 -4.3 C 0 km/h
336 20-12-2010 23:00:00 -3.46 C 3.37 g/m*3 -3.46 C 0 km/h
337 21-12-2010 00:00:00 -3.62 C 3.33 g/m*3 -3.62 C 0 km/h
338 21-12-2010 01:00:00 -2.88 C 3.53 g/m*3 -2.88 C 0 km/h
339 21-12-2010 02:00:00 -2.6 C 3.6 g/m*3 -2.6 C 0 km/h
340 21-12-2010 03:00:00 -2.54 C 3.57 g/m*3 -2.54 C 0 km/h
341 21-12-2010 04:00:00 -2.14 C 3.67 g/m*3 -2.14 C 0 km/h
342 21-12-2010 05:00:00 -1.88 C 3.76 g/m*3 -1.88 C 0 km/h
343 21-12-2010 06:00:00 -1.78 C 3.81 g/m*3 -1.78 C 0 km/h
344 21-12-2010 07:00:00 -1.7 C 3.83 g/m*3 -1.7 C 0 km/h
345 21-12-2010 08:00:00 -1.64 C 3.85 g/m*3 -1.64 C 0 km/h
346 21-12-2010 09:00:00 -1.24 C 3.91 g/m*3 -1.24 C 0 km/h
347 21-12-2010 10:00:00 -0.6 C 3.91 g/m*3 -0.6 C 0 km/h
348 21-12-2010 11:00:00 0.5 C 3.98 g/m*3 0.5 C 0 km/h
349 21-12-2010 12:00:00 1.14 C 3.97 g/m*3 1.14 C 0 km/h
350 21-12-2010 13:00:00 1.44 C 4.12 g/m*3 1.44 C 0 km/h
Sensor: Nr:Datum:Temp:Abs-Feuchte:Windchill:Wind:
Aussen-T/F 351 21-12-2010 14:00:00 1.24 C 4.06 g/m*3 1.24 C 0 km/h
352 21-12-2010 15:00:00 1.18 C 4.18 g/m*3 1.18 C 0 km/h
353 21-12-2010 16:00:00 0.58 C 4.2 g/m*3 0.58 C 0 km/h
354 21-12-2010 17:00:00 0.16 C 4.28 g/m*3 0.16 C 0 km/h
355 21-12-2010 18:00:00 0.18 C 4.38 g/m*3 0.18 C 0 km/h
356 21-12-2010 19:00:00 0.12 C 4.4 g/m*3 0.12 C 0 km/h
357 21-12-2010 20:00:00 0.12 C 4.4 g/m*3 0.12 C 0 km/h
358 21-12-2010 21:00:00 0.12 C 4.45 g/m*3 0.12 C 0 km/h
359 21-12-2010 22:00:00 0.15 C 4.45 g/m*3 0.15 C 0 km/h
360 21-12-2010 23:00:00 0.12 C 4.45 g/m*3 0.12 C 0 km/h
361 22-12-2010 00:00:00 0.1 C 4.48 g/m*3 0.1 C 0 km/h
362 22-12-2010 01:00:00 0.16 C 4.51 g/m*3 0.16 C 0 km/h
363 22-12-2010 02:00:00 0.2 C 4.52 g/m*3 0.2 C 0 km/h
364 22-12-2010 03:00:00 0.16 C 4.51 g/m*3 0.16 C 0 km/h
365 22-12-2010 04:00:00 0.28 C 4.54 g/m*3 0.28 C 0 km/h
366 22-12-2010 05:00:00 0.3 C 4.55 g/m*3 0.3 C 0 km/h
367 22-12-2010 06:00:00 0.3 C 4.55 g/m*3 0.3 C 0 km/h
368 22-12-2010 07:00:00 0.3 C 4.57 g/m*3 0.3 C 0 km/h
369 22-12-2010 08:00:00 0.34 C 4.61 g/m*3 0.34 C 0 km/h
370 22-12-2010 09:00:00 0.7 C 4.73 g/m*3 0.7 C 0 km/h
371 22-12-2010 10:00:00 1.38 C 4.9 g/m*3 1.38 C 0 km/h
372 22-12-2010 11:00:00 2.3 C 5.02 g/m*3 2.3 C 0 km/h
373 22-12-2010 12:00:00 2.76 C 4.89 g/m*3 2.76 C 0 km/h
374 22-12-2010 13:00:00 2.38 C 4.73 g/m*3 2.38 C 0 km/h
375 22-12-2010 14:00:00 2.4 C 4.76 g/m*3 2.4 C 0 km/h
Sensor: Nr:Datum:Temp:Abs-Feuchte:Windchill:Wind:
Aussen-T/F 376 22-12-2010 15:00:00 1.66 C 4.59 g/m*3 1.66 C 0 km/h
377 22-12-2010 16:00:00 1.16 C 4.6 g/m*3 1.16 C 0 km/h
378 22-12-2010 17:00:00 0.8 C 4.6 g/m*3 0.8 C 0 km/h
379 22-12-2010 18:00:00 0.7 C 4.63 g/m*3 0.7 C 0 km/h
380 22-12-2010 19:00:00 0.78 C 4.7 g/m*3 0.78 C 0 km/h
381 22-12-2010 20:00:00 0.78 C 4.7 g/m*3 0.78 C 0 km/h
382 22-12-2010 21:00:00 0.8 C 4.71 g/m*3 0.8 C 0 km/h
383 22-12-2010 22:00:00 0.7 C 4.68 g/m*3 0.7 C 0 km/h
384 22-12-2010 23:00:00 0.7 C 4.68 g/m*3 0.7 C 0 km/h
385 23-12-2010 00:00:00 0.76 C 4.74 g/m*3 0.76 C 0 km/h
386 23-12-2010 01:00:00 0.7 C 4.73 g/m*3 0.7 C 0 km/h
387 23-12-2010 02:00:00 0.7 C 4.73 g/m*3 0.7 C 0 km/h
388 23-12-2010 03:00:00 0.7 C 4.73 g/m*3 0.7 C 0 km/h
389 23-12-2010 04:00:00 0.66 C 4.72 g/m*3 0.66 C 0 km/h
390 23-12-2010 05:00:00 0.48 C 4.66 g/m*3 0.48 C 0 km/h
391 23-12-2010 06:00:00 0.34 C 4.61 g/m*3 0.34 C 0 km/h
392 23-12-2010 07:00:00 0 C 4.51 g/m*3 0 C 0 km/h
393 23-12-2010 08:00:00 -0.32 C 4.39 g/m*3 -0.32 C 0 km/h
394 23-12-2010 09:00:00 -0.5 C 4.31 g/m*3 -0.5 C 0 km/h
395 23-12-2010 10:00:00 -0.54 C 4.27 g/m*3 -0.54 C 0 km/h
396 23-12-2010 11:00:00 -0.58 C 4.19 g/m*3 -0.58 C 0 km/h
397 23-12-2010 12:00:00 -0.68 C 4.06 g/m*3 -0.68 C 0 km/h
398 23-12-2010 13:00:00 -0.66 C 4 g/m*3 -0.66 C 0 km/h
399 23-12-2010 14:00:00 -0.62 C 3.99 g/m*3 -0.62 C 0 km/h
400 23-12-2010 15:00:00 -0.86 C 3.93 g/m*3 -0.86 C 0 km/h
Sensor: Nr:Datum:Temp:Abs-Feuchte:Windchill:Wind:
Aussen-T/F 401 23-12-2010 16:00:00 -0.9 C 3.96 g/m*3 -0.9 C 0 km/h
402 23-12-2010 17:00:00 -1.02 C 3.93 g/m*3 -1.02 C 0 km/h
403 23-12-2010 18:00:00 -1.14 C 3.89 g/m*3 -1.14 C 0 km/h
404 23-12-2010 19:00:00 -1.26 C 3.84 g/m*3 -1.26 C 0 km/h
405 23-12-2010 20:00:00 -1.26 C 3.84 g/m*3 -1.26 C 0 km/h
406 23-12-2010 21:00:00 -1.1 C 3.86 g/m*3 -1.1 C 0 km/h
407 23-12-2010 22:00:00 -0.94 C 3.92 g/m*3 -0.94 C 0 km/h
408 23-12-2010 23:00:00 -0.8 C 3.98 g/m*3 -0.8 C 0 km/h
409 24-12-2010 00:00:00 -0.9 C 3.91 g/m*3 -0.9 C 0 km/h
410 24-12-2010 01:00:00 -0.74 C 3.98 g/m*3 -0.74 C 0 km/h
411 24-12-2010 02:00:00 -0.5 C 4.03 g/m*3 -0.5 C 0 km/h
412 24-12-2010 03:00:00 -0.48 C 4.03 g/m*3 -0.48 C 0 km/h
413 24-12-2010 04:00:00 -0.5 C 4.03 g/m*3 -0.5 C 0 km/h
414 24-12-2010 05:00:00 -0.74 C 3.91 g/m*3 -0.74 C 0 km/h
415 24-12-2010 06:00:00 -0.96 C 3.79 g/m*3 -0.96 C 0 km/h
416 24-12-2010 07:00:00 -1.2 C 3.64 g/m*3 -1.2 C 0 km/h
417 24-12-2010 08:00:00 -1.48 C 3.64 g/m*3 -1.48 C 0 km/h
418 24-12-2010 09:00:00 -1.7 C 3.66 g/m*3 -1.7 C 0 km/h
419 24-12-2010 10:00:00 -1.54 C 3.68 g/m*3 -1.54 C 0 km/h
420 24-12-2010 11:00:00 -1.32 C 3.67 g/m*3 -1.32 C 0 km/h
421 24-12-2010 12:00:00 -1.34 C 3.58 g/m*3 -1.34 C 0 km/h
422 24-12-2010 13:00:00 -1.38 C 3.52 g/m*3 -1.38 C 0 km/h
423 24-12-2010 14:00:00 -1.4 C 3.52 g/m*3 -1.4 C 0 km/h
424 24-12-2010 15:00:00 -1.84 C 3.46 g/m*3 -1.84 C 0 km/h
425 24-12-2010 16:00:00 -2.42 C 3.35 g/m*3 -2.42 C 0 km/h
Sensor: Nr:Datum:Temp:Abs-Feuchte:Windchill:Wind:
Aussen-T/F 426 24-12-2010 17:00:00 -2.56 C 3.22 g/m*3 -2.56 C 0 km/h
427 24-12-2010 18:00:00 -2.8 C 3.23 g/m*3 -2.8 C 0 km/h
428 24-12-2010 19:00:00 -2.94 C 3.13 g/m*3 -2.94 C 0 km/h
429 24-12-2010 20:00:00 -3.02 C 3.11 g/m*3 -3.02 C 0 km/h
430 24-12-2010 21:00:00 -3.23333 C 3.06 g/m*3 -3.23 C 0 km/h
431 24-12-2010 22:00:00 -3.56 C 3.02 g/m*3 -3.56 C 0 km/h
432 24-12-2010 23:00:00 -3.74 C 2.98 g/m*3 -3.74 C 0 km/h
433 25-12-2010 00:00:00 -3.82 C 2.94 g/m*3 -3.82 C 0 km/h
434 25-12-2010 01:00:00 -3.92 C 2.88 g/m*3 -3.92 C 0 km/h
435 25-12-2010 02:00:00 -4.08 C 2.87 g/m*3 -4.08 C 0 km/h
436 25-12-2010 03:00:00 -4.16 C 2.81 g/m*3 -4.16 C 0 km/h
437 25-12-2010 04:00:00 -4.26 C 2.68 g/m*3 -4.26 C 0 km/h
438 25-12-2010 05:00:00 -4.46 C 2.58 g/m*3 -4.46 C 0 km/h
439 25-12-2010 06:00:00 -4.62 C 2.51 g/m*3 -4.62 C 0 km/h
440 25-12-2010 07:00:00 -4.72 C 2.45 g/m*3 -4.72 C 0 km/h
441 25-12-2010 08:00:00 -4.8 C 2.47 g/m*3 -4.8 C 0 km/h
442 25-12-2010 09:00:00 -4.82 C 2.44 g/m*3 -4.82 C 0 km/h
443 25-12-2010 10:00:00 -4.58 C 2.36 g/m*3 -4.58 C 0 km/h
444 25-12-2010 11:00:00 -4.5 C 2.18 g/m*3 -4.5 C 0 km/h
445 25-12-2010 12:00:00 -4.98 C 2.07 g/m*3 -4.98 C 0 km/h
446 25-12-2010 13:00:00 -4.72 C 2.18 g/m*3 -4.72 C 0 km/h
447 25-12-2010 14:00:00 -4.92 C 2.1 g/m*3 -4.92 C 0 km/h
448 25-12-2010 15:00:00 -5.54 C 2.09 g/m*3 -5.54 C 0 km/h
449 25-12-2010 16:00:00 -6.82 C 2.12 g/m*3 -6.82 C 0 km/h
450 25-12-2010 17:00:00 -7.52 C 2.13 g/m*3 -7.52 C 0 km/h
Sensor: Nr:Datum:Temp:Abs-Feuchte:Windchill:Wind:
Aussen-T/F 451 25-12-2010 18:00:00 -7.46 C 2.17 g/m*3 -7.46 C 0 km/h
452 25-12-2010 19:00:00 -7.4 C 2.17 g/m*3 -7.4 C 0 km/h
453 25-12-2010 20:00:00 -8.34 C 2.11 g/m*3 -8.34 C 0 km/h
454 25-12-2010 21:00:00 -7.4 C 2.32 g/m*3 -7.4 C 0 km/h
455 25-12-2010 22:00:00 -6.8 C 2.31 g/m*3 -6.8 C 0 km/h
456 25-12-2010 23:00:00 -6.82 C 2.18 g/m*3 -6.82 C 0 km/h
457 26-12-2010 00:00:00 -7.08 C 2.12 g/m*3 -7.08 C 0 km/h
458 26-12-2010 01:00:00 -8 C 1.99 g/m*3 -8 C 0 km/h
459 26-12-2010 02:00:00 -8.78 C 1.88 g/m*3 -8.78 C 0 km/h
460 26-12-2010 03:00:00 -9.04 C 1.82 g/m*3 -9.04 C 0 km/h
461 26-12-2010 04:00:00 -9.04 C 1.85 g/m*3 -9.04 C 0 km/h
462 26-12-2010 05:00:00 -8.44 C 1.94 g/m*3 -8.44 C 0 km/h
463 26-12-2010 06:00:00 -7.24 C 2.11 g/m*3 -7.24 C 0 km/h
464 26-12-2010 07:00:00 -6.34 C 2.24 g/m*3 -6.34 C 0 km/h
465 26-12-2010 08:00:00 -5.84 C 2.36 g/m*3 -5.84 C 0 km/h
466 26-12-2010 09:00:00 -4.88 C 2.6 g/m*3 -4.88 C 0 km/h
467 26-12-2010 10:00:00 -4.24 C 2.68 g/m*3 -4.24 C 0 km/h
468 26-12-2010 11:00:00 -3.52 C 2.69 g/m*3 -3.52 C 0 km/h
469 26-12-2010 12:00:00 -3.14 C 2.78 g/m*3 -3.14 C 0 km/h
470 26-12-2010 13:00:00 -2.72 C 2.85 g/m*3 -2.72 C 0 km/h
471 26-12-2010 14:00:00 -2.66 C 3 g/m*3 -2.66 C 0 km/h
472 26-12-2010 15:00:00 -2.72 C 3.13 g/m*3 -2.72 C 0 km/h
473 26-12-2010 16:00:00 -2.86 C 3.16 g/m*3 -2.86 C 0 km/h
474 26-12-2010 17:00:00 -2.82 C 3.17 g/m*3 -2.82 C 0 km/h
475 26-12-2010 18:00:00 -2.9 C 3.17 g/m*3 -2.9 C 0 km/h
Sensor: Nr:Datum:Temp:Abs-Feuchte:Windchill:Wind:
Aussen-T/F 476 26-12-2010 19:00:00 -2.72 C 3.18 g/m*3 -2.72 C 0 km/h
477 26-12-2010 20:00:00 -3.04 C 3.16 g/m*3 -3.04 C 0 km/h
478 26-12-2010 21:00:00 -3.3 C 3.08 g/m*3 -3.3 C 0 km/h
479 26-12-2010 22:00:00 -3.04 C 3.13 g/m*3 -3.04 C 0 km/h
480 26-12-2010 23:00:00 -2.72 C 3.18 g/m*3 -2.72 C 0 km/h
481 27-12-2010 00:00:00 -2.64 C 3.22 g/m*3 -2.64 C 0 km/h
482 27-12-2010 01:00:00 -1.92 C 3.31 g/m*3 -1.92 C 0 km/h
483 27-12-2010 02:00:00 -1.6 C 3.35 g/m*3 -1.6 C 0 km/h
484 27-12-2010 03:00:00 -1.38 C 3.41 g/m*3 -1.38 C 0 km/h
485 27-12-2010 04:00:00 -1.3 C 3.36 g/m*3 -1.3 C 0 km/h
486 27-12-2010 05:00:00 -1.32 C 3.37 g/m*3 -1.32 C 0 km/h
487 27-12-2010 06:00:00 -1.44 C 3.38 g/m*3 -1.44 C 0 km/h
488 27-12-2010 07:00:00 -1.62 C 3.33 g/m*3 -1.62 C 0 km/h
489 27-12-2010 08:00:00 -1.86 C 3.29 g/m*3 -1.86 C 0 km/h
490 27-12-2010 09:00:00 -1.78 C 3.24 g/m*3 -1.78 C 0 km/h
491 27-12-2010 10:00:00 -1.42 C 3.27 g/m*3 -1.42 C 0 km/h
492 27-12-2010 11:00:00 -1.16 C 3.26 g/m*3 -1.16 C 0 km/h
493 27-12-2010 12:00:00 -1.02 C 3.22 g/m*3 -1.02 C 0 km/h
494 27-12-2010 13:00:00 -0.88 C 3.29 g/m*3 -0.88 C 0 km/h
495 27-12-2010 14:00:00 -1.04 C 3.27 g/m*3 -1.04 C 0 km/h
496 27-12-2010 15:00:00 -1.3 C 3.33 g/m*3 -1.3 C 0 km/h
497 27-12-2010 16:00:00 -2.3 C 3.25 g/m*3 -2.3 C 0 km/h
498 27-12-2010 17:00:00 -3.16 C 3.25 g/m*3 -3.16 C 0 km/h
499 27-12-2010 18:00:00 -3.18 C 3.34 g/m*3 -3.18 C 0 km/h
500 27-12-2010 19:00:00 -3.74 C 3.21 g/m*3 -3.74 C 0 km/h
Sensor: Nr:Datum:Temp:Abs-Feuchte:Windchill:Wind:
Aussen-T/F 501 27-12-2010 20:00:00 -4.3 C 3.12 g/m*3 -4.3 C 0 km/h
502 27-12-2010 21:00:00 -4.4 C 3.1 g/m*3 -4.4 C 0 km/h
503 27-12-2010 22:00:00 -4.14 C 3.16 g/m*3 -4.14 C 0 km/h
504 27-12-2010 23:00:00 -4.34 C 3.11 g/m*3 -4.34 C 0 km/h
505 28-12-2010 00:00:00 -4.46 C 3.08 g/m*3 -4.46 C 0 km/h
506 28-12-2010 01:00:00 -4.3 C 3.12 g/m*3 -4.3 C 0 km/h
507 28-12-2010 02:00:00 -4.16 C 3.15 g/m*3 -4.16 C 0 km/h
508 28-12-2010 03:00:00 -4.36 C 3.08 g/m*3 -4.36 C 0 km/h
509 28-12-2010 04:00:00 -4.16 C 3.15 g/m*3 -4.16 C 0 km/h
510 28-12-2010 05:00:00 -3.78 C 3.23 g/m*3 -3.78 C 0 km/h
511 28-12-2010 06:00:00 -3.74 C 3.24 g/m*3 -3.74 C 0 km/h
512 28-12-2010 07:00:00 -3.72 C 3.22 g/m*3 -3.72 C 0 km/h
513 28-12-2010 08:00:00 -3.56 C 3.25 g/m*3 -3.56 C 0 km/h
514 28-12-2010 09:00:00 -2.68 C 3.44 g/m*3 -2.68 C 0 km/h
515 28-12-2010 10:00:00 -1.12 C 3.61 g/m*3 -1.12 C 0 km/h
516 28-12-2010 11:00:00 -0.54 C 3.46 g/m*3 -0.54 C 0 km/h
517 28-12-2010 12:00:00 0.3 C 3.31 g/m*3 0.3 C 0 km/h
518 28-12-2010 13:00:00 0.36 C 3.32 g/m*3 0.36 C 0 km/h
519 28-12-2010 14:00:00 0 C 3.33 g/m*3 0 C 0 km/h
520 28-12-2010 15:00:00 -0.54 C 3.42 g/m*3 -0.54 C 0 km/h
521 28-12-2010 16:00:00 -0.68 C 3.39 g/m*3 -0.68 C 0 km/h
522 28-12-2010 17:00:00 -0.7 C 3.42 g/m*3 -0.7 C 0 km/h
523 28-12-2010 18:00:00 -0.88 C 3.38 g/m*3 -0.88 C 0 km/h
524 28-12-2010 19:00:00 -1.2 C 3.45 g/m*3 -1.2 C 0 km/h
525 28-12-2010 20:00:00 -1.4 C 3.43 g/m*3 -1.4 C 0 km/h
Sensor: Nr:Datum:Temp:Abs-Feuchte:Windchill:Wind:
Aussen-T/F 526 28-12-2010 21:00:00 -1.86 C 3.4 g/m*3 -1.86 C 0 km/h
527 28-12-2010 22:00:00 -1.275 C 3.59 g/m*3 -1.27 C 0 km/h
528 28-12-2010 23:00:00 -1.28 C 3.58 g/m*3 -1.28 C 0 km/h
529 29-12-2010 00:00:00 -1.32 C 3.56 g/m*3 -1.32 C 0 km/h
530 29-12-2010 01:00:00 -1.3 C 3.62 g/m*3 -1.3 C 0 km/h
531 29-12-2010 02:00:00 -1.3 C 3.64 g/m*3 -1.3 C 0 km/h
532 29-12-2010 03:00:00 -1.22 C 3.68 g/m*3 -1.22 C 0 km/h
533 29-12-2010 04:00:00 -1.28 C 3.66 g/m*3 -1.28 C 0 km/h
534 29-12-2010 05:00:00 -1.3 C 3.67 g/m*3 -1.3 C 0 km/h
535 29-12-2010 06:00:00 -1.2 C 3.73 g/m*3 -1.2 C 0 km/h
536 29-12-2010 07:00:00 -1.1 C 3.79 g/m*3 -1.1 C 0 km/h
537 29-12-2010 08:00:00 -1.1 C 3.83 g/m*3 -1.1 C 0 km/h
538 29-12-2010 09:00:00 -0.74 C 3.88 g/m*3 -0.74 C 0 km/h
539 29-12-2010 10:00:00 0.14 C 3.75 g/m*3 0.14 C 0 km/h
540 29-12-2010 11:00:00 0.58 C 3.6 g/m*3 0.58 C 0 km/h
541 29-12-2010 12:00:00 0.88 C 3.58 g/m*3 0.88 C 0 km/h
542 29-12-2010 13:00:00 1.34 C 3.61 g/m*3 1.34 C 0 km/h
543 29-12-2010 14:00:00 1.76 C 3.66 g/m*3 1.76 C 0 km/h
544 29-12-2010 15:00:00 1.18 C 3.73 g/m*3 1.18 C 0 km/h
545 29-12-2010 16:00:00 0.62 C 3.85 g/m*3 0.62 C 0 km/h
546 29-12-2010 17:00:00 0.28 C 3.85 g/m*3 0.28 C 0 km/h
547 29-12-2010 18:00:00 0.14 C 3.89 g/m*3 0.14 C 0 km/h
548 29-12-2010 19:00:00 0.06 C 3.97 g/m*3 0.06 C 0 km/h
549 29-12-2010 20:00:00 -0.04 C 3.96 g/m*3 -0.04 C 0 km/h
550 29-12-2010 21:00:00 -0.18 C 3.92 g/m*3 -0.18 C 0 km/h
Sensor: Nr:Datum:Temp:Abs-Feuchte:Windchill:Wind:
Aussen-T/F 551 29-12-2010 22:00:00 -0.32 C 3.84 g/m*3 -0.32 C 0 km/h
552 29-12-2010 23:00:00 -0.7 C 3.79 g/m*3 -0.7 C 0 km/h
553 30-12-2010 00:00:00 -0.925 C 3.79 g/m*3 -0.93 C 0 km/h
554 30-12-2010 01:00:00 -1.32 C 3.7 g/m*3 -1.32 C 0 km/h
555 30-12-2010 02:00:00 -1.46 C 3.75 g/m*3 -1.46 C 0 km/h
556 30-12-2010 03:00:00 -1.14 C 3.85 g/m*3 -1.14 C 0 km/h
557 30-12-2010 04:00:00 -1.14 C 3.76 g/m*3 -1.14 C 0 km/h
558 30-12-2010 05:00:00 -2.82 C 3.25 g/m*3 -2.82 C 0 km/h
559 30-12-2010 06:00:00 -1.24 C 3.53 g/m*3 -1.24 C 0 km/h
560 30-12-2010 07:00:00 -1.34 C 3.44 g/m*3 -1.34 C 0 km/h
561 30-12-2010 08:00:00 -1.4 C 3.45 g/m*3 -1.4 C 0 km/h
562 30-12-2010 09:00:00 -1.1 C 3.47 g/m*3 -1.1 C 0 km/h
563 30-12-2010 10:00:00 -0.45 C 3.46 g/m*3 -0.45 C 0 km/h
564 30-12-2010 11:00:00 0.08 C 3.53 g/m*3 0.08 C 0 km/h
565 30-12-2010 12:00:00 0.6 C 3.59 g/m*3 0.6 C 0 km/h
566 30-12-2010 13:00:00 1.2 C 3.59 g/m*3 1.2 C 0 km/h
567 30-12-2010 14:00:00 1.32 C 3.61 g/m*3 1.32 C 0 km/h
568 30-12-2010 15:00:00 0.98 C 3.67 g/m*3 0.98 C 0 km/h
569 30-12-2010 16:00:00 0.3 C 3.73 g/m*3 0.3 C 0 km/h
570 30-12-2010 17:00:00 0.04 C 3.74 g/m*3 0.04 C 0 km/h
571 30-12-2010 18:00:00 -0.3 C 3.68 g/m*3 -0.3 C 0 km/h
572 30-12-2010 19:00:00 -0.44 C 3.75 g/m*3 -0.44 C 0 km/h
573 30-12-2010 20:00:00 -0.48 C 3.71 g/m*3 -0.48 C 0 km/h
574 30-12-2010 21:00:00 -0.6 C 3.63 g/m*3 -0.6 C 0 km/h
575 30-12-2010 22:00:00 -0.78 C 3.59 g/m*3 -0.78 C 0 km/h
Sensor: Nr:Datum:Temp:Abs-Feuchte:Windchill:Wind:
Aussen-T/F 576 30-12-2010 23:00:00 -0.96 C 3.51 g/m*3 -0.96 C 0 km/h
577 31-12-2010 00:00:00 -1.1 C 3.49 g/m*3 -1.1 C 0 km/h
578 31-12-2010 01:00:00 -1.14 C 3.54 g/m*3 -1.14 C 0 km/h
579 31-12-2010 02:00:00 -1.34 C 3.49 g/m*3 -1.34 C 0 km/h
580 31-12-2010 03:00:00 -1.76 C 3.4 g/m*3 -1.76 C 0 km/h
581 31-12-2010 04:00:00 -1.98 C 3.38 g/m*3 -1.98 C 0 km/h
582 31-12-2010 05:00:00 -2.12 C 3.34 g/m*3 -2.12 C 0 km/h
583 31-12-2010 06:00:00 -2.26 C 3.29 g/m*3 -2.26 C 0 km/h
584 31-12-2010 07:00:00 -2.12 C 3.36 g/m*3 -2.12 C 0 km/h
585 31-12-2010 08:00:00 -2.12 C 3.39 g/m*3 -2.12 C 0 km/h
586 31-12-2010 09:00:00 -2.18 C 3.35 g/m*3 -2.18 C 0 km/h
587 31-12-2010 10:00:00 -1.9 C 3.35 g/m*3 -1.9 C 0 km/h
588 31-12-2010 11:00:00 -1.22 C 3.38 g/m*3 -1.22 C 0 km/h
589 31-12-2010 12:00:00 -0.92 C 3.41 g/m*3 -0.92 C 0 km/h
590 31-12-2010 13:00:00 -0.18 C 3.46 g/m*3 -0.18 C 0 km/h
591 31-12-2010 14:00:00 0.24 C 3.37 g/m*3 0.24 C 0 km/h
592 31-12-2010 15:00:00 -0.34 C 3.43 g/m*3 -0.34 C 0 km/h
593 31-12-2010 16:00:00 -0.56 C 3.52 g/m*3 -0.56 C 0 km/h
594 31-12-2010 17:00:00 -0.6 C 3.63 g/m*3 -0.6 C 0 km/h
595 31-12-2010 18:00:00 -0.54 C 3.76 g/m*3 -0.54 C 0 km/h
596 31-12-2010 19:00:00 -0.6 C 3.82 g/m*3 -0.6 C 0 km/h
597 31-12-2010 20:00:00 -0.64 C 3.94 g/m*3 -0.64 C 0 km/h
598 31-12-2010 21:00:00 -0.58 C 4.02 g/m*3 -0.58 C 0 km/h
599 31-12-2010 22:00:00 -0.38 C 4.11 g/m*3 -0.38 C 0 km/h
600 31-12-2010 23:00:00 -0.325 C 4.12 g/m*3 -0.33 C 0 km/h
Sensor: Nr:Datum:Temp:Abs-Feuchte:Windchill:Wind:
Aussen-T/F 601 01-01-2011 00:00:00 -0.32 C 4.12 g/m*3 -0.32 C 0 km/h
602 01-01-2011 01:00:00 -0.28 C 4.18 g/m*3 -0.28 C 0 km/h
603 01-01-2011 02:00:00 -0.14 C 4.22 g/m*3 -0.14 C 0 km/h
604 01-01-2011 03:00:00 -0.13333 C 4.22 g/m*3 -0.13 C 0 km/h
605 01-01-2011 04:00:00 -0.2 C 4.21 g/m*3 -0.2 C 0 km/h
606 01-01-2011 05:00:00 -0.02 C 4.3 g/m*3 -0.02 C 0 km/h
607 01-01-2011 06:00:00 0.36 C 4.29 g/m*3 0.36 C 0 km/h
608 01-01-2011 07:00:00 0.5 C 4.25 g/m*3 0.5 C 0 km/h
609 01-01-2011 08:00:00 0.82 C 4.3 g/m*3 0.82 C 0 km/h
610 01-01-2011 09:00:00 1.08 C 4.38 g/m*3 1.08 C 0 km/h
611 01-01-2011 10:00:00 1.36 C 4.59 g/m*3 1.36 C 0 km/h
612 01-01-2011 11:00:00 1.94 C 4.68 g/m*3 1.94 C 0 km/h
613 01-01-2011 12:00:00 2.44 C 4.63 g/m*3 2.44 C 0 km/h
614 01-01-2011 13:00:00 2.92 C 4.62 g/m*3 2.92 C 0 km/h
615 01-01-2011 14:00:00 2.54 C 4.63 g/m*3 2.54 C 0 km/h
616 01-01-2011 15:00:00 2.02 C 4.64 g/m*3 2.02 C 0 km/h
617 01-01-2011 16:00:00 1.58 C 4.73 g/m*3 1.58 C 0 km/h
618 01-01-2011 17:00:00 1.34 C 4.75 g/m*3 1.34 C 0 km/h
619 01-01-2011 18:00:00 1.46 C 4.87 g/m*3 1.46 C 0 km/h
620 01-01-2011 19:00:00 1.96 C 5.05 g/m*3 1.96 C 0 km/h
621 01-01-2011 20:00:00 1.72 C 4.93 g/m*3 1.72 C 0 km/h
622 01-01-2011 21:00:00 1.18 C 4.73 g/m*3 1.18 C 0 km/h
623 01-01-2011 22:00:00 1.06 C 4.73 g/m*3 1.06 C 0 km/h
624 01-01-2011 23:00:00 0.3 C 4.5 g/m*3 0.3 C 0 km/h
625 02-01-2011 00:00:00 0.18 C 4.5 g/m*3 0.18 C 0 km/h
Sensor: Nr:Datum:Temp:Abs-Feuchte:Windchill:Wind:
Aussen-T/F 626 02-01-2011 01:00:00 0.32 C 4.57 g/m*3 0.32 C 0 km/h
627 02-01-2011 02:00:00 0.36 C 4.61 g/m*3 0.36 C 0 km/h
628 02-01-2011 03:00:00 0.44 C 4.64 g/m*3 0.44 C 0 km/h
629 02-01-2011 04:00:00 0.5 C 4.65 g/m*3 0.5 C 0 km/h
630 02-01-2011 05:00:00 0.28 C 4.54 g/m*3 0.28 C 0 km/h
631 02-01-2011 06:00:00 0.3 C 4.54 g/m*3 0.3 C 0 km/h
632 02-01-2011 07:00:00 0.3 C 4.47 g/m*3 0.3 C 0 km/h
633 02-01-2011 08:00:00 0.12 C 4.34 g/m*3 0.12 C 0 km/h
634 02-01-2011 09:00:00 0.54 C 4.48 g/m*3 0.54 C 0 km/h
635 02-01-2011 10:00:00 1.42 C 4.47 g/m*3 1.42 C 0 km/h
636 02-01-2011 11:00:00 1.8 C 4.16 g/m*3 1.8 C 0 km/h
637 02-01-2011 12:00:00 2.06 C 4.16 g/m*3 2.06 C 0 km/h
638 02-01-2011 13:00:00 2.5 C 4.14 g/m*3 2.5 C 0 km/h
639 02-01-2011 14:00:00 2.22 C 4.07 g/m*3 2.22 C 0 km/h
640 02-01-2011 15:00:00 1.7 C 4.03 g/m*3 1.7 C 0 km/h
641 02-01-2011 16:00:00 1.44 C 4.19 g/m*3 1.44 C 0 km/h
642 02-01-2011 17:00:00 0.66 C 4.36 g/m*3 0.66 C 0 km/h
643 02-01-2011 18:00:00 0.62 C 4.45 g/m*3 0.62 C 0 km/h
644 02-01-2011 19:00:00 0.58 C 4.44 g/m*3 0.58 C 0 km/h
645 02-01-2011 20:00:00 0.42 C 4.36 g/m*3 0.42 C 0 km/h
646 02-01-2011 21:00:00 0.18 C 4.32 g/m*3 0.18 C 0 km/h
647 02-01-2011 22:00:00 0.2 C 4.29 g/m*3 0.2 C 0 km/h
648 02-01-2011 23:00:00 0.12 C 4.3 g/m*3 0.12 C 0 km/h
649 03-01-2011 00:00:00 0.12 C 4.34 g/m*3 0.12 C 0 km/h
650 03-01-2011 01:00:00 0.06 C 4.28 g/m*3 0.06 C 0 km/h
Sensor: Nr:Datum:Temp:Abs-Feuchte:Windchill:Wind:
Aussen-T/F 651 03-01-2011 02:00:00 -0.16 C 4.22 g/m*3 -0.16 C 0 km/h
652 03-01-2011 03:00:00 -0.3 C 4.12 g/m*3 -0.3 C 0 km/h
653 03-01-2011 04:00:00 -0.88 C 3.85 g/m*3 -0.88 C 0 km/h
654 03-01-2011 05:00:00 -1.04 C 3.84 g/m*3 -1.04 C 0 km/h
655 03-01-2011 06:00:00 -1.12 C 3.88 g/m*3 -1.12 C 0 km/h
656 03-01-2011 07:00:00 -1.08 C 3.99 g/m*3 -1.08 C 0 km/h
657 03-01-2011 08:00:00 -1.3 C 3.9 g/m*3 -1.3 C 0 km/h
658 03-01-2011 09:00:00 -1.22 C 3.93 g/m*3 -1.22 C 0 km/h
659 03-01-2011 10:00:00 -1.02 C 3.86 g/m*3 -1.02 C 0 km/h
660 03-01-2011 11:00:00 -0.3 C 3.73 g/m*3 -0.3 C 0 km/h
661 03-01-2011 12:00:00 0.26 C 3.73 g/m*3 0.26 C 0 km/h
662 03-01-2011 13:00:00 0.92 C 3.81 g/m*3 0.92 C 0 km/h
663 03-01-2011 14:00:00 0.86 C 3.86 g/m*3 0.86 C 0 km/h
664 03-01-2011 15:00:00 -0.08 C 3.74 g/m*3 -0.08 C 0 km/h
665 03-01-2011 16:00:00 -1.54 C 3.65 g/m*3 -1.54 C 0 km/h
666 03-01-2011 17:00:00 -2.46 C 3.53 g/m*3 -2.46 C 0 km/h
667 03-01-2011 18:00:00 -1.3 C 3.93 g/m*3 -1.3 C 0 km/h
668 03-01-2011 19:00:00 -1.22 C 3.98 g/m*3 -1.22 C 0 km/h
669 03-01-2011 20:00:00 -2 C 3.76 g/m*3 -2 C 0 km/h
670 03-01-2011 21:00:00 -2.5 C 3.63 g/m*3 -2.5 C 0 km/h
671 03-01-2011 22:00:00 -1.6 C 3.9 g/m*3 -1.6 C 0 km/h
672 03-01-2011 23:00:00 -3 C 3.53 g/m*3 -3 C 0 km/h
673 04-01-2011 00:00:00 -3.64 C 3.38 g/m*3 -3.64 C 0 km/h
674 04-01-2011 01:00:00 -3.94 C 3.29 g/m*3 -3.94 C 0 km/h
675 04-01-2011 02:00:00 -3.3 C 3.46 g/m*3 -3.3 C 0 km/h
Sensor: Nr:Datum:Temp:Abs-Feuchte:Windchill:Wind:
Aussen-T/F 676 04-01-2011 03:00:00 -3.18 C 3.47 g/m*3 -3.18 C 0 km/h
677 04-01-2011 04:00:00 -3.44 C 3.4 g/m*3 -3.44 C 0 km/h
678 04-01-2011 05:00:00 -3.74 C 3.3 g/m*3 -3.74 C 0 km/h
679 04-01-2011 06:00:00 -3.84 C 3.27 g/m*3 -3.84 C 0 km/h
680 04-01-2011 07:00:00 -2.72 C 3.57 g/m*3 -2.72 C 0 km/h
681 04-01-2011 08:00:00 -2.14 C 3.76 g/m*3 -2.14 C 0 km/h
682 04-01-2011 09:00:00 -1.88 C 3.83 g/m*3 -1.88 C 0 km/h
683 04-01-2011 10:00:00 -1.02 C 4.06 g/m*3 -1.02 C 0 km/h
684 04-01-2011 11:00:00 -0.42 C 4.05 g/m*3 -0.42 C 0 km/h
685 04-01-2011 12:00:00 -0.26 C 3.46 g/m*3 -0.26 C 0 km/h
686 04-01-2011 13:00:00 0.1 C 3.4 g/m*3 0.1 C 0 km/h
687 04-01-2011 14:00:00 0.06 C 3.33 g/m*3 0.06 C 0 km/h
688 04-01-2011 15:00:00 -0.92 C 3.25 g/m*3 -0.92 C 0 km/h
689 04-01-2011 16:00:00 -1.18 C 3.26 g/m*3 -1.18 C 0 km/h
690 04-01-2011 17:00:00 -2 C 3.21 g/m*3 -2 C 0 km/h
691 04-01-2011 18:00:00 -2.22 C 3.18 g/m*3 -2.22 C 0 km/h
692 04-01-2011 19:00:00 -3.56 C 2.94 g/m*3 -3.56 C 0 km/h
693 04-01-2011 20:00:00 -4.2 C 2.89 g/m*3 -4.2 C 0 km/h
694 04-01-2011 21:00:00 -3.72 C 2.98 g/m*3 -3.72 C 0 km/h
695 04-01-2011 22:00:00 -2.82 C 2.86 g/m*3 -2.82 C 0 km/h
696 04-01-2011 23:00:00 -2.82 C 2.83 g/m*3 -2.82 C 0 km/h
697 05-01-2011 00:00:00 -2.88 C 2.88 g/m*3 -2.88 C 0 km/h
698 05-01-2011 01:00:00 -2.98 C 2.74 g/m*3 -2.98 C 0 km/h
699 05-01-2011 02:00:00 -2.92 C 2.75 g/m*3 -2.92 C 0 km/h
700 05-01-2011 03:00:00 -2.96 C 2.76 g/m*3 -2.96 C 0 km/h
Sensor: Nr:Datum:Temp:Abs-Feuchte:Windchill:Wind:
Aussen-T/F 701 05-01-2011 04:00:00 -3.56 C 2.54 g/m*3 -3.56 C 0 km/h
702 05-01-2011 05:00:00 -4.06 C 2.5 g/m*3 -4.06 C 0 km/h
703 05-01-2011 06:00:00 -4.88 C 2.36 g/m*3 -4.88 C 0 km/h
704 05-01-2011 07:00:00 -6.04 C 2.24 g/m*3 -6.04 C 0 km/h
705 05-01-2011 08:00:00 -7.46 C 2.16 g/m*3 -7.46 C 0 km/h
706 05-01-2011 09:00:00 -6.64 C 2.35 g/m*3 -6.64 C 0 km/h
707 05-01-2011 10:00:00 -4.26 C 2.44 g/m*3 -4.26 C 0 km/h
708 05-01-2011 11:00:00 -3.2 C 2.38 g/m*3 -3.2 C 0 km/h
709 05-01-2011 12:00:00 -3.68 C 2.34 g/m*3 -3.68 C 0 km/h
710 05-01-2011 13:00:00 -3.76 C 2.43 g/m*3 -3.76 C 0 km/h
711 05-01-2011 14:00:00 -3.38 C 2.52 g/m*3 -3.38 C 0 km/h
712 05-01-2011 15:00:00 -3.74 C 2.56 g/m*3 -3.74 C 0 km/h
713 05-01-2011 16:00:00 -4.44 C 2.56 g/m*3 -4.44 C 0 km/h
714 05-01-2011 17:00:00 -5.7 C 2.52 g/m*3 -5.7 C 0 km/h
715 05-01-2011 18:00:00 -5.7 C 2.6 g/m*3 -5.7 C 0 km/h
716 05-01-2011 19:00:00 -3.86 C 2.93 g/m*3 -3.86 C 0 km/h
717 05-01-2011 20:00:00 -2.66 C 3.07 g/m*3 -2.66 C 0 km/h
718 05-01-2011 21:00:00 -1.68 C 3.21 g/m*3 -1.68 C 0 km/h
719 05-01-2011 22:00:00 -1.06 C 3.5 g/m*3 -1.06 C 0 km/h
720 05-01-2011 23:00:00 -0.56 C 3.76 g/m*3 -0.56 C 0 km/h
721 06-01-2011 00:00:00 -0.58 C 3.83 g/m*3 -0.58 C 0 km/h
722 06-01-2011 01:00:00 -0.22 C 3.97 g/m*3 -0.22 C 0 km/h
723 06-01-2011 02:00:00 0.3 C 4.29 g/m*3 0.3 C 0 km/h
724 06-01-2011 03:00:00 0.64 C 4.54 g/m*3 0.64 C 0 km/h
725 06-01-2011 04:00:00 0.88 C 4.68 g/m*3 0.88 C 0 km/h
Sensor: Nr:Datum:Temp:Abs-Feuchte:Windchill:Wind:
Aussen-T/F 726 06-01-2011 05:00:00 1.04 C 4.74 g/m*3 1.04 C 0 km/h
727 06-01-2011 06:00:00 1.26 C 4.86 g/m*3 1.26 C 0 km/h
728 06-01-2011 07:00:00 1.38 C 4.9 g/m*3 1.38 C 0 km/h
729 06-01-2011 08:00:00 1.54 C 4.97 g/m*3 1.54 C 0 km/h
730 06-01-2011 09:00:00 2.54 C 5.3 g/m*3 2.54 C 0 km/h
731 06-01-2011 10:00:00 4.5 C 6.03 g/m*3 4.5 C 0 km/h
732 06-01-2011 11:00:00 6.08 C 6.27 g/m*3 6.08 C 0 km/h
733 06-01-2011 12:00:00 5.34 C 5.8 g/m*3 5.34 C 0 km/h
734 06-01-2011 13:00:00 4.5 C 5.69 g/m*3 4.5 C 0 km/h
735 06-01-2011 14:00:00 4.12 C 5.59 g/m*3 4.12 C 0 km/h
736 06-01-2011 15:00:00 3.94 C 5.62 g/m*3 3.94 C 0 km/h
737 06-01-2011 16:00:00 3.92 C 5.65 g/m*3 3.92 C 0 km/h
738 06-01-2011 17:00:00 4.14 C 5.79 g/m*3 4.14 C 0 km/h
739 06-01-2011 18:00:00 4.6 C 6.02 g/m*3 4.6 C 0 km/h
740 06-01-2011 19:00:00 5.02 C 6.23 g/m*3 5.02 C 0 km/h
741 06-01-2011 20:00:00 7.36 C 7.14 g/m*3 7.36 C 0 km/h
742 06-01-2011 21:00:00 8.56 C 7.35 g/m*3 8.56 C 0 km/h
743 06-01-2011 22:00:00 9.5 C 7.14 g/m*3 9.5 C 0 km/h
744 06-01-2011 23:00:00 9.08 C 7 g/m*3 9.08 C 0 km/h
745 07-01-2011 00:00:00 7.38 C 6.64 g/m*3 7.38 C 0 km/h
746 07-01-2011 01:00:00 6.64 C 6.66 g/m*3 6.64 C 0 km/h
747 07-01-2011 02:00:00 5.82 C 6.46 g/m*3 5.82 C 0 km/h
748 07-01-2011 03:00:00 5.62 C 6.44 g/m*3 5.62 C 0 km/h
749 07-01-2011 04:00:00 5.36 C 6.33 g/m*3 5.36 C 0 km/h
750 07-01-2011 05:00:00 5.28 C 6.34 g/m*3 5.28 C 0 km/h
Sensor: Nr:Datum:Temp:Abs-Feuchte:Windchill:Wind:
Aussen-T/F 751 07-01-2011 06:00:00 4.9 C 6.18 g/m*3 4.9 C 0 km/h
752 07-01-2011 07:00:00 5.04 C 6.27 g/m*3 5.04 C 0 km/h
753 07-01-2011 08:00:00 4.88 C 6.2 g/m*3 4.88 C 0 km/h
754 07-01-2011 09:00:00 4.9 C 6.21 g/m*3 4.9 C 0 km/h
755 07-01-2011 10:00:00 5.5 C 6.43 g/m*3 5.5 C 0 km/h
756 07-01-2011 11:00:00 6.76 C 6.94 g/m*3 6.76 C 0 km/h
757 07-01-2011 12:00:00 7.28 C 7.12 g/m*3 7.28 C 0 km/h
758 07-01-2011 13:00:00 7.38 C 7.12 g/m*3 7.38 C 0 km/h
759 07-01-2011 14:00:00 7.42 C 7.13 g/m*3 7.42 C 0 km/h
760 07-01-2011 15:00:00 7.18 C 7.06 g/m*3 7.18 C 0 km/h
761 07-01-2011 16:00:00 7.06 C 7.02 g/m*3 7.06 C 0 km/h
762 07-01-2011 17:00:00 7.52 C 7.29 g/m*3 7.52 C 0 km/h
763 07-01-2011 18:00:00 9.32 C 8.08 g/m*3 9.32 C 0 km/h
764 07-01-2011 19:00:00 9.44 C 7.83 g/m*3 9.44 C 0 km/h
765 07-01-2011 20:00:00 8.9 C 7.78 g/m*3 8.9 C 0 km/h
766 07-01-2011 21:00:00 9 C 7.86 g/m*3 9 C 0 km/h
767 07-01-2011 22:00:00 8.7 C 7.66 g/m*3 8.7 C 0 km/h
768 07-01-2011 23:00:00 8.76 C 7.71 g/m*3 8.76 C 0 km/h
769 08-01-2011 00:00:00 8.64 C 7.5 g/m*3 8.64 C 0 km/h
770 08-01-2011 01:00:00 7.46 C 7.09 g/m*3 7.46 C 0 km/h
771 08-01-2011 02:00:00 6.72 C 6.89 g/m*3 6.72 C 0 km/h
772 08-01-2011 03:00:00 7.92 C 7.5 g/m*3 7.92 C 0 km/h
773 08-01-2011 04:00:00 7.88 C 7.51 g/m*3 7.88 C 0 km/h
774 08-01-2011 05:00:00 7.94 C 7.56 g/m*3 7.94 C 0 km/h
775 08-01-2011 06:00:00 7.98 C 7.63 g/m*3 7.98 C 0 km/h
Sensor: Nr:Datum:Temp:Abs-Feuchte:Windchill:Wind:
Aussen-T/F 776 08-01-2011 07:00:00 8.16 C 7.7 g/m*3 8.16 C 0 km/h
777 08-01-2011 08:00:00 8.34 C 7.81 g/m*3 8.34 C 0 km/h
778 08-01-2011 09:00:00 8.7 C 7.94 g/m*3 8.7 C 0 km/h
779 08-01-2011 10:00:00 7.78 C 7.48 g/m*3 7.78 C 0 km/h
780 08-01-2011 11:00:00 10.2 C 7.88 g/m*3 10.2 C 0 km/h
781 08-01-2011 12:00:00 13.1 C 6.6 g/m*3 13.1 C 0 km/h
782 08-01-2011 13:00:00 14.18 C 6.07 g/m*3 14.18 C 0 km/h
783 08-01-2011 14:00:00 14.4 C 5.86 g/m*3 14.4 C 0 km/h
784 08-01-2011 15:00:00 14.12 C 5.86 g/m*3 14.12 C 0 km/h
785 08-01-2011 16:00:00 13.6 C 5.86 g/m*3 13.6 C 0 km/h
786 08-01-2011 17:00:00 13.28 C 5.91 g/m*3 13.28 C 0 km/h
787 08-01-2011 18:00:00 13.44 C 5.87 g/m*3 13.44 C 0 km/h
788 08-01-2011 19:00:00 13.16 C 5.93 g/m*3 13.16 C 0 km/h
789 08-01-2011 20:00:00 12.32 C 6.35 g/m*3 12.32 C 0 km/h
790 08-01-2011 21:00:00 12.04 C 6.6 g/m*3 12.04 C 0 km/h
791 08-01-2011 22:00:00 11.94 C 6.56 g/m*3 11.94 C 0 km/h
792 08-01-2011 23:00:00 10.32 C 7.13 g/m*3 10.32 C 0 km/h
793 09-01-2011 00:00:00 9.64 C 7.66 g/m*3 9.64 C 0 km/h
794 09-01-2011 01:00:00 9.62 C 7.98 g/m*3 9.62 C 0 km/h
795 09-01-2011 02:00:00 9.78 C 7.93 g/m*3 9.78 C 0 km/h
796 09-01-2011 03:00:00 9.32 C 7.77 g/m*3 9.32 C 0 km/h
797 09-01-2011 04:00:00 10.92 C 7.59 g/m*3 10.92 C 0 km/h
798 09-01-2011 05:00:00 11.08 C 7.1 g/m*3 11.08 C 0 km/h
799 09-01-2011 06:00:00 7.3 C 6.54 g/m*3 7.3 C 0 km/h
800 09-01-2011 07:00:00 6.12 C 6.39 g/m*3 6.12 C 0 km/h
Sensor: Nr:Datum:Temp:Abs-Feuchte:Windchill:Wind:
Aussen-T/F 801 09-01-2011 08:00:00 5.16 C 6.04 g/m*3 5.16 C 0 km/h
802 09-01-2011 09:00:00 3.98 C 5.5 g/m*3 3.98 C 0 km/h
803 09-01-2011 10:00:00 3.02 C 5.18 g/m*3 3.02 C 0 km/h
804 09-01-2011 11:00:00 4.1 C 5.47 g/m*3 4.1 C 0 km/h
805 09-01-2011 12:00:00 4.56 C 5.39 g/m*3 4.56 C 0 km/h
806 09-01-2011 13:00:00 5.08 C 5.33 g/m*3 5.08 C 0 km/h
807 09-01-2011 14:00:00 5.24 C 5.26 g/m*3 5.24 C 0 km/h
808 09-01-2011 15:00:00 4.58 C 5.43 g/m*3 4.58 C 0 km/h
809 09-01-2011 16:00:00 3.26 C 5.29 g/m*3 3.26 C 0 km/h
810 09-01-2011 17:00:00 2.78 C 5.24 g/m*3 2.78 C 0 km/h
811 09-01-2011 18:00:00 1.76 C 4.96 g/m*3 1.76 C 0 km/h
812 09-01-2011 19:00:00 1.8 C 5.04 g/m*3 1.8 C 0 km/h
813 09-01-2011 20:00:00 1.24 C 4.84 g/m*3 1.24 C 0 km/h
814 09-01-2011 21:00:00 0.64 C 4.68 g/m*3 0.64 C 0 km/h
815 09-01-2011 22:00:00 0.075 C 4.49 g/m*3 0.08 C 0 km/h
816 09-01-2011 23:00:00 0.02 C 4.51 g/m*3 0.02 C 0 km/h
817 10-01-2011 00:00:00 0.16 C 4.56 g/m*3 0.16 C 0 km/h
818 10-01-2011 01:00:00 0.28 C 4.61 g/m*3 0.28 C 0 km/h
819 10-01-2011 02:00:00 0.02 C 4.55 g/m*3 0.02 C 0 km/h
820 10-01-2011 03:00:00 0.2 C 4.62 g/m*3 0.2 C 0 km/h
821 10-01-2011 04:00:00 0.38 C 4.68 g/m*3 0.38 C 0 km/h
822 10-01-2011 05:00:00 0.26 C 4.63 g/m*3 0.26 C 0 km/h
823 10-01-2011 06:00:00 0.2 C 4.57 g/m*3 0.2 C 0 km/h
824 10-01-2011 07:00:00 0.1 C 4.54 g/m*3 0.1 C 0 km/h
825 10-01-2011 08:00:00 0.18 C 4.5 g/m*3 0.18 C 0 km/h
Sensor: Nr:Datum:Temp:Abs-Feuchte:Windchill:Wind:
Aussen-T/F 826 10-01-2011 09:00:00 0.32 C 4.45 g/m*3 0.32 C 0 km/h
827 10-01-2011 10:00:00 0.54 C 4.37 g/m*3 0.54 C 0 km/h
828 10-01-2011 11:00:00 0.88 C 4.22 g/m*3 0.88 C 0 km/h
829 10-01-2011 12:00:00 1.78 C 4.3 g/m*3 1.78 C 0 km/h
830 10-01-2011 13:00:00 2.1 C 4.39 g/m*3 2.1 C 0 km/h
831 10-01-2011 14:00:00 2.26 C 4.42 g/m*3 2.26 C 0 km/h
832 10-01-2011 15:00:00 2.1 C 4.36 g/m*3 2.1 C 0 km/h
833 10-01-2011 16:00:00 1.86 C 4.33 g/m*3 1.86 C 0 km/h
834 10-01-2011 17:00:00 0.84 C 4.24 g/m*3 0.84 C 0 km/h
835 10-01-2011 18:00:00 0.22 C 4.16 g/m*3 0.22 C 0 km/h
836 10-01-2011 19:00:00 0.26 C 4.32 g/m*3 0.26 C 0 km/h
837 10-01-2011 20:00:00 0.68 C 4.35 g/m*3 0.68 C 0 km/h
838 10-01-2011 21:00:00 0.56 C 4.04 g/m*3 0.56 C 0 km/h
839 10-01-2011 22:00:00 0.5 C 4.05 g/m*3 0.5 C 0 km/h
840 10-01-2011 23:00:00 0.54 C 4.04 g/m*3 0.54 C 0 km/h
841 11-01-2011 00:00:00 0.16 C 3.93 g/m*3 0.16 C 0 km/h
842 11-01-2011 01:00:00 -0.12 C 4.08 g/m*3 -0.12 C 0 km/h
843 11-01-2011 02:00:00 0.78 C 4.17 g/m*3 0.78 C 0 km/h
844 11-01-2011 03:00:00 0.72 C 4.05 g/m*3 0.72 C 0 km/h
845 11-01-2011 04:00:00 0.42 C 4.05 g/m*3 0.42 C 0 km/h
846 11-01-2011 05:00:00 1.1 C 4.13 g/m*3 1.1 C 0 km/h
847 11-01-2011 06:00:00 1.26 C 4.2 g/m*3 1.26 C 0 km/h
848 11-01-2011 07:00:00 1.42 C 4.33 g/m*3 1.42 C 0 km/h
849 11-01-2011 08:00:00 1.5 C 4.45 g/m*3 1.5 C 0 km/h
850 11-01-2011 09:00:00 2.06 C 4.66 g/m*3 2.06 C 0 km/h
Sensor: Nr:Datum:Temp:Abs-Feuchte:Windchill:Wind:
Aussen-T/F 851 11-01-2011 10:00:00 3.04 C 4.63 g/m*3 3.04 C 0 km/h
852 11-01-2011 11:00:00 3.28 C 4.9 g/m*3 3.28 C 0 km/h
853 11-01-2011 12:00:00 5.5 C 4.62 g/m*3 5.5 C 0 km/h
854 11-01-2011 13:00:00 5.3 C 4.75 g/m*3 5.3 C 0 km/h
855 11-01-2011 14:00:00 5.3 C 4.89 g/m*3 5.3 C 0 km/h
856 11-01-2011 15:00:00 5.36 C 5.07 g/m*3 5.36 C 0 km/h
857 11-01-2011 16:00:00 4.58 C 5.42 g/m*3 4.58 C 0 km/h
858 11-01-2011 17:00:00 5.1 C 5.46 g/m*3 5.1 C 0 km/h
859 11-01-2011 18:00:00 5.48 C 5.51 g/m*3 5.48 C 0 km/h
860 11-01-2011 19:00:00 5.98 C 5.57 g/m*3 5.98 C 0 km/h
861 11-01-2011 20:00:00 6.14 C 5.6 g/m*3 6.14 C 0 km/h
862 11-01-2011 21:00:00 6.16 C 5.66 g/m*3 6.16 C 0 km/h
863 11-01-2011 22:00:00 5.96 C 5.91 g/m*3 5.96 C 0 km/h
864 11-01-2011 23:00:00 6 C 6.01 g/m*3 6 C 0 km/h
865 12-01-2011 00:00:00 6.14 C 5.46 g/m*3 6.14 C 0 km/h
866 12-01-2011 01:00:00 5.96 C 5.23 g/m*3 5.96 C 0 km/h
867 12-01-2011 02:00:00 5.9 C 5.06 g/m*3 5.9 C 0 km/h
868 12-01-2011 03:00:00 4.92 C 5.18 g/m*3 4.92 C 0 km/h
869 12-01-2011 04:00:00 4.08 C 5.34 g/m*3 4.08 C 0 km/h
870 12-01-2011 05:00:00 3.76 C 5.24 g/m*3 3.76 C 0 km/h
871 12-01-2011 06:00:00 3.56 C 5.12 g/m*3 3.56 C 0 km/h
872 12-01-2011 07:00:00 3.32 C 5.02 g/m*3 3.32 C 0 km/h
873 12-01-2011 08:00:00 2.98 C 4.99 g/m*3 2.98 C 0 km/h
874 12-01-2011 09:00:00 3.84 C 5.04 g/m*3 3.84 C 0 km/h
875 12-01-2011 10:00:00 4.82 C 4.87 g/m*3 4.82 C 0 km/h
Sensor: Nr:Datum:Temp:Abs-Feuchte:Windchill:Wind:
Aussen-T/F 876 12-01-2011 11:00:00 5.26 C 4.85 g/m*3 5.26 C 0 km/h
877 12-01-2011 12:00:00 4.88 C 5.08 g/m*3 4.88 C 0 km/h
878 12-01-2011 13:00:00 4.9 C 5.37 g/m*3 4.9 C 0 km/h
879 12-01-2011 14:00:00 5.12 C 5.52 g/m*3 5.12 C 0 km/h
880 12-01-2011 15:00:00 5.42 C 5.51 g/m*3 5.42 C 0 km/h
881 12-01-2011 16:00:00 6.04 C 5.47 g/m*3 6.04 C 0 km/h
882 12-01-2011 17:00:00 6.2 C 5.6 g/m*3 6.2 C 0 km/h
883 12-01-2011 18:00:00 6.12 C 5.91 g/m*3 6.12 C 0 km/h
884 12-01-2011 19:00:00 6.3 C 6.17 g/m*3 6.3 C 0 km/h
885 12-01-2011 20:00:00 6.98 C 6.28 g/m*3 6.98 C 0 km/h
886 12-01-2011 21:00:00 7.34 C 6.51 g/m*3 7.34 C 0 km/h
887 12-01-2011 22:00:00 7.96 C 6.71 g/m*3 7.96 C 0 km/h
888 12-01-2011 23:00:00 8.76 C 6.82 g/m*3 8.76 C 0 km/h
889 13-01-2011 00:00:00 9.3 C 6.99 g/m*3 9.3 C 0 km/h
890 13-01-2011 01:00:00 9.98 C 7.26 g/m*3 9.98 C 0 km/h
891 13-01-2011 02:00:00 10.6 C 7.55 g/m*3 10.6 C 0 km/h
892 13-01-2011 03:00:00 10.32 C 7.84 g/m*3 10.32 C 0 km/h
893 13-01-2011 04:00:00 10.7 C 8.05 g/m*3 10.7 C 0 km/h
894 13-01-2011 05:00:00 10.84 C 8.13 g/m*3 10.84 C 0 km/h
895 13-01-2011 06:00:00 10.58 C 8.31 g/m*3 10.58 C 0 km/h
896 13-01-2011 07:00:00 10.66 C 8.46 g/m*3 10.66 C 0 km/h
897 13-01-2011 08:00:00 10.84 C 8.46 g/m*3 10.84 C 0 km/h
898 13-01-2011 09:00:00 11.26 C 8.44 g/m*3 11.26 C 0 km/h
899 13-01-2011 10:00:00 11.94 C 8.32 g/m*3 11.94 C 0 km/h
900 13-01-2011 11:00:00 12.52 C 8.26 g/m*3 12.52 C 0 km/h
Sensor: Nr:Datum:Temp:Abs-Feuchte:Windchill:Wind:
Aussen-T/F 901 13-01-2011 12:00:00 12.46 C 8.31 g/m*3 12.46 C 0 km/h
902 13-01-2011 13:00:00 12.54 C 8.4 g/m*3 12.54 C 0 km/h
903 13-01-2011 14:00:00 13.18 C 8.28 g/m*3 13.18 C 0 km/h
904 13-01-2011 15:00:00 13.06 C 8.26 g/m*3 13.06 C 0 km/h
905 13-01-2011 16:00:00 12.9 C 8.48 g/m*3 12.9 C 0 km/h
906 13-01-2011 17:00:00 12.86 C 8.5 g/m*3 12.86 C 0 km/h
907 13-01-2011 18:00:00 12.84 C 8.42 g/m*3 12.84 C 0 km/h
908 13-01-2011 19:00:00 12.82 C 8.5 g/m*3 12.82 C 0 km/h
909 13-01-2011 20:00:00 12.7 C 8.53 g/m*3 12.7 C 0 km/h
910 13-01-2011 21:00:00 12.82 C 8.46 g/m*3 12.82 C 0 km/h
911 13-01-2011 22:00:00 12.82 C 8.34 g/m*3 12.82 C 0 km/h
912 13-01-2011 23:00:00 12.74 C 8.26 g/m*3 12.74 C 0 km/h
913 14-01-2011 00:00:00 12.56 C 8.14 g/m*3 12.56 C 0 km/h
914 14-01-2011 01:00:00 12.5 C 8.09 g/m*3 12.5 C 0 km/h
915 14-01-2011 02:00:00 12.34 C 7.95 g/m*3 12.34 C 0 km/h
916 14-01-2011 03:00:00 12.24 C 7.83 g/m*3 12.24 C 0 km/h
917 14-01-2011 04:00:00 12.24 C 7.81 g/m*3 12.24 C 0 km/h
918 14-01-2011 05:00:00 12.26 C 7.8 g/m*3 12.26 C 0 km/h
919 14-01-2011 06:00:00 12.56 C 7.61 g/m*3 12.56 C 0 km/h
920 14-01-2011 07:00:00 12.3 C 7.36 g/m*3 12.3 C 0 km/h
921 14-01-2011 08:00:00 11.66 C 6.99 g/m*3 11.66 C 0 km/h
922 14-01-2011 09:00:00 11.46 C 6.84 g/m*3 11.46 C 0 km/h
923 14-01-2011 10:00:00 11.74 C 6.71 g/m*3 11.74 C 0 km/h
924 14-01-2011 11:00:00 12.02 C 6.62 g/m*3 12.02 C 0 km/h
925 14-01-2011 12:00:00 12.14 C 6.54 g/m*3 12.14 C 0 km/h
Sensor: Nr:Datum:Temp:Abs-Feuchte:Windchill:Wind:
Aussen-T/F 926 14-01-2011 13:00:00 12 C 6.63 g/m*3 12 C 0 km/h
927 14-01-2011 14:00:00 11.64 C 6.81 g/m*3 11.64 C 0 km/h
928 14-01-2011 15:00:00 12.12 C 6.55 g/m*3 12.12 C 0 km/h
929 14-01-2011 16:00:00 11.96 C 6.4 g/m*3 11.96 C 0 km/h
930 14-01-2011 17:00:00 11.52 C 6.33 g/m*3 11.52 C 0 km/h
931 14-01-2011 18:00:00 11.04 C 6.32 g/m*3 11.04 C 0 km/h
932 14-01-2011 19:00:00 11.14 C 6.24 g/m*3 11.14 C 0 km/h
933 14-01-2011 20:00:00 11.68 C 6.08 g/m*3 11.68 C 0 km/h
934 14-01-2011 21:00:00 11.4 C 6.01 g/m*3 11.4 C 0 km/h
935 14-01-2011 22:00:00 10.82 C 6.25 g/m*3 10.82 C 0 km/h
936 14-01-2011 23:00:00 9.24 C 6.77 g/m*3 9.24 C 0 km/h
937 15-01-2011 00:00:00 8.22 C 6.64 g/m*3 8.22 C 0 km/h
938 15-01-2011 01:00:00 8.22 C 6.41 g/m*3 8.22 C 0 km/h
939 15-01-2011 02:00:00 8.04 C 6.43 g/m*3 8.04 C 0 km/h
940 15-01-2011 03:00:00 8.12 C 6.47 g/m*3 8.12 C 0 km/h
941 15-01-2011 04:00:00 8.22 C 6.41 g/m*3 8.22 C 0 km/h
942 15-01-2011 05:00:00 7.96 C 6.14 g/m*3 7.96 C 0 km/h
943 15-01-2011 06:00:00 7.44 C 6.22 g/m*3 7.44 C 0 km/h
944 15-01-2011 07:00:00 7.08 C 6.14 g/m*3 7.08 C 0 km/h
945 15-01-2011 08:00:00 7.68 C 6.14 g/m*3 7.68 C 0 km/h
946 15-01-2011 09:00:00 8.3 C 5.98 g/m*3 8.3 C 0 km/h
947 15-01-2011 10:00:00 9.06 C 5.91 g/m*3 9.06 C 0 km/h
948 15-01-2011 11:00:00 9.86 C 5.89 g/m*3 9.86 C 0 km/h
949 15-01-2011 12:00:00 10.2 C 5.73 g/m*3 10.2 C 0 km/h
950 15-01-2011 13:00:00 10.04 C 5.58 g/m*3 10.04 C 0 km/h
Sensor: Nr:Datum:Temp:Abs-Feuchte:Windchill:Wind:
Aussen-T/F 951 15-01-2011 14:00:00 10.04 C 5.54 g/m*3 10.04 C 0 km/h
952 15-01-2011 15:00:00 9.62 C 5.52 g/m*3 9.62 C 0 km/h
953 15-01-2011 16:00:00 8.9 C 5.71 g/m*3 8.9 C 0 km/h
954 15-01-2011 17:00:00 9.02 C 5.65 g/m*3 9.02 C 0 km/h
955 15-01-2011 18:00:00 8.98 C 5.78 g/m*3 8.98 C 0 km/h
956 15-01-2011 19:00:00 9.18 C 5.69 g/m*3 9.18 C 0 km/h
957 15-01-2011 20:00:00 8.92 C 5.68 g/m*3 8.92 C 0 km/h
958 15-01-2011 21:00:00 8.04 C 5.62 g/m*3 8.04 C 0 km/h
959 15-01-2011 22:00:00 8.6 C 5.89 g/m*3 8.6 C 0 km/h
960 15-01-2011 23:00:00 8.62 C 5.89 g/m*3 8.62 C 0 km/h
961 16-01-2011 00:00:00 8.9 C 5.83 g/m*3 8.9 C 0 km/h
962 16-01-2011 01:00:00 8.24 C 5.69 g/m*3 8.24 C 0 km/h
963 16-01-2011 02:00:00 7.96 C 5.77 g/m*3 7.96 C 0 km/h
964 16-01-2011 03:00:00 8.14 C 5.71 g/m*3 8.14 C 0 km/h
965 16-01-2011 04:00:00 8.22 C 5.75 g/m*3 8.22 C 0 km/h
966 16-01-2011 05:00:00 7.16 C 5.98 g/m*3 7.16 C 0 km/h
967 16-01-2011 06:00:00 7.06 C 6.08 g/m*3 7.06 C 0 km/h
968 16-01-2011 07:00:00 7.88 C 6.07 g/m*3 7.88 C 0 km/h
969 16-01-2011 08:00:00 8.22 C 5.87 g/m*3 8.22 C 0 km/h
970 16-01-2011 09:00:00 8.04 C 5.9 g/m*3 8.04 C 0 km/h
971 16-01-2011 10:00:00 7.98 C 5.91 g/m*3 7.98 C 0 km/h
972 16-01-2011 11:00:00 8.36 C 5.99 g/m*3 8.36 C 0 km/h
973 16-01-2011 12:00:00 8.64 C 6.15 g/m*3 8.64 C 0 km/h
974 16-01-2011 13:00:00 8.82 C 6.19 g/m*3 8.82 C 0 km/h
975 16-01-2011 14:00:00 8.46 C 6.27 g/m*3 8.46 C 0 km/h
Sensor: Nr:Datum:Temp:Abs-Feuchte:Windchill:Wind:
Aussen-T/F 976 16-01-2011 15:00:00 9.92 C 6.23 g/m*3 9.92 C 0 km/h
977 16-01-2011 16:00:00 8.04 C 6.35 g/m*3 8.04 C 0 km/h
978 16-01-2011 17:00:00 5.92 C 6.14 g/m*3 5.92 C 0 km/h
979 16-01-2011 18:00:00 4.84 C 5.92 g/m*3 4.84 C 0 km/h
980 16-01-2011 19:00:00 4.22 C 5.77 g/m*3 4.22 C 0 km/h
981 16-01-2011 20:00:00 3.26 C 5.47 g/m*3 3.26 C 0 km/h
982 16-01-2011 21:00:00 2.4 C 5.2 g/m*3 2.4 C 0 km/h
983 16-01-2011 22:00:00 2.16 C 5.16 g/m*3 2.16 C 0 km/h
984 16-01-2011 23:00:00 1.36 C 4.89 g/m*3 1.36 C 0 km/h
985 17-01-2011 00:00:00 1.4 C 4.93 g/m*3 1.4 C 0 km/h
986 17-01-2011 01:00:00 1.18 C 4.88 g/m*3 1.18 C 0 km/h
987 17-01-2011 02:00:00 1.12 C 4.87 g/m*3 1.12 C 0 km/h
988 17-01-2011 03:00:00 1.04 C 4.87 g/m*3 1.04 C 0 km/h
989 17-01-2011 04:00:00 -0.04 C 4.49 g/m*3 -0.04 C 0 km/h
990 17-01-2011 05:00:00 0.08 C 4.55 g/m*3 0.08 C 0 km/h
991 17-01-2011 06:00:00 -0.62 C 4.32 g/m*3 -0.62 C 0 km/h
992 17-01-2011 07:00:00 -0.4 C 4.4 g/m*3 -0.4 C 0 km/h
993 17-01-2011 08:00:00 -0.66 C 4.32 g/m*3 -0.66 C 0 km/h
994 17-01-2011 09:00:00 0.72 C 4.79 g/m*3 0.72 C 0 km/h
995 17-01-2011 10:00:00 0.68 C 4.77 g/m*3 0.68 C 0 km/h
996 17-01-2011 11:00:00 2.14 C 5.26 g/m*3 2.14 C 0 km/h
997 17-01-2011 12:00:00 5.42 C 6.5 g/m*3 5.42 C 0 km/h
998 17-01-2011 13:00:00 6.06 C 6.54 g/m*3 6.06 C 0 km/h
999 17-01-2011 14:00:00 6.4 C 6.08 g/m*3 6.4 C 0 km/h
1000 17-01-2011 15:00:00 6.18 C 5.9 g/m*3 6.18 C 0 km/h
Sensor: Nr:Datum:Temp:Abs-Feuchte:Windchill:Wind:
Aussen-T/F 1001 17-01-2011 16:00:00 6.18 C 5.96 g/m*3 6.18 C 0 km/h
1002 17-01-2011 17:00:00 6.2 C 5.82 g/m*3 6.2 C 0 km/h
1003 17-01-2011 18:00:00 5.98 C 6.05 g/m*3 5.98 C 0 km/h
1004 17-01-2011 19:00:00 6.22 C 6.1 g/m*3 6.22 C 0 km/h
1005 17-01-2011 20:00:00 6.94 C 6.19 g/m*3 6.94 C 0 km/h
1006 17-01-2011 21:00:00 8.04 C 6.23 g/m*3 8.04 C 0 km/h
1007 17-01-2011 22:00:00 8.28 C 6.13 g/m*3 8.28 C 0 km/h
1008 17-01-2011 23:00:00 8.56 C 6.24 g/m*3 8.56 C 0 km/h
1009 18-01-2011 00:00:00 7.64 C 6.14 g/m*3 7.64 C 0 km/h
1010 18-01-2011 01:00:00 6.84 C 6.13 g/m*3 6.84 C 0 km/h
1011 18-01-2011 02:00:00 5.24 C 5.94 g/m*3 5.24 C 0 km/h
1012 18-01-2011 03:00:00 7.1 C 6.1 g/m*3 7.1 C 0 km/h
1013 18-01-2011 04:00:00 7.06 C 5.96 g/m*3 7.06 C 0 km/h
1014 18-01-2011 05:00:00 7.68 C 5.94 g/m*3 7.68 C 0 km/h
1015 18-01-2011 06:00:00 7.26 C 5.97 g/m*3 7.26 C 0 km/h
1016 18-01-2011 07:00:00 7.14 C 6.04 g/m*3 7.14 C 0 km/h
1017 18-01-2011 08:00:00 7.3 C 5.97 g/m*3 7.3 C 0 km/h
1018 18-01-2011 09:00:00 8.44 C 6.04 g/m*3 8.44 C 0 km/h
1019 18-01-2011 10:00:00 8.84 C 6.09 g/m*3 8.84 C 0 km/h
1020 18-01-2011 11:00:00 8.74 C 6.05 g/m*3 8.74 C 0 km/h
1021 18-01-2011 12:00:00 9.7 C 6.07 g/m*3 9.7 C 0 km/h
1022 18-01-2011 13:00:00 9.7 C 6.05 g/m*3 9.7 C 0 km/h
1023 18-01-2011 14:00:00 9.72 C 5.94 g/m*3 9.72 C 0 km/h
1024 18-01-2011 15:00:00 9.42 C 5.67 g/m*3 9.42 C 0 km/h
1025 18-01-2011 16:00:00 8.38 C 5.78 g/m*3 8.38 C 0 km/h
Sensor: Nr:Datum:Temp:Abs-Feuchte:Windchill:Wind:
Aussen-T/F 1026 18-01-2011 17:00:00 6.54 C 6.42 g/m*3 6.54 C 0 km/h
1027 18-01-2011 18:00:00 6.16 C 6.31 g/m*3 6.16 C 0 km/h
1028 18-01-2011 19:00:00 5.86 C 6.26 g/m*3 5.86 C 0 km/h
1029 18-01-2011 20:00:00 5.74 C 6.04 g/m*3 5.74 C 0 km/h
1030 18-01-2011 21:00:00 5.1 C 5.62 g/m*3 5.1 C 0 km/h
1031 18-01-2011 22:00:00 4.64 C 5.48 g/m*3 4.64 C 0 km/h
1032 18-01-2011 23:00:00 4.68 C 5.47 g/m*3 4.68 C 0 km/h
1033 19-01-2011 00:00:00 4.36 C 5.2 g/m*3 4.36 C 0 km/h
1034 19-01-2011 01:00:00 3.88 C 4.77 g/m*3 3.88 C 0 km/h
1035 19-01-2011 02:00:00 3.42 C 4.67 g/m*3 3.42 C 0 km/h
1036 19-01-2011 03:00:00 2.92 C 4.8 g/m*3 2.92 C 0 km/h
1037 19-01-2011 04:00:00 2.8 C 4.89 g/m*3 2.8 C 0 km/h
1038 19-01-2011 05:00:00 2.56 C 4.99 g/m*3 2.56 C 0 km/h
1039 19-01-2011 06:00:00 2.64 C 4.99 g/m*3 2.64 C 0 km/h
1040 19-01-2011 07:00:00 2.8 C 4.85 g/m*3 2.8 C 0 km/h
1041 19-01-2011 08:00:00 2.4 C 4.86 g/m*3 2.4 C 0 km/h
1042 19-01-2011 09:00:00 2.7 C 4.81 g/m*3 2.7 C 0 km/h
1043 19-01-2011 10:00:00 2.4 C 4.68 g/m*3 2.4 C 0 km/h
1044 19-01-2011 11:00:00 3.64 C 4.84 g/m*3 3.64 C 0 km/h
1045 19-01-2011 12:00:00 4.44 C 4.64 g/m*3 4.44 C 0 km/h
1046 19-01-2011 13:00:00 4.94 C 4.35 g/m*3 4.94 C 0 km/h
1047 19-01-2011 14:00:00 5.36 C 4.24 g/m*3 5.36 C 0 km/h
1048 19-01-2011 15:00:00 4.94 C 4.13 g/m*3 4.94 C 0 km/h
1049 19-01-2011 16:00:00 4.18 C 4.38 g/m*3 4.18 C 0 km/h
1050 19-01-2011 17:00:00 3.34 C 4.54 g/m*3 3.34 C 0 km/h
Sensor: Nr:Datum:Temp:Abs-Feuchte:Windchill:Wind:
Aussen-T/F 1051 19-01-2011 18:00:00 2.94 C 4.7 g/m*3 2.94 C 0 km/h
1052 19-01-2011 19:00:00 3.2 C 4.46 g/m*3 3.2 C 0 km/h
1053 19-01-2011 20:00:00 2.36 C 4.69 g/m*3 2.36 C 0 km/h
1054 19-01-2011 21:00:00 2.5 C 4.78 g/m*3 2.5 C 0 km/h
1055 19-01-2011 22:00:00 2.4 C 4.73 g/m*3 2.4 C 0 km/h
1056 19-01-2011 23:00:00 2.28 C 4.69 g/m*3 2.28 C 0 km/h
1057 20-01-2011 00:00:00 1.72 C 4.73 g/m*3 1.72 C 0 km/h
1058 20-01-2011 01:00:00 1.82 C 4.87 g/m*3 1.82 C 0 km/h
1059 20-01-2011 02:00:00 1.22 C 4.71 g/m*3 1.22 C 0 km/h
1060 20-01-2011 03:00:00 1.34 C 4.82 g/m*3 1.34 C 0 km/h
1061 20-01-2011 04:00:00 1.16 C 4.78 g/m*3 1.16 C 0 km/h
1062 20-01-2011 05:00:00 1.36 C 4.87 g/m*3 1.36 C 0 km/h
1063 20-01-2011 06:00:00 1.28 C 4.85 g/m*3 1.28 C 0 km/h
1064 20-01-2011 07:00:00 1.02 C 4.73 g/m*3 1.02 C 0 km/h
1065 20-01-2011 08:00:00 1.2 C 4.75 g/m*3 1.2 C 0 km/h
1066 20-01-2011 09:00:00 1.44 C 4.7 g/m*3 1.44 C 0 km/h
1067 20-01-2011 10:00:00 2.02 C 4.61 g/m*3 2.02 C 0 km/h
1068 20-01-2011 11:00:00 2.72 C 4.53 g/m*3 2.72 C 0 km/h
1069 20-01-2011 12:00:00 3.26 C 4.44 g/m*3 3.26 C 0 km/h
1070 20-01-2011 13:00:00 3.88 C 4.35 g/m*3 3.88 C 0 km/h
1071 20-01-2011 14:00:00 4.1 C 4.29 g/m*3 4.1 C 0 km/h
1072 20-01-2011 15:00:00 3.26 C 4.1 g/m*3 3.26 C 0 km/h
1073 20-01-2011 16:00:00 2.48 C 3.98 g/m*3 2.48 C 0 km/h
1074 20-01-2011 17:00:00 1.98 C 3.95 g/m*3 1.98 C 0 km/h
1075 20-01-2011 18:00:00 1.7 C 3.97 g/m*3 1.7 C 0 km/h
Sensor: Nr:Datum:Temp:Abs-Feuchte:Windchill:Wind:
Aussen-T/F 1076 20-01-2011 19:00:00 1.3 C 3.89 g/m*3 1.3 C 0 km/h
1077 20-01-2011 20:00:00 0.9 C 3.72 g/m*3 0.9 C 0 km/h
1078 20-01-2011 21:00:00 -0.16 C 3.59 g/m*3 -0.16 C 0 km/h
1079 20-01-2011 22:00:00 -0.28 C 3.55 g/m*3 -0.28 C 0 km/h
1080 20-01-2011 23:00:00 0.08 C 3.64 g/m*3 0.08 C 0 km/h
1081 21-01-2011 00:00:00 0.34 C 3.13 g/m*3 0.34 C 0 km/h
1082 21-01-2011 01:00:00 0.18 C 3.08 g/m*3 0.18 C 0 km/h
1083 21-01-2011 02:00:00 0.04 C 3.11 g/m*3 0.04 C 0 km/h
1084 21-01-2011 03:00:00 -0.36 C 2.8 g/m*3 -0.36 C 0 km/h
1085 21-01-2011 04:00:00 -0.38 C 2.67 g/m*3 -0.38 C 0 km/h
1086 21-01-2011 05:00:00 -0.46 C 2.75 g/m*3 -0.46 C 0 km/h
1087 21-01-2011 06:00:00 -0.74 C 2.81 g/m*3 -0.74 C 0 km/h
1088 21-01-2011 07:00:00 -0.6 C 2.67 g/m*3 -0.6 C 0 km/h
1089 21-01-2011 08:00:00 -0.5 C 2.69 g/m*3 -0.5 C 0 km/h
1090 21-01-2011 09:00:00 -0.14 C 2.75 g/m*3 -0.14 C 0 km/h
1091 21-01-2011 10:00:00 0.14 C 2.74 g/m*3 0.14 C 0 km/h
1092 21-01-2011 11:00:00 0.02 C 2.82 g/m*3 0.02 C 0 km/h
1093 21-01-2011 12:00:00 0.32 C 2.9 g/m*3 0.32 C 0 km/h
1094 21-01-2011 13:00:00 1.06 C 2.95 g/m*3 1.06 C 0 km/h
1095 21-01-2011 14:00:00 1.28 C 3.01 g/m*3 1.28 C 0 km/h
1096 21-01-2011 15:00:00 1.02 C 3.01 g/m*3 1.02 C 0 km/h
1097 21-01-2011 16:00:00 0.18 C 3.13 g/m*3 0.18 C 0 km/h
1098 21-01-2011 17:00:00 -0.22 C 3.25 g/m*3 -0.22 C 0 km/h
1099 21-01-2011 18:00:00 -0.14 C 3.26 g/m*3 -0.14 C 0 km/h
1100 21-01-2011 19:00:00 -0.4 C 3.25 g/m*3 -0.4 C 0 km/h
Sensor: Nr:Datum:Temp:Abs-Feuchte:Windchill:Wind:
Aussen-T/F 1101 21-01-2011 20:00:00 -0.42 C 3.4 g/m*3 -0.42 C 0 km/h
1102 21-01-2011 21:00:00 -0.78 C 3.61 g/m*3 -0.78 C 0 km/h
1103 21-01-2011 22:00:00 -0.58 C 3.7 g/m*3 -0.58 C 0 km/h
1104 21-01-2011 23:00:00 -0.48 C 3.8 g/m*3 -0.48 C 0 km/h
1105 22-01-2011 00:00:00 -0.4 C 3.86 g/m*3 -0.4 C 0 km/h
1106 22-01-2011 01:00:00 -0.4 C 3.86 g/m*3 -0.4 C 0 km/h
1107 22-01-2011 02:00:00 -0.4 C 3.86 g/m*3 -0.4 C 0 km/h
1108 22-01-2011 03:00:00 -0.4 C 3.86 g/m*3 -0.4 C 0 km/h
1109 22-01-2011 04:00:00 -0.4 C 3.86 g/m*3 -0.4 C 0 km/h
1110 22-01-2011 05:00:00 -0.4 C 3.86 g/m*3 -0.4 C 0 km/h
1111 22-01-2011 06:00:00 -0.4 C 3.86 g/m*3 -0.4 C 0 km/h
1112 22-01-2011 07:00:00 -0.4 C 3.86 g/m*3 -0.4 C 0 km/h
1113 22-01-2011 08:00:00 -0.32 C 3.89 g/m*3 -0.32 C 0 km/h
1114 22-01-2011 09:00:00 0 C 3.97 g/m*3 0 C 0 km/h
1115 22-01-2011 10:00:00 0.92 C 3.86 g/m*3 0.92 C 0 km/h
1116 22-01-2011 11:00:00 1.4 C 3.72 g/m*3 1.4 C 0 km/h
1117 22-01-2011 12:00:00 1.72 C 3.69 g/m*3 1.72 C 0 km/h
1118 22-01-2011 13:00:00 1.72 C 3.73 g/m*3 1.72 C 0 km/h
1119 22-01-2011 14:00:00 1.84 C 3.98 g/m*3 1.84 C 0 km/h
1120 22-01-2011 15:00:00 1.56 C 3.92 g/m*3 1.56 C 0 km/h
1121 22-01-2011 16:00:00 1.28 C 3.86 g/m*3 1.28 C 0 km/h
1122 22-01-2011 17:00:00 0.72 C 3.9 g/m*3 0.72 C 0 km/h
1123 22-01-2011 18:00:00 0.56 C 3.93 g/m*3 0.56 C 0 km/h
1124 22-01-2011 19:00:00 0.34 C 4.05 g/m*3 0.34 C 0 km/h
1125 22-01-2011 20:00:00 0.38 C 4.01 g/m*3 0.38 C 0 km/h
Sensor: Nr:Datum:Temp:Abs-Feuchte:Windchill:Wind:
Aussen-T/F 1126 22-01-2011 21:00:00 0.32 C 4.03 g/m*3 0.32 C 0 km/h
1127 22-01-2011 22:00:00 0.25 C 4.04 g/m*3 0.25 C 0 km/h
1128 22-01-2011 23:00:00 0 C 3.97 g/m*3 0 C 0 km/h
1129 23-01-2011 00:00:00 0.22 C 4.03 g/m*3 0.22 C 0 km/h
1130 23-01-2011 01:00:00 0.22 C 4.03 g/m*3 0.22 C 0 km/h
1131 23-01-2011 02:00:00 0.28 C 4.05 g/m*3 0.28 C 0 km/h
1132 23-01-2011 03:00:00 0.44 C 4.05 g/m*3 0.44 C 0 km/h
1133 23-01-2011 04:00:00 0.4 C 4.05 g/m*3 0.4 C 0 km/h
1134 23-01-2011 05:00:00 0.22 C 4.21 g/m*3 0.22 C 0 km/h
1135 23-01-2011 06:00:00 0.42 C 4.4 g/m*3 0.42 C 0 km/h
1136 23-01-2011 07:00:00 0.66 C 4.51 g/m*3 0.66 C 0 km/h
1137 23-01-2011 08:00:00 0.94 C 4.61 g/m*3 0.94 C 0 km/h
1138 23-01-2011 09:00:00 1.46 C 4.71 g/m*3 1.46 C 0 km/h
1139 23-01-2011 10:00:00 1.92 C 4.55 g/m*3 1.92 C 0 km/h
1140 23-01-2011 11:00:00 2.02 C 4.54 g/m*3 2.02 C 0 km/h
1141 23-01-2011 12:00:00 2.16 C 4.62 g/m*3 2.16 C 0 km/h
1142 23-01-2011 13:00:00 2.22 C 4.76 g/m*3 2.22 C 0 km/h
1143 23-01-2011 14:00:00 2.4 C 4.88 g/m*3 2.4 C 0 km/h
1144 23-01-2011 15:00:00 2.3 C 4.9 g/m*3 2.3 C 0 km/h
1145 23-01-2011 16:00:00 2.2 C 4.97 g/m*3 2.2 C 0 km/h
1146 23-01-2011 17:00:00 2.16 C 5.03 g/m*3 2.16 C 0 km/h
1147 23-01-2011 18:00:00 2.12 C 5.06 g/m*3 2.12 C 0 km/h
1148 23-01-2011 19:00:00 2.18 C 5.12 g/m*3 2.18 C 0 km/h
1149 23-01-2011 20:00:00 2.22 C 5.14 g/m*3 2.22 C 0 km/h
1150 23-01-2011 21:00:00 2.24 C 5.2 g/m*3 2.24 C 0 km/h
Sensor: Nr:Datum:Temp:Abs-Feuchte:Windchill:Wind:
Aussen-T/F 1151 23-01-2011 22:00:00 2.28 C 5.21 g/m*3 2.28 C 0 km/h
1152 23-01-2011 23:00:00 2.36 C 5.24 g/m*3 2.36 C 0 km/h
1153 24-01-2011 00:00:00 2.42 C 5.26 g/m*3 2.42 C 0 km/h
1154 24-01-2011 01:00:00 2.58 C 5.35 g/m*3 2.58 C 0 km/h
1155 24-01-2011 02:00:00 2.56 C 5.37 g/m*3 2.56 C 0 km/h
1156 24-01-2011 03:00:00 2.02 C 5.13 g/m*3 2.02 C 0 km/h
1157 24-01-2011 04:00:00 2.12 C 5.2 g/m*3 2.12 C 0 km/h
1158 24-01-2011 05:00:00 2.48 C 5.34 g/m*3 2.48 C 0 km/h
1159 24-01-2011 06:00:00 2.5 C 5.35 g/m*3 2.5 C 0 km/h
1160 24-01-2011 07:00:00 2.78 C 5.33 g/m*3 2.78 C 0 km/h
1161 24-01-2011 08:00:00 2.76 C 5.07 g/m*3 2.76 C 0 km/h
1162 24-01-2011 09:00:00 2.92 C 4.75 g/m*3 2.92 C 0 km/h
1163 24-01-2011 10:00:00 3.12 C 4.6 g/m*3 3.12 C 0 km/h
1164 24-01-2011 11:00:00 3.46 C 4.57 g/m*3 3.46 C 0 km/h
1165 24-01-2011 12:00:00 4.04 C 4.6 g/m*3 4.04 C 0 km/h
1166 24-01-2011 13:00:00 4.36 C 4.7 g/m*3 4.36 C 0 km/h
1167 24-01-2011 14:00:00 4.2 C 4.7 g/m*3 4.2 C 0 km/h
1168 24-01-2011 15:00:00 3.98 C 4.79 g/m*3 3.98 C 0 km/h
1169 24-01-2011 16:00:00 3.78 C 4.96 g/m*3 3.78 C 0 km/h
1170 24-01-2011 17:00:00 3.6 C 4.96 g/m*3 3.6 C 0 km/h
1171 24-01-2011 18:00:00 3.44 C 5.03 g/m*3 3.44 C 0 km/h
1172 24-01-2011 19:00:00 3.18 C 5.1 g/m*3 3.18 C 0 km/h
1173 24-01-2011 20:00:00 3.16 C 5.24 g/m*3 3.16 C 0 km/h
1174 24-01-2011 21:00:00 3.08 C 5.24 g/m*3 3.08 C 0 km/h
1175 24-01-2011 22:00:00 3.08 C 5.33 g/m*3 3.08 C 0 km/h
Sensor: Nr:Datum:Temp:Abs-Feuchte:Windchill:Wind:
Aussen-T/F 1176 24-01-2011 23:00:00 2.82 C 5.29 g/m*3 2.82 C 0 km/h
1177 25-01-2011 00:00:00 2.74 C 5.19 g/m*3 2.74 C 0 km/h
1178 25-01-2011 01:00:00 2.66 C 4.76 g/m*3 2.66 C 0 km/h
1179 25-01-2011 02:00:00 1.88 C 4.72 g/m*3 1.88 C 0 km/h
1180 25-01-2011 03:00:00 1.98 C 4.66 g/m*3 1.98 C 0 km/h
1181 25-01-2011 04:00:00 2.64 C 4.43 g/m*3 2.64 C 0 km/h
1182 25-01-2011 05:00:00 3.12 C 4.29 g/m*3 3.12 C 0 km/h
1183 25-01-2011 06:00:00 3.34 C 4.19 g/m*3 3.34 C 0 km/h
1184 25-01-2011 07:00:00 2.98 C 4.18 g/m*3 2.98 C 0 km/h
1185 25-01-2011 08:00:00 2.52 C 4.28 g/m*3 2.52 C 0 km/h
1186 25-01-2011 09:00:00 2.92 C 4.27 g/m*3 2.92 C 0 km/h
1187 25-01-2011 10:00:00 2.92 C 4.38 g/m*3 2.92 C 0 km/h
1188 25-01-2011 11:00:00 2.96 C 4.58 g/m*3 2.96 C 0 km/h
1189 25-01-2011 12:00:00 3.38 C 4.75 g/m*3 3.38 C 0 km/h
1190 25-01-2011 13:00:00 3.94 C 4.67 g/m*3 3.94 C 0 km/h
1191 25-01-2011 14:00:00 3.98 C 4.72 g/m*3 3.98 C 0 km/h
1192 25-01-2011 15:00:00 2.3 C 4.72 g/m*3 2.3 C 0 km/h
1193 25-01-2011 16:00:00 2.52 C 4.88 g/m*3 2.52 C 0 km/h
1194 25-01-2011 17:00:00 2.42 C 4.77 g/m*3 2.42 C 0 km/h
1195 25-01-2011 18:00:00 2.36 C 4.74 g/m*3 2.36 C 0 km/h
1196 25-01-2011 19:00:00 1.5 C 4.62 g/m*3 1.5 C 0 km/h
1197 25-01-2011 20:00:00 0.84 C 4.46 g/m*3 0.84 C 0 km/h
1198 25-01-2011 21:00:00 1.08 C 4.47 g/m*3 1.08 C 0 km/h
1199 25-01-2011 22:00:00 1.84 C 4.35 g/m*3 1.84 C 0 km/h
1200 25-01-2011 23:00:00 1.14 C 4.32 g/m*3 1.14 C 0 km/h
Sensor: Nr:Datum:Temp:Abs-Feuchte:Windchill:Wind:
Aussen-T/F 1201 26-01-2011 00:00:00 0.64 C 4.31 g/m*3 0.64 C 0 km/h
1202 26-01-2011 01:00:00 -0.58 C 4.07 g/m*3 -0.58 C 0 km/h
1203 26-01-2011 02:00:00 -0.62 C 4.13 g/m*3 -0.62 C 0 km/h
1204 26-01-2011 03:00:00 -0.52 C 4.21 g/m*3 -0.52 C 0 km/h
1205 26-01-2011 04:00:00 -0.46 C 4.24 g/m*3 -0.46 C 0 km/h
1206 26-01-2011 05:00:00 -0.2 C 4.35 g/m*3 -0.2 C 0 km/h
1207 26-01-2011 06:00:00 -0.16 C 4.36 g/m*3 -0.16 C 0 km/h
1208 26-01-2011 07:00:00 -0.22 C 4.34 g/m*3 -0.22 C 0 km/h
1209 26-01-2011 08:00:00 0.04 C 4.43 g/m*3 0.04 C 0 km/h
1210 26-01-2011 09:00:00 0.66 C 4.65 g/m*3 0.66 C 0 km/h
1211 26-01-2011 10:00:00 1.6 C 4.81 g/m*3 1.6 C 0 km/h
1212 26-01-2011 11:00:00 2.48 C 4.55 g/m*3 2.48 C 0 km/h
1213 26-01-2011 12:00:00 3.56 C 4.1 g/m*3 3.56 C 0 km/h
1214 26-01-2011 13:00:00 3.24 C 4 g/m*3 3.24 C 0 km/h
1215 26-01-2011 14:00:00 3.34 C 3.91 g/m*3 3.34 C 0 km/h
1216 26-01-2011 15:00:00 3.32 C 3.84 g/m*3 3.32 C 0 km/h
1217 26-01-2011 16:00:00 2.24 C 4.04 g/m*3 2.24 C 0 km/h
1218 26-01-2011 17:00:00 0.76 C 4.28 g/m*3 0.76 C 0 km/h
1219 26-01-2011 18:00:00 0.64 C 4.29 g/m*3 0.64 C 0 km/h
1220 26-01-2011 19:00:00 0.44 C 4.24 g/m*3 0.44 C 0 km/h
1221 26-01-2011 20:00:00 0.5 C 4.31 g/m*3 0.5 C 0 km/h
1222 26-01-2011 21:00:00 0.52 C 4.26 g/m*3 0.52 C 0 km/h
1223 26-01-2011 22:00:00 -0.16 C 4.01 g/m*3 -0.16 C 0 km/h
1224 26-01-2011 23:00:00 -0.88 C 3.86 g/m*3 -0.88 C 0 km/h
1225 27-01-2011 00:00:00 -1.24 C 3.81 g/m*3 -1.24 C 0 km/h
Sensor: Nr:Datum:Temp:Abs-Feuchte:Windchill:Wind:
Aussen-T/F 1226 27-01-2011 01:00:00 -1.76 C 3.69 g/m*3 -1.76 C 0 km/h
1227 27-01-2011 02:00:00 -2.52 C 3.5 g/m*3 -2.52 C 0 km/h
1228 27-01-2011 03:00:00 -3.36 C 3.32 g/m*3 -3.36 C 0 km/h
1229 27-01-2011 04:00:00 -2.2 C 3.68 g/m*3 -2.2 C 0 km/h
1230 27-01-2011 05:00:00 -1.56 C 3.9 g/m*3 -1.56 C 0 km/h
1231 27-01-2011 06:00:00 -1.38 C 3.96 g/m*3 -1.38 C 0 km/h
1232 27-01-2011 07:00:00 -1.32 C 3.98 g/m*3 -1.32 C 0 km/h
1233 27-01-2011 08:00:00 -1.18 C 4.04 g/m*3 -1.18 C 0 km/h
1234 27-01-2011 09:00:00 -0.24 C 4.33 g/m*3 -0.24 C 0 km/h
1235 27-01-2011 10:00:00 0.86 C 4.29 g/m*3 0.86 C 0 km/h
1236 27-01-2011 11:00:00 1.86 C 3.63 g/m*3 1.86 C 0 km/h
1237 27-01-2011 12:00:00 2.44 C 3.33 g/m*3 2.44 C 0 km/h
1238 27-01-2011 13:00:00 2.64 C 3.1 g/m*3 2.64 C 0 km/h
1239 27-01-2011 14:00:00 2.4 C 2.95 g/m*3 2.4 C 0 km/h
1240 27-01-2011 15:00:00 1.88 C 2.81 g/m*3 1.88 C 0 km/h
1241 27-01-2011 16:00:00 1.18 C 2.74 g/m*3 1.18 C 0 km/h
1242 27-01-2011 17:00:00 0.26 C 2.75 g/m*3 0.26 C 0 km/h
1243 27-01-2011 18:00:00 0 C 2.77 g/m*3 0 C 0 km/h
1244 27-01-2011 19:00:00 -0.16 C 2.82 g/m*3 -0.16 C 0 km/h
1245 27-01-2011 20:00:00 -0.34 C 2.86 g/m*3 -0.34 C 0 km/h
1246 27-01-2011 21:00:00 -0.92 C 2.84 g/m*3 -0.92 C 0 km/h
1247 27-01-2011 22:00:00 -1.2 C 2.84 g/m*3 -1.2 C 0 km/h
1248 27-01-2011 23:00:00 -1 C 2.78 g/m*3 -1 C 0 km/h
1249 28-01-2011 00:00:00 -1.34 C 2.76 g/m*3 -1.34 C 0 km/h
1250 28-01-2011 01:00:00 -1.24 C 2.67 g/m*3 -1.24 C 0 km/h
Sensor: Nr:Datum:Temp:Abs-Feuchte:Windchill:Wind:
Aussen-T/F 1251 28-01-2011 02:00:00 -1.42 C 2.69 g/m*3 -1.42 C 0 km/h
1252 28-01-2011 03:00:00 -1.18 C 2.79 g/m*3 -1.18 C 0 km/h
1253 28-01-2011 04:00:00 -1.04 C 2.82 g/m*3 -1.04 C 0 km/h
1254 28-01-2011 05:00:00 -0.98 C 2.83 g/m*3 -0.98 C 0 km/h
1255 28-01-2011 06:00:00 -0.98 C 2.77 g/m*3 -0.98 C 0 km/h
1256 28-01-2011 07:00:00 -1.06 C 2.79 g/m*3 -1.06 C 0 km/h
1257 28-01-2011 08:00:00 -2.1 C 2.72 g/m*3 -2.1 C 0 km/h
1258 28-01-2011 09:00:00 -1.4 C 2.8 g/m*3 -1.4 C 0 km/h
1259 28-01-2011 10:00:00 -0.6 C 2.69 g/m*3 -0.6 C 0 km/h
1260 28-01-2011 11:00:00 0.14 C 2.7 g/m*3 0.14 C 0 km/h
1261 28-01-2011 12:00:00 0.72 C 2.7 g/m*3 0.72 C 0 km/h
1262 28-01-2011 13:00:00 0.96 C 2.72 g/m*3 0.96 C 0 km/h
1263 28-01-2011 14:00:00 1.22 C 2.75 g/m*3 1.22 C 0 km/h
1264 28-01-2011 15:00:00 1.26 C 2.8 g/m*3 1.26 C 0 km/h
1265 28-01-2011 16:00:00 0.44 C 2.86 g/m*3 0.44 C 0 km/h
1266 28-01-2011 17:00:00 -1.38 C 2.96 g/m*3 -1.38 C 0 km/h
1267 28-01-2011 18:00:00 -2.44 C 3.09 g/m*3 -2.44 C 0 km/h
1268 28-01-2011 19:00:00 -2.68 C 3.08 g/m*3 -2.68 C 0 km/h
1269 28-01-2011 20:00:00 -3.52 C 3.01 g/m*3 -3.52 C 0 km/h
1270 28-01-2011 21:00:00 -3.84 C 3.02 g/m*3 -3.84 C 0 km/h
1271 28-01-2011 22:00:00 -4.18 C 3 g/m*3 -4.18 C 0 km/h
1272 28-01-2011 23:00:00 -3.86 C 3.07 g/m*3 -3.86 C 0 km/h
1273 29-01-2011 00:00:00 -4.68 C 2.87 g/m*3 -4.68 C 0 km/h
1274 29-01-2011 01:00:00 -5.04 C 2.8 g/m*3 -5.04 C 0 km/h
1275 29-01-2011 02:00:00 -5.52 C 2.71 g/m*3 -5.52 C 0 km/h
Sensor: Nr:Datum:Temp:Abs-Feuchte:Windchill:Wind:
Aussen-T/F 1276 29-01-2011 03:00:00 -5.52 C 2.74 g/m*3 -5.52 C 0 km/h
1277 29-01-2011 04:00:00 -5.48 C 2.74 g/m*3 -5.48 C 0 km/h
1278 29-01-2011 05:00:00 -5.88 C 2.65 g/m*3 -5.88 C 0 km/h
1279 29-01-2011 06:00:00 -6.52 C 2.5 g/m*3 -6.52 C 0 km/h
1280 29-01-2011 07:00:00 -6.5 C 2.5 g/m*3 -6.5 C 0 km/h
1281 29-01-2011 08:00:00 -6.28 C 2.55 g/m*3 -6.28 C 0 km/h
1282 29-01-2011 09:00:00 -6.44 C 2.5 g/m*3 -6.44 C 0 km/h
1283 29-01-2011 10:00:00 -5.78 C 2.62 g/m*3 -5.78 C 0 km/h
1284 29-01-2011 11:00:00 -4.86 C 2.82 g/m*3 -4.86 C 0 km/h
1285 29-01-2011 12:00:00 -4 C 2.99 g/m*3 -4 C 0 km/h
1286 29-01-2011 13:00:00 -3.26 C 3.03 g/m*3 -3.26 C 0 km/h
1287 29-01-2011 14:00:00 -2.42 C 3.09 g/m*3 -2.42 C 0 km/h
1288 29-01-2011 15:00:00 -1.6 C 3.16 g/m*3 -1.6 C 0 km/h
1289 29-01-2011 16:00:00 -2.3 C 2.9 g/m*3 -2.3 C 0 km/h
1290 29-01-2011 17:00:00 -3.32 C 2.6 g/m*3 -3.32 C 0 km/h
1291 29-01-2011 18:00:00 -4.22 C 2.51 g/m*3 -4.22 C 0 km/h
1292 29-01-2011 19:00:00 -4.52 C 2.57 g/m*3 -4.52 C 0 km/h
1293 29-01-2011 20:00:00 -5.08 C 2.55 g/m*3 -5.08 C 0 km/h
1294 29-01-2011 21:00:00 -5.96 C 2.45 g/m*3 -5.96 C 0 km/h
1295 29-01-2011 22:00:00 -6.2 C 2.43 g/m*3 -6.2 C 0 km/h
1296 29-01-2011 23:00:00 -6.22 C 2.46 g/m*3 -6.22 C 0 km/h
1297 30-01-2011 00:00:00 -6.72 C 2.39 g/m*3 -6.72 C 0 km/h
1298 30-01-2011 01:00:00 -7.12 C 2.32 g/m*3 -7.12 C 0 km/h
1299 30-01-2011 02:00:00 -7.7 C 2.18 g/m*3 -7.7 C 0 km/h
1300 30-01-2011 03:00:00 -7.74 C 2.21 g/m*3 -7.74 C 0 km/h
Sensor: Nr:Datum:Temp:Abs-Feuchte:Windchill:Wind:
Aussen-T/F 1301 30-01-2011 04:00:00 -7.78 C 2.21 g/m*3 -7.78 C 0 km/h
1302 30-01-2011 05:00:00 -8.24 C 2.14 g/m*3 -8.24 C 0 km/h
1303 30-01-2011 06:00:00 -8.72 C 2.06 g/m*3 -8.72 C 0 km/h
1304 30-01-2011 07:00:00 -7.8 C 2.23 g/m*3 -7.8 C 0 km/h
1305 30-01-2011 08:00:00 -8.86 C 2.01 g/m*3 -8.86 C 0 km/h
1306 30-01-2011 09:00:00 -8.06 C 2.13 g/m*3 -8.06 C 0 km/h
1307 30-01-2011 10:00:00 -6.54 C 2.43 g/m*3 -6.54 C 0 km/h
1308 30-01-2011 11:00:00 -5.94 C 2.53 g/m*3 -5.94 C 0 km/h
1309 30-01-2011 12:00:00 -5.36 C 2.68 g/m*3 -5.36 C 0 km/h
1310 30-01-2011 13:00:00 -4.42 C 2.85 g/m*3 -4.42 C 0 km/h
1311 30-01-2011 14:00:00 -3.38 C 3.01 g/m*3 -3.38 C 0 km/h
1312 30-01-2011 15:00:00 -2.32 C 3.06 g/m*3 -2.32 C 0 km/h
1313 30-01-2011 16:00:00 -2.98 C 2.95 g/m*3 -2.98 C 0 km/h
1314 30-01-2011 17:00:00 -3.96 C 2.9 g/m*3 -3.96 C 0 km/h
1315 30-01-2011 18:00:00 -4.44 C 2.83 g/m*3 -4.44 C 0 km/h
1316 30-01-2011 19:00:00 -5.12 C 2.74 g/m*3 -5.12 C 0 km/h
1317 30-01-2011 20:00:00 -5.16 C 2.76 g/m*3 -5.16 C 0 km/h
1318 30-01-2011 21:00:00 -5.86 C 2.63 g/m*3 -5.86 C 0 km/h
1319 30-01-2011 22:00:00 -7.14 C 2.38 g/m*3 -7.14 C 0 km/h
1320 30-01-2011 23:00:00 -7.66 C 2.26 g/m*3 -7.66 C 0 km/h
1321 31-01-2011 00:00:00 -7.5 C 2.29 g/m*3 -7.5 C 0 km/h
1322 31-01-2011 01:00:00 -8.24 C 2.14 g/m*3 -8.24 C 0 km/h
1323 31-01-2011 02:00:00 -8.58 C 2.05 g/m*3 -8.58 C 0 km/h
1324 31-01-2011 03:00:00 -8.18 C 2.14 g/m*3 -8.18 C 0 km/h
1325 31-01-2011 04:00:00 -9.08 C 1.97 g/m*3 -9.08 C 0 km/h
Sensor: Nr:Datum:Temp:Abs-Feuchte:Windchill:Wind:
Aussen-T/F 1326 31-01-2011 05:00:00 -8.26 C 2.12 g/m*3 -8.26 C 0 km/h
1327 31-01-2011 06:00:00 -7.14 C 2.37 g/m*3 -7.14 C 0 km/h
1328 31-01-2011 07:00:00 -7.1 C 2.4 g/m*3 -7.1 C 0 km/h
1329 31-01-2011 08:00:00 -6.98 C 2.44 g/m*3 -6.98 C 0 km/h
1330 31-01-2011 09:00:00 -6.72 C 2.49 g/m*3 -6.72 C 0 km/h
1331 31-01-2011 10:00:00 -5.96 C 2.62 g/m*3 -5.96 C 0 km/h
1332 31-01-2011 11:00:00 -5.32 C 2.73 g/m*3 -5.32 C 0 km/h
1333 31-01-2011 12:00:00 -4.68 C 2.84 g/m*3 -4.68 C 0 km/h
1334 31-01-2011 13:00:00 -4.06 C 2.9 g/m*3 -4.06 C 0 km/h
1335 31-01-2011 14:00:00 -3.72 C 2.87 g/m*3 -3.72 C 0 km/h
1336 31-01-2011 15:00:00 -3.6 C 2.89 g/m*3 -3.6 C 0 km/h
1337 31-01-2011 16:00:00 -3.98 C 2.86 g/m*3 -3.98 C 0 km/h
1338 31-01-2011 17:00:00 -4.12 C 2.92 g/m*3 -4.12 C 0 km/h
1339 31-01-2011 18:00:00 -3.9 C 3.01 g/m*3 -3.9 C 0 km/h
1340 31-01-2011 19:00:00 -3.7 C 3.05 g/m*3 -3.7 C 0 km/h
1341 31-01-2011 20:00:00 -3.96 C 2.94 g/m*3 -3.96 C 0 km/h
1342 31-01-2011 21:00:00 -4.14 C 2.9 g/m*3 -4.14 C 0 km/h
1343 31-01-2011 22:00:00 -4.32 C 2.86 g/m*3 -4.32 C 0 km/h
1344 31-01-2011 23:00:00 -4.48 C 2.83 g/m*3 -4.48 C 0 km/h
1345 01-02-2011 00:00:00 -4.44 C 2.84 g/m*3 -4.44 C 0 km/h
1346 01-02-2011 01:00:00 -4.52 C 2.81 g/m*3 -4.52 C 0 km/h
1347 01-02-2011 02:00:00 -4.74 C 2.71 g/m*3 -4.74 C 0 km/h
1348 01-02-2011 03:00:00 -4.78 C 2.64 g/m*3 -4.78 C 0 km/h
1349 01-02-2011 04:00:00 -4.9 C 2.61 g/m*3 -4.9 C 0 km/h
1350 01-02-2011 05:00:00 -5.1 C 2.53 g/m*3 -5.1 C 0 km/h
Sensor: Nr:Datum:Temp:Abs-Feuchte:Windchill:Wind:
Aussen-T/F 1351 01-02-2011 06:00:00 -5.2 C 2.51 g/m*3 -5.2 C 0 km/h
1352 01-02-2011 07:00:00 -5.3 C 2.49 g/m*3 -5.3 C 0 km/h
1353 01-02-2011 08:00:00 -5.2 C 2.52 g/m*3 -5.2 C 0 km/h
1354 01-02-2011 09:00:00 -4.84 C 2.56 g/m*3 -4.84 C 0 km/h
1355 01-02-2011 10:00:00 -4.5 C 2.56 g/m*3 -4.5 C 0 km/h
1356 01-02-2011 11:00:00 -3.98 C 2.56 g/m*3 -3.98 C 0 km/h
1357 01-02-2011 12:00:00 -3 C 2.62 g/m*3 -3 C 0 km/h
1358 01-02-2011 13:00:00 -2.5 C 2.69 g/m*3 -2.5 C 0 km/h
1359 01-02-2011 14:00:00 -2.4 C 2.74 g/m*3 -2.4 C 0 km/h
1360 01-02-2011 15:00:00 -2.66 C 2.7 g/m*3 -2.66 C 0 km/h
1361 01-02-2011 16:00:00 -3.62 C 2.62 g/m*3 -3.62 C 0 km/h
1362 01-02-2011 17:00:00 -4.1 C 2.68 g/m*3 -4.1 C 0 km/h
1363 01-02-2011 18:00:00 -3.6 C 2.77 g/m*3 -3.6 C 0 km/h
1364 01-02-2011 19:00:00 -3.38 C 2.75 g/m*3 -3.38 C 0 km/h
1365 01-02-2011 20:00:00 -3.3 C 2.76 g/m*3 -3.3 C 0 km/h
1366 01-02-2011 21:00:00 -3.56 C 2.63 g/m*3 -3.56 C 0 km/h
1367 01-02-2011 22:00:00 -3.6 C 2.61 g/m*3 -3.6 C 0 km/h
1368 01-02-2011 23:00:00 -3.72 C 2.89 g/m*3 -3.72 C 0 km/h
1369 02-02-2011 00:00:00 -3.84 C 3.02 g/m*3 -3.84 C 0 km/h
1370 02-02-2011 01:00:00 -3.66 C 3.05 g/m*3 -3.66 C 0 km/h
1371 02-02-2011 02:00:00 -3.38 C 3.02 g/m*3 -3.38 C 0 km/h
1372 02-02-2011 03:00:00 -3.28 C 3.04 g/m*3 -3.28 C 0 km/h
1373 02-02-2011 04:00:00 -3.12 C 3.09 g/m*3 -3.12 C 0 km/h
1374 02-02-2011 05:00:00 -2.98 C 3.15 g/m*3 -2.98 C 0 km/h
1375 02-02-2011 06:00:00 -2.84 C 3.18 g/m*3 -2.84 C 0 km/h
Sensor: Nr:Datum:Temp:Abs-Feuchte:Windchill:Wind:
Aussen-T/F 1376 02-02-2011 07:00:00 -2.68 C 3.21 g/m*3 -2.68 C 0 km/h
1377 02-02-2011 08:00:00 -2.28 C 3.3 g/m*3 -2.28 C 0 km/h
1378 02-02-2011 09:00:00 -1.54 C 3.33 g/m*3 -1.54 C 0 km/h
1379 02-02-2011 10:00:00 -0.94 C 3.33 g/m*3 -0.94 C 0 km/h
1380 02-02-2011 11:00:00 -0.46 C 3.38 g/m*3 -0.46 C 0 km/h
1381 02-02-2011 12:00:00 1.26 C 3.51 g/m*3 1.26 C 0 km/h
1382 02-02-2011 13:00:00 1.94 C 3.65 g/m*3 1.94 C 0 km/h
1383 02-02-2011 14:00:00 1.92 C 3.79 g/m*3 1.92 C 0 km/h
1384 02-02-2011 15:00:00 1.42 C 3.79 g/m*3 1.42 C 0 km/h
1385 02-02-2011 16:00:00 1.16 C 3.8 g/m*3 1.16 C 0 km/h
1386 02-02-2011 17:00:00 0.64 C 3.84 g/m*3 0.64 C 0 km/h
1387 02-02-2011 18:00:00 0.52 C 3.81 g/m*3 0.52 C 0 km/h
1388 02-02-2011 19:00:00 0.32 C 3.81 g/m*3 0.32 C 0 km/h
1389 02-02-2011 20:00:00 0.28 C 3.81 g/m*3 0.28 C 0 km/h
1390 02-02-2011 21:00:00 0.26 C 3.8 g/m*3 0.26 C 0 km/h
1391 02-02-2011 22:00:00 0.2 C 3.78 g/m*3 0.2 C 0 km/h
1392 02-02-2011 23:00:00 0.32 C 3.81 g/m*3 0.32 C 0 km/h
1393 03-02-2011 00:00:00 0.34 C 3.78 g/m*3 0.34 C 0 km/h
1394 03-02-2011 01:00:00 0.48 C 3.82 g/m*3 0.48 C 0 km/h
1395 03-02-2011 02:00:00 0.64 C 3.99 g/m*3 0.64 C 0 km/h
1396 03-02-2011 03:00:00 0.44 C 4.2 g/m*3 0.44 C 0 km/h
1397 03-02-2011 04:00:00 0.6 C 4.42 g/m*3 0.6 C 0 km/h
1398 03-02-2011 05:00:00 0.9 C 4.56 g/m*3 0.9 C 0 km/h
1399 03-02-2011 06:00:00 1.16 C 4.6 g/m*3 1.16 C 0 km/h
1400 03-02-2011 07:00:00 1.4 C 4.66 g/m*3 1.4 C 0 km/h
Sensor: Nr:Datum:Temp:Abs-Feuchte:Windchill:Wind:
Aussen-T/F 1401 03-02-2011 08:00:00 1.52 C 4.68 g/m*3 1.52 C 0 km/h
1402 03-02-2011 09:00:00 1.88 C 4.67 g/m*3 1.88 C 0 km/h
1403 03-02-2011 10:00:00 2.3 C 4.64 g/m*3 2.3 C 0 km/h
1404 03-02-2011 11:00:00 2.82 C 4.64 g/m*3 2.82 C 0 km/h
1405 03-02-2011 12:00:00 3.38 C 4.66 g/m*3 3.38 C 0 km/h
1406 03-02-2011 13:00:00 3.52 C 4.68 g/m*3 3.52 C 0 km/h
1407 03-02-2011 14:00:00 3.64 C 4.78 g/m*3 3.64 C 0 km/h
1408 03-02-2011 15:00:00 3.42 C 4.76 g/m*3 3.42 C 0 km/h
1409 03-02-2011 16:00:00 3.22 C 4.71 g/m*3 3.22 C 0 km/h
1410 03-02-2011 17:00:00 2.76 C 4.68 g/m*3 2.76 C 0 km/h
1411 03-02-2011 18:00:00 2.64 C 4.57 g/m*3 2.64 C 0 km/h
1412 03-02-2011 19:00:00 1.8 C 4.46 g/m*3 1.8 C 0 km/h
1413 03-02-2011 20:00:00 1.62 C 4.41 g/m*3 1.62 C 0 km/h
1414 03-02-2011 21:00:00 1.68 C 4.35 g/m*3 1.68 C 0 km/h
1415 03-02-2011 22:00:00 2.15 C 4.34 g/m*3 2.15 C 0 km/h
1416 03-02-2011 23:00:00 2.4 C 4.43 g/m*3 2.4 C 0 km/h
1417 04-02-2011 00:00:00 3.02 C 4.36 g/m*3 3.02 C 0 km/h
1418 04-02-2011 01:00:00 3.12 C 4.32 g/m*3 3.12 C 0 km/h
1419 04-02-2011 02:00:00 2.64 C 4.42 g/m*3 2.64 C 0 km/h
1420 04-02-2011 03:00:00 2.68 C 4.39 g/m*3 2.68 C 0 km/h
1421 04-02-2011 04:00:00 2.86 C 4.5 g/m*3 2.86 C 0 km/h
1422 04-02-2011 05:00:00 3.34 C 4.77 g/m*3 3.34 C 0 km/h
1423 04-02-2011 06:00:00 4.08 C 4.92 g/m*3 4.08 C 0 km/h
1424 04-02-2011 07:00:00 4.66 C 5 g/m*3 4.66 C 0 km/h
1425 04-02-2011 08:00:00 5.46 C 5.11 g/m*3 5.46 C 0 km/h
Sensor: Nr:Datum:Temp:Abs-Feuchte:Windchill:Wind:
Aussen-T/F 1426 04-02-2011 09:00:00 6.12 C 5.05 g/m*3 6.12 C 0 km/h
1427 04-02-2011 10:00:00 6.6 C 5.07 g/m*3 6.6 C 0 km/h
1428 04-02-2011 11:00:00 7.26 C 5.09 g/m*3 7.26 C 0 km/h
1429 04-02-2011 12:00:00 7.5 C 5.22 g/m*3 7.5 C 0 km/h
1430 04-02-2011 13:00:00 7.46 C 5.3 g/m*3 7.46 C 0 km/h
1431 04-02-2011 14:00:00 7.52 C 5.4 g/m*3 7.52 C 0 km/h
1432 04-02-2011 15:00:00 7.82 C 5.48 g/m*3 7.82 C 0 km/h
1433 04-02-2011 16:00:00 7.82 C 5.56 g/m*3 7.82 C 0 km/h
1434 04-02-2011 17:00:00 7.8 C 5.6 g/m*3 7.8 C 0 km/h
1435 04-02-2011 18:00:00 8.08 C 5.58 g/m*3 8.08 C 0 km/h
1436 04-02-2011 19:00:00 8.32 C 5.65 g/m*3 8.32 C 0 km/h
1437 04-02-2011 20:00:00 8.42 C 5.74 g/m*3 8.42 C 0 km/h
1438 04-02-2011 21:00:00 8.44 C 5.73 g/m*3 8.44 C 0 km/h
1439 04-02-2011 22:00:00 8.6 C 5.72 g/m*3 8.6 C 0 km/h
1440 04-02-2011 23:00:00 8.84 C 5.72 g/m*3 8.84 C 0 km/h
1441 05-02-2011 00:00:00 8.76 C 5.64 g/m*3 8.76 C 0 km/h
1442 05-02-2011 01:00:00 8.56 C 5.69 g/m*3 8.56 C 0 km/h
1443 05-02-2011 02:00:00 8.8 C 5.61 g/m*3 8.8 C 0 km/h
1444 05-02-2011 03:00:00 9.1 C 5.45 g/m*3 9.1 C 0 km/h
1445 05-02-2011 04:00:00 8.92 C 5.47 g/m*3 8.92 C 0 km/h
1446 05-02-2011 05:00:00 8.72 C 5.49 g/m*3 8.72 C 0 km/h
1447 05-02-2011 06:00:00 8.7 C 5.5 g/m*3 8.7 C 0 km/h
1448 05-02-2011 07:00:00 8.96 C 5.5 g/m*3 8.96 C 0 km/h
1449 05-02-2011 08:00:00 8.84 C 5.55 g/m*3 8.84 C 0 km/h
1450 05-02-2011 09:00:00 9.2 C 5.46 g/m*3 9.2 C 0 km/h
Sensor: Nr:Datum:Temp:Abs-Feuchte:Windchill:Wind:
Aussen-T/F 1451 05-02-2011 10:00:00 9.66 C 5.43 g/m*3 9.66 C 0 km/h
1452 05-02-2011 11:00:00 10.04 C 5.37 g/m*3 10.04 C 0 km/h
1453 05-02-2011 12:00:00 10.16 C 5.39 g/m*3 10.16 C 0 km/h
1454 05-02-2011 13:00:00 10.22 C 5.41 g/m*3 10.22 C 0 km/h
1455 05-02-2011 14:00:00 10.02 C 5.36 g/m*3 10.02 C 0 km/h
1456 05-02-2011 15:00:00 9.74 C 5.36 g/m*3 9.74 C 0 km/h
1457 05-02-2011 16:00:00 9.44 C 5.44 g/m*3 9.44 C 0 km/h
1458 05-02-2011 17:00:00 9.16 C 5.54 g/m*3 9.16 C 0 km/h
1459 05-02-2011 18:00:00 9.18 C 5.62 g/m*3 9.18 C 0 km/h
1460 05-02-2011 19:00:00 9.1 C 5.61 g/m*3 9.1 C 0 km/h
1461 05-02-2011 20:00:00 9.22 C 5.74 g/m*3 9.22 C 0 km/h
1462 05-02-2011 21:00:00 9.18 C 5.8 g/m*3 9.18 C 0 km/h
1463 05-02-2011 22:00:00 9.18 C 5.9 g/m*3 9.18 C 0 km/h
1464 05-02-2011 23:00:00 9.34 C 5.91 g/m*3 9.34 C 0 km/h
1465 06-02-2011 00:00:00 9.54 C 5.95 g/m*3 9.54 C 0 km/h
1466 06-02-2011 01:00:00 9.52 C 6 g/m*3 9.52 C 0 km/h
1467 06-02-2011 02:00:00 9.4 C 5.97 g/m*3 9.4 C 0 km/h
1468 06-02-2011 03:00:00 9.44 C 5.88 g/m*3 9.44 C 0 km/h
1469 06-02-2011 04:00:00 9.58 C 5.82 g/m*3 9.58 C 0 km/h
1470 06-02-2011 05:00:00 9.5 C 5.63 g/m*3 9.5 C 0 km/h
1471 06-02-2011 06:00:00 9.42 C 5.54 g/m*3 9.42 C 0 km/h
1472 06-02-2011 07:00:00 9.3 C 5.43 g/m*3 9.3 C 0 km/h
1473 06-02-2011 08:00:00 9.14 C 5.36 g/m*3 9.14 C 0 km/h
1474 06-02-2011 09:00:00 9.22 C 5.33 g/m*3 9.22 C 0 km/h
1475 06-02-2011 10:00:00 9.5 C 5.19 g/m*3 9.5 C 0 km/h
Sensor: Nr:Datum:Temp:Abs-Feuchte:Windchill:Wind:
Aussen-T/F 1476 06-02-2011 11:00:00 9.72 C 5.11 g/m*3 9.72 C 0 km/h
1477 06-02-2011 12:00:00 9.82 C 5.02 g/m*3 9.82 C 0 km/h
1478 06-02-2011 13:00:00 9.86 C 4.86 g/m*3 9.86 C 0 km/h
1479 06-02-2011 14:00:00 10.42 C 4.84 g/m*3 10.42 C 0 km/h
1480 06-02-2011 15:00:00 9.7 C 4.72 g/m*3 9.7 C 0 km/h
1481 06-02-2011 16:00:00 8.44 C 4.66 g/m*3 8.44 C 0 km/h
1482 06-02-2011 17:00:00 7.5 C 4.72 g/m*3 7.5 C 0 km/h
1483 06-02-2011 18:00:00 6.86 C 4.64 g/m*3 6.86 C 0 km/h
1484 06-02-2011 19:00:00 6.88 C 4.61 g/m*3 6.88 C 0 km/h
1485 06-02-2011 20:00:00 6.52 C 4.6 g/m*3 6.52 C 0 km/h
1486 06-02-2011 21:00:00 6.14 C 4.63 g/m*3 6.14 C 0 km/h
1487 06-02-2011 22:00:00 5.8 C 4.74 g/m*3 5.8 C 0 km/h
1488 06-02-2011 23:00:00 5.66 C 4.74 g/m*3 5.66 C 0 km/h
1489 07-02-2011 00:00:00 5.28 C 4.79 g/m*3 5.28 C 0 km/h
1490 07-02-2011 01:00:00 5.48 C 4.7 g/m*3 5.48 C 0 km/h
1491 07-02-2011 02:00:00 5.7 C 4.5 g/m*3 5.7 C 0 km/h
1492 07-02-2011 03:00:00 5.56 C 4.44 g/m*3 5.56 C 0 km/h
1493 07-02-2011 04:00:00 5.34 C 4.43 g/m*3 5.34 C 0 km/h
1494 07-02-2011 05:00:00 5.12 C 4.37 g/m*3 5.12 C 0 km/h
1495 07-02-2011 06:00:00 4.8 C 4.37 g/m*3 4.8 C 0 km/h
1496 07-02-2011 07:00:00 4.48 C 4.31 g/m*3 4.48 C 0 km/h
1497 07-02-2011 08:00:00 4.42 C 4.29 g/m*3 4.42 C 0 km/h
1498 07-02-2011 09:00:00 3.92 C 4.29 g/m*3 3.92 C 0 km/h
1499 07-02-2011 10:00:00 3.2 C 4.47 g/m*3 3.2 C 0 km/h
1500 07-02-2011 11:00:00 4.52 C 4.62 g/m*3 4.52 C 0 km/h
Sensor: Nr:Datum:Temp:Abs-Feuchte:Windchill:Wind:
Aussen-T/F 1501 07-02-2011 12:00:00 6.06 C 4.62 g/m*3 6.06 C 0 km/h
1502 07-02-2011 13:00:00 7.18 C 4.78 g/m*3 7.18 C 0 km/h
1503 07-02-2011 14:00:00 9.68 C 4.12 g/m*3 9.68 C 0 km/h
1504 07-02-2011 15:00:00 11.94 C 2.78 g/m*3 11.94 C 0 km/h
1505 07-02-2011 16:00:00 12.1 C 2.53 g/m*3 12.1 C 0 km/h
1506 07-02-2011 17:00:00 8.82 C 3 g/m*3 8.82 C 0 km/h
1507 07-02-2011 18:00:00 8.3 C 3.15 g/m*3 8.3 C 0 km/h
1508 07-02-2011 19:00:00 7.06 C 3.38 g/m*3 7.06 C 0 km/h
1509 07-02-2011 20:00:00 6.06 C 3.47 g/m*3 6.06 C 0 km/h
1510 07-02-2011 21:00:00 6.06 C 3.67 g/m*3 6.06 C 0 km/h
1511 07-02-2011 22:00:00 6.6 C 3.73 g/m*3 6.6 C 0 km/h
1512 07-02-2011 23:00:00 7.86 C 3.59 g/m*3 7.86 C 0 km/h
1513 08-02-2011 00:00:00 7.66 C 3.75 g/m*3 7.66 C 0 km/h
1514 08-02-2011 01:00:00 7.8 C 4.34 g/m*3 7.8 C 0 km/h
1515 08-02-2011 02:00:00 8.04 C 4.39 g/m*3 8.04 C 0 km/h
1516 08-02-2011 03:00:00 7.96 C 4.55 g/m*3 7.96 C 0 km/h
1517 08-02-2011 04:00:00 7.3 C 4.85 g/m*3 7.3 C 0 km/h
1518 08-02-2011 05:00:00 7.46 C 5 g/m*3 7.46 C 0 km/h
1519 08-02-2011 06:00:00 6.86 C 5.05 g/m*3 6.86 C 0 km/h
1520 08-02-2011 07:00:00 6.04 C 5.37 g/m*3 6.04 C 0 km/h
1521 08-02-2011 08:00:00 4.52 C 5.11 g/m*3 4.52 C 0 km/h
1522 08-02-2011 09:00:00 4.2 C 5.05 g/m*3 4.2 C 0 km/h
1523 08-02-2011 10:00:00 5.66 C 5.18 g/m*3 5.66 C 0 km/h
1524 08-02-2011 11:00:00 7.28 C 4.96 g/m*3 7.28 C 0 km/h
1525 08-02-2011 12:00:00 8.38 C 4.61 g/m*3 8.38 C 0 km/h
Sensor: Nr:Datum:Temp:Abs-Feuchte:Windchill:Wind:
Aussen-T/F 1526 08-02-2011 13:00:00 9.5 C 4.42 g/m*3 9.5 C 0 km/h
1527 08-02-2011 14:00:00 9.42 C 4.49 g/m*3 9.42 C 0 km/h
1528 08-02-2011 15:00:00 9.24 C 4.4 g/m*3 9.24 C 0 km/h
1529 08-02-2011 16:00:00 10.18 C 4.37 g/m*3 10.18 C 0 km/h
1530 08-02-2011 17:00:00 4.78 C 4.42 g/m*3 4.78 C 0 km/h
1531 08-02-2011 18:00:00 3 C 4.26 g/m*3 3 C 0 km/h
1532 08-02-2011 19:00:00 1.48 C 4.16 g/m*3 1.48 C 0 km/h
1533 08-02-2011 20:00:00 -0.02 C 3.97 g/m*3 -0.02 C 0 km/h
1534 08-02-2011 21:00:00 -0.9 C 3.8 g/m*3 -0.9 C 0 km/h
1535 08-02-2011 22:00:00 -1.78 C 3.61 g/m*3 -1.78 C 0 km/h
1536 08-02-2011 23:00:00 -2.34 C 3.5 g/m*3 -2.34 C 0 km/h
1537 09-02-2011 00:00:00 -2.74 C 3.43 g/m*3 -2.74 C 0 km/h
1538 09-02-2011 01:00:00 -3.2 C 3.33 g/m*3 -3.2 C 0 km/h
1539 09-02-2011 02:00:00 -3.38 C 3.31 g/m*3 -3.38 C 0 km/h
1540 09-02-2011 03:00:00 -3.78 C 3.23 g/m*3 -3.78 C 0 km/h
1541 09-02-2011 04:00:00 -4.04 C 3.18 g/m*3 -4.04 C 0 km/h
1542 09-02-2011 05:00:00 -4.26 C 3.12 g/m*3 -4.26 C 0 km/h
1543 09-02-2011 06:00:00 -4.06 C 3.17 g/m*3 -4.06 C 0 km/h
1544 09-02-2011 07:00:00 -3.42 C 3.32 g/m*3 -3.42 C 0 km/h
1545 09-02-2011 08:00:00 -3.2 C 3.41 g/m*3 -3.2 C 0 km/h
1546 09-02-2011 09:00:00 -2.76 C 3.52 g/m*3 -2.76 C 0 km/h
1547 09-02-2011 10:00:00 -2 C 3.71 g/m*3 -2 C 0 km/h
1548 09-02-2011 11:00:00 -0.58 C 4.05 g/m*3 -0.58 C 0 km/h
1549 09-02-2011 12:00:00 0.9 C 4.34 g/m*3 0.9 C 0 km/h
1550 09-02-2011 13:00:00 2.48 C 4.5 g/m*3 2.48 C 0 km/h
Sensor: Nr:Datum:Temp:Abs-Feuchte:Windchill:Wind:
Aussen-T/F 1551 09-02-2011 14:00:00 3.6 C 4.87 g/m*3 3.6 C 0 km/h
1552 09-02-2011 15:00:00 5.22 C 4.87 g/m*3 5.22 C 0 km/h
1553 09-02-2011 16:00:00 8.16 C 4.38 g/m*3 8.16 C 0 km/h
1554 09-02-2011 17:00:00 3.66 C 4.41 g/m*3 3.66 C 0 km/h
1555 09-02-2011 18:00:00 3.04 C 4.61 g/m*3 3.04 C 0 km/h
1556 09-02-2011 19:00:00 2.4 C 4.61 g/m*3 2.4 C 0 km/h
1557 09-02-2011 20:00:00 1.5 C 4.55 g/m*3 1.5 C 0 km/h
1558 09-02-2011 21:00:00 0.92 C 4.51 g/m*3 0.92 C 0 km/h
1559 09-02-2011 22:00:00 0.08 C 4.29 g/m*3 0.08 C 0 km/h
1560 09-02-2011 23:00:00 -0.14 C 4.26 g/m*3 -0.14 C 0 km/h
1561 10-02-2011 00:00:00 -0.28 C 4.24 g/m*3 -0.28 C 0 km/h
1562 10-02-2011 01:00:00 -0.82 C 4.11 g/m*3 -0.82 C 0 km/h
1563 10-02-2011 02:00:00 -1.22 C 4.01 g/m*3 -1.22 C 0 km/h
1564 10-02-2011 03:00:00 -1.26 C 4 g/m*3 -1.26 C 0 km/h
1565 10-02-2011 04:00:00 -0.22 C 4.34 g/m*3 -0.22 C 0 km/h
1566 10-02-2011 05:00:00 0.56 C 4.63 g/m*3 0.56 C 0 km/h
1567 10-02-2011 06:00:00 0.96 C 4.76 g/m*3 0.96 C 0 km/h
1568 10-02-2011 07:00:00 1.1 C 4.81 g/m*3 1.1 C 0 km/h
1569 10-02-2011 08:00:00 1.34 C 4.89 g/m*3 1.34 C 0 km/h
1570 10-02-2011 09:00:00 1.64 C 4.88 g/m*3 1.64 C 0 km/h
1571 10-02-2011 10:00:00 3.02 C 4.8 g/m*3 3.02 C 0 km/h
1572 10-02-2011 11:00:00 4.78 C 4.54 g/m*3 4.78 C 0 km/h
1573 10-02-2011 12:00:00 5.76 C 4.5 g/m*3 5.76 C 0 km/h
1574 10-02-2011 13:00:00 6.26 C 4.46 g/m*3 6.26 C 0 km/h
1575 10-02-2011 14:00:00 7.64 C 4.6 g/m*3 7.64 C 0 km/h
Sensor: Nr:Datum:Temp:Abs-Feuchte:Windchill:Wind:
Aussen-T/F 1576 10-02-2011 15:00:00 7.72 C 4.81 g/m*3 7.72 C 0 km/h
1577 10-02-2011 16:00:00 6.88 C 5.03 g/m*3 6.88 C 0 km/h
1578 10-02-2011 17:00:00 6 C 5.4 g/m*3 6 C 0 km/h
1579 10-02-2011 18:00:00 5.58 C 5.79 g/m*3 5.58 C 0 km/h
1580 10-02-2011 19:00:00 5.72 C 5.89 g/m*3 5.72 C 0 km/h
1581 10-02-2011 20:00:00 7.28 C 5.87 g/m*3 7.28 C 0 km/h
1582 10-02-2011 21:00:00 8.32 C 6.03 g/m*3 8.32 C 0 km/h
1583 10-02-2011 22:00:00 8.52 C 6.24 g/m*3 8.52 C 0 km/h
1584 10-02-2011 23:00:00 9.34 C 6.29 g/m*3 9.34 C 0 km/h
1585 11-02-2011 00:00:00 9.46 C 6.39 g/m*3 9.46 C 0 km/h
1586 11-02-2011 01:00:00 9.44 C 6.53 g/m*3 9.44 C 0 km/h
1587 11-02-2011 02:00:00 9.46 C 6.63 g/m*3 9.46 C 0 km/h
1588 11-02-2011 03:00:00 9 C 6.82 g/m*3 9 C 0 km/h
1589 11-02-2011 04:00:00 9.16 C 6.79 g/m*3 9.16 C 0 km/h
1590 11-02-2011 05:00:00 9.3 C 6.69 g/m*3 9.3 C 0 km/h
1591 11-02-2011 06:00:00 9.1 C 6.9 g/m*3 9.1 C 0 km/h
1592 11-02-2011 07:00:00 9.14 C 6.94 g/m*3 9.14 C 0 km/h
1593 11-02-2011 08:00:00 9.28 C 6.93 g/m*3 9.28 C 0 km/h
1594 11-02-2011 09:00:00 9.92 C 6.88 g/m*3 9.92 C 0 km/h
1595 11-02-2011 10:00:00 10.82 C 6.95 g/m*3 10.82 C 0 km/h
1596 11-02-2011 11:00:00 11.28 C 6.99 g/m*3 11.28 C 0 km/h
1597 11-02-2011 12:00:00 12.42 C 7.02 g/m*3 12.42 C 0 km/h
1598 11-02-2011 13:00:00 11.28 C 7.27 g/m*3 11.28 C 0 km/h
1599 11-02-2011 14:00:00 10.88 C 7.49 g/m*3 10.88 C 0 km/h
1600 11-02-2011 15:00:00 11.12 C 7.52 g/m*3 11.12 C 0 km/h
Sensor: Nr:Datum:Temp:Abs-Feuchte:Windchill:Wind:
Aussen-T/F 1601 11-02-2011 16:00:00 11.44 C 7.47 g/m*3 11.44 C 0 km/h
1602 11-02-2011 17:00:00 11.24 C 7.36 g/m*3 11.24 C 0 km/h
1603 11-02-2011 18:00:00 10.38 C 7.62 g/m*3 10.38 C 0 km/h
1604 11-02-2011 19:00:00 10.52 C 7.57 g/m*3 10.52 C 0 km/h
1605 11-02-2011 20:00:00 10.58 C 7.43 g/m*3 10.58 C 0 km/h
1606 11-02-2011 21:00:00 10.72 C 7.28 g/m*3 10.72 C 0 km/h
1607 11-02-2011 22:00:00 10.06 C 7.13 g/m*3 10.06 C 0 km/h
1608 11-02-2011 23:00:00 9.74 C 7.23 g/m*3 9.74 C 0 km/h
1609 12-02-2011 00:00:00 9.96 C 7.29 g/m*3 9.96 C 0 km/h
1610 12-02-2011 01:00:00 9.02 C 7.5 g/m*3 9.02 C 0 km/h
1611 12-02-2011 02:00:00 8.6 C 7.53 g/m*3 8.6 C 0 km/h
1612 12-02-2011 03:00:00 8.28 C 7.46 g/m*3 8.28 C 0 km/h
1613 12-02-2011 04:00:00 7.66 C 7.26 g/m*3 7.66 C 0 km/h
1614 12-02-2011 05:00:00 7.6 C 7.27 g/m*3 7.6 C 0 km/h
1615 12-02-2011 06:00:00 6.82 C 6.83 g/m*3 6.82 C 0 km/h
1616 12-02-2011 07:00:00 5.72 C 5.77 g/m*3 5.72 C 0 km/h
1617 12-02-2011 08:00:00 5.52 C 5.64 g/m*3 5.52 C 0 km/h
1618 12-02-2011 09:00:00 6.1 C 5.65 g/m*3 6.1 C 0 km/h
1619 12-02-2011 10:00:00 7.32 C 5.71 g/m*3 7.32 C 0 km/h
1620 12-02-2011 11:00:00 8.3 C 5.83 g/m*3 8.3 C 0 km/h
1621 12-02-2011 12:00:00 9.1 C 5.91 g/m*3 9.1 C 0 km/h
1622 12-02-2011 13:00:00 7.96 C 6 g/m*3 7.96 C 0 km/h
1623 12-02-2011 14:00:00 8.04 C 6.08 g/m*3 8.04 C 0 km/h
1624 12-02-2011 15:00:00 8.56 C 5.93 g/m*3 8.56 C 0 km/h
1625 12-02-2011 16:00:00 7.48 C 5.84 g/m*3 7.48 C 0 km/h
Sensor: Nr:Datum:Temp:Abs-Feuchte:Windchill:Wind:
Aussen-T/F 1626 12-02-2011 17:00:00 6.3 C 5.79 g/m*3 6.3 C 0 km/h
1627 12-02-2011 18:00:00 4.26 C 5.47 g/m*3 4.26 C 0 km/h
1628 12-02-2011 19:00:00 3.64 C 5.47 g/m*3 3.64 C 0 km/h
1629 12-02-2011 20:00:00 4.42 C 5.86 g/m*3 4.42 C 0 km/h
1630 12-02-2011 21:00:00 4.68 C 5.99 g/m*3 4.68 C 0 km/h
1631 12-02-2011 22:00:00 4.72 C 6.03 g/m*3 4.72 C 0 km/h
1632 12-02-2011 23:00:00 5.06 C 6.15 g/m*3 5.06 C 0 km/h
1633 13-02-2011 00:00:00 5.24 C 6.17 g/m*3 5.24 C 0 km/h
1634 13-02-2011 01:00:00 5.06 C 6.11 g/m*3 5.06 C 0 km/h
1635 13-02-2011 02:00:00 4.74 C 6.08 g/m*3 4.74 C 0 km/h
1636 13-02-2011 03:00:00 4.92 C 6.15 g/m*3 4.92 C 0 km/h
1637 13-02-2011 04:00:00 4.92 C 6.18 g/m*3 4.92 C 0 km/h
1638 13-02-2011 05:00:00 4.24 C 5.94 g/m*3 4.24 C 0 km/h
1639 13-02-2011 06:00:00 3.88 C 5.8 g/m*3 3.88 C 0 km/h
1640 13-02-2011 07:00:00 2.66 C 5.36 g/m*3 2.66 C 0 km/h
1641 13-02-2011 08:00:00 1.74 C 5.06 g/m*3 1.74 C 0 km/h
1642 13-02-2011 09:00:00 2.76 C 5.41 g/m*3 2.76 C 0 km/h
1643 13-02-2011 10:00:00 4.74 C 5.97 g/m*3 4.74 C 0 km/h
1644 13-02-2011 11:00:00 6.14 C 5.79 g/m*3 6.14 C 0 km/h
1645 13-02-2011 12:00:00 7.56 C 5.64 g/m*3 7.56 C 0 km/h
1646 13-02-2011 13:00:00 7.56 C 5.13 g/m*3 7.56 C 0 km/h
1647 13-02-2011 14:00:00 8.78 C 5.11 g/m*3 8.78 C 0 km/h
1648 13-02-2011 15:00:00 8.9 C 4.92 g/m*3 8.9 C 0 km/h
1649 13-02-2011 16:00:00 8.16 C 5.03 g/m*3 8.16 C 0 km/h
1650 13-02-2011 17:00:00 5.96 C 5.47 g/m*3 5.96 C 0 km/h
Sensor: Nr:Datum:Temp:Abs-Feuchte:Windchill:Wind:
Aussen-T/F 1651 13-02-2011 18:00:00 4.48 C 5.44 g/m*3 4.48 C 0 km/h
1652 13-02-2011 19:00:00 4.36 C 5.55 g/m*3 4.36 C 0 km/h
1653 13-02-2011 20:00:00 4.28 C 5.54 g/m*3 4.28 C 0 km/h
1654 13-02-2011 21:00:00 4.22 C 5.55 g/m*3 4.22 C 0 km/h
1655 13-02-2011 22:00:00 4.06 C 5.52 g/m*3 4.06 C 0 km/h
1656 13-02-2011 23:00:00 3.86 C 5.53 g/m*3 3.86 C 0 km/h
1657 14-02-2011 00:00:00 3.36 C 5.4 g/m*3 3.36 C 0 km/h
1658 14-02-2011 01:00:00 2.96 C 5.3 g/m*3 2.96 C 0 km/h
1659 14-02-2011 02:00:00 2.62 C 5.22 g/m*3 2.62 C 0 km/h
1660 14-02-2011 03:00:00 2.26 C 5.15 g/m*3 2.26 C 0 km/h
1661 14-02-2011 04:00:00 1.74 C 4.97 g/m*3 1.74 C 0 km/h
1662 14-02-2011 05:00:00 1.86 C 5.04 g/m*3 1.86 C 0 km/h
1663 14-02-2011 06:00:00 1.6 C 4.97 g/m*3 1.6 C 0 km/h
1664 14-02-2011 07:00:00 0.96 C 4.76 g/m*3 0.96 C 0 km/h
1665 14-02-2011 08:00:00 1.28 C 4.88 g/m*3 1.28 C 0 km/h
1666 14-02-2011 09:00:00 3.22 C 5.55 g/m*3 3.22 C 0 km/h
1667 14-02-2011 10:00:00 4.8 C 5.93 g/m*3 4.8 C 0 km/h
1668 14-02-2011 11:00:00 6.92 C 5.81 g/m*3 6.92 C 0 km/h
1669 14-02-2011 12:00:00 8.52 C 5.47 g/m*3 8.52 C 0 km/h
1670 14-02-2011 13:00:00 10.08 C 5.46 g/m*3 10.08 C 0 km/h
1671 14-02-2011 14:00:00 9.92 C 5.35 g/m*3 9.92 C 0 km/h
1672 14-02-2011 15:00:00 10.34 C 5.51 g/m*3 10.34 C 0 km/h
1673 14-02-2011 16:00:00 8.8 C 5.59 g/m*3 8.8 C 0 km/h
1674 14-02-2011 17:00:00 6.46 C 5.83 g/m*3 6.46 C 0 km/h
1675 14-02-2011 18:00:00 6.32 C 6.12 g/m*3 6.32 C 0 km/h
Sensor: Nr:Datum:Temp:Abs-Feuchte:Windchill:Wind:
Aussen-T/F 1676 14-02-2011 19:00:00 6.48 C 6.23 g/m*3 6.48 C 0 km/h
1677 14-02-2011 20:00:00 6.36 C 6.39 g/m*3 6.36 C 0 km/h
1678 14-02-2011 21:00:00 6.26 C 6.35 g/m*3 6.26 C 0 km/h
1679 14-02-2011 22:00:00 6.12 C 6.25 g/m*3 6.12 C 0 km/h
1680 14-02-2011 23:00:00 5.92 C 6.21 g/m*3 5.92 C 0 km/h
1681 15-02-2011 00:00:00 5.92 C 6.3 g/m*3 5.92 C 0 km/h
1682 15-02-2011 01:00:00 5.88 C 6.39 g/m*3 5.88 C 0 km/h
1683 15-02-2011 02:00:00 5.56 C 6.35 g/m*3 5.56 C 0 km/h
1684 15-02-2011 03:00:00 4.62 C 5.96 g/m*3 4.62 C 0 km/h
1685 15-02-2011 04:00:00 4.5 C 5.93 g/m*3 4.5 C 0 km/h
1686 15-02-2011 05:00:00 4.28 C 5.86 g/m*3 4.28 C 0 km/h
1687 15-02-2011 06:00:00 4.24 C 5.88 g/m*3 4.24 C 0 km/h
1688 15-02-2011 07:00:00 3.74 C 5.7 g/m*3 3.74 C 0 km/h
1689 15-02-2011 08:00:00 3.84 C 5.75 g/m*3 3.84 C 0 km/h
1690 15-02-2011 09:00:00 4.6 C 5.97 g/m*3 4.6 C 0 km/h
1691 15-02-2011 10:00:00 5.66 C 6.05 g/m*3 5.66 C 0 km/h
1692 15-02-2011 11:00:00 6.98 C 5.74 g/m*3 6.98 C 0 km/h
1693 15-02-2011 12:00:00 7.64 C 5.49 g/m*3 7.64 C 0 km/h
1694 15-02-2011 13:00:00 7.38 C 5.4 g/m*3 7.38 C 0 km/h
1695 15-02-2011 14:00:00 6.72 C 5.39 g/m*3 6.72 C 0 km/h
1696 15-02-2011 15:00:00 6.32 C 5.37 g/m*3 6.32 C 0 km/h
1697 15-02-2011 16:00:00 5.48 C 5.4 g/m*3 5.48 C 0 km/h
1698 15-02-2011 17:00:00 4.98 C 5.29 g/m*3 4.98 C 0 km/h
1699 15-02-2011 18:00:00 4.62 C 5.26 g/m*3 4.62 C 0 km/h
1700 15-02-2011 19:00:00 4.18 C 5.19 g/m*3 4.18 C 0 km/h
Sensor: Nr:Datum:Temp:Abs-Feuchte:Windchill:Wind:
Aussen-T/F 1701 15-02-2011 20:00:00 3.42 C 5.25 g/m*3 3.42 C 0 km/h
1702 15-02-2011 21:00:00 4.24 C 5.57 g/m*3 4.24 C 0 km/h
1703 15-02-2011 22:00:00 4.25 C 5.46 g/m*3 4.25 C 0 km/h
1704 15-02-2011 23:00:00 4.36 C 5.65 g/m*3 4.36 C 0 km/h
1705 16-02-2011 00:00:00 4.78 C 5.69 g/m*3 4.78 C 0 km/h
1706 16-02-2011 01:00:00 3.52 C 5.33 g/m*3 3.52 C 0 km/h
1707 16-02-2011 02:00:00 4.22 C 5.74 g/m*3 4.22 C 0 km/h
1708 16-02-2011 03:00:00 4.42 C 5.82 g/m*3 4.42 C 0 km/h
1709 16-02-2011 04:00:00 3.78 C 5.51 g/m*3 3.78 C 0 km/h
1710 16-02-2011 05:00:00 2.58 C 5.16 g/m*3 2.58 C 0 km/h
1711 16-02-2011 06:00:00 3.74 C 5.61 g/m*3 3.74 C 0 km/h
1712 16-02-2011 07:00:00 4.1 C 5.56 g/m*3 4.1 C 0 km/h
1713 16-02-2011 08:00:00 4.2 C 5.49 g/m*3 4.2 C 0 km/h
1714 16-02-2011 09:00:00 5.44 C 5.69 g/m*3 5.44 C 0 km/h
1715 16-02-2011 10:00:00 6.98 C 5.43 g/m*3 6.98 C 0 km/h
1716 16-02-2011 11:00:00 7.66 C 5.37 g/m*3 7.66 C 0 km/h
1717 16-02-2011 12:00:00 7.92 C 5.33 g/m*3 7.92 C 0 km/h
1718 16-02-2011 13:00:00 9.06 C 5.29 g/m*3 9.06 C 0 km/h
1719 16-02-2011 14:00:00 9.04 C 5.29 g/m*3 9.04 C 0 km/h
1720 16-02-2011 15:00:00 9.02 C 5.37 g/m*3 9.02 C 0 km/h
1721 16-02-2011 16:00:00 10.1 C 5.35 g/m*3 10.1 C 0 km/h
1722 16-02-2011 17:00:00 6.42 C 5.46 g/m*3 6.42 C 0 km/h
1723 16-02-2011 18:00:00 3.88 C 5.3 g/m*3 3.88 C 0 km/h
1724 16-02-2011 19:00:00 2.9 C 5.16 g/m*3 2.9 C 0 km/h
1725 16-02-2011 20:00:00 2.04 C 4.94 g/m*3 2.04 C 0 km/h
Sensor: Nr:Datum:Temp:Abs-Feuchte:Windchill:Wind:
Aussen-T/F 1726 16-02-2011 21:00:00 1.5 C 4.82 g/m*3 1.5 C 0 km/h
1727 16-02-2011 22:00:00 0.66 C 4.6 g/m*3 0.66 C 0 km/h
1728 16-02-2011 23:00:00 -0.26 C 4.33 g/m*3 -0.26 C 0 km/h
1729 17-02-2011 00:00:00 -0.94 C 4.09 g/m*3 -0.94 C 0 km/h
1730 17-02-2011 01:00:00 -0.72 C 4.19 g/m*3 -0.72 C 0 km/h
1731 17-02-2011 02:00:00 -0.44 C 4.29 g/m*3 -0.44 C 0 km/h
1732 17-02-2011 03:00:00 -0.24 C 4.38 g/m*3 -0.24 C 0 km/h
1733 17-02-2011 04:00:00 0.12 C 4.5 g/m*3 0.12 C 0 km/h
1734 17-02-2011 05:00:00 0.52 C 4.67 g/m*3 0.52 C 0 km/h
1735 17-02-2011 06:00:00 0.94 C 4.81 g/m*3 0.94 C 0 km/h
1736 17-02-2011 07:00:00 1.22 C 4.9 g/m*3 1.22 C 0 km/h
1737 17-02-2011 08:00:00 1.52 C 5 g/m*3 1.52 C 0 km/h
1738 17-02-2011 09:00:00 2.32 C 5.26 g/m*3 2.32 C 0 km/h
1739 17-02-2011 10:00:00 3.78 C 5.15 g/m*3 3.78 C 0 km/h
1740 17-02-2011 11:00:00 4 C 4.23 g/m*3 4 C 0 km/h
1741 17-02-2011 12:00:00 6.12 C 3.95 g/m*3 6.12 C 0 km/h
1742 17-02-2011 13:00:00 6.42 C 3.76 g/m*3 6.42 C 0 km/h
1743 17-02-2011 14:00:00 5.5 C 3.86 g/m*3 5.5 C 0 km/h
1744 17-02-2011 15:00:00 5.8 C 3.8 g/m*3 5.8 C 0 km/h
1745 17-02-2011 16:00:00 4.16 C 3.78 g/m*3 4.16 C 0 km/h
1746 17-02-2011 17:00:00 2.78 C 3.7 g/m*3 2.78 C 0 km/h
1747 17-02-2011 18:00:00 0.96 C 3.72 g/m*3 0.96 C 0 km/h
1748 17-02-2011 19:00:00 -0.5 C 3.68 g/m*3 -0.5 C 0 km/h
1749 17-02-2011 20:00:00 0.2 C 4.05 g/m*3 0.2 C 0 km/h
1750 17-02-2011 21:00:00 0.94 C 4.02 g/m*3 0.94 C 0 km/h
Sensor: Nr:Datum:Temp:Abs-Feuchte:Windchill:Wind:
Aussen-T/F 1751 17-02-2011 22:00:00 1.3 C 3.83 g/m*3 1.3 C 0 km/h
1752 17-02-2011 23:00:00 1.36 C 3.81 g/m*3 1.36 C 0 km/h
1753 18-02-2011 00:00:00 1.28 C 3.83 g/m*3 1.28 C 0 km/h
1754 18-02-2011 01:00:00 1.22 C 3.8 g/m*3 1.22 C 0 km/h
1755 18-02-2011 02:00:00 1.22 C 3.89 g/m*3 1.22 C 0 km/h
1756 18-02-2011 03:00:00 1.26 C 3.87 g/m*3 1.26 C 0 km/h
1757 18-02-2011 04:00:00 1.3 C 3.84 g/m*3 1.3 C 0 km/h
1758 18-02-2011 05:00:00 1.18 C 3.83 g/m*3 1.18 C 0 km/h
1759 18-02-2011 06:00:00 1.18 C 3.9 g/m*3 1.18 C 0 km/h
1760 18-02-2011 07:00:00 1.24 C 3.93 g/m*3 1.24 C 0 km/h
1761 18-02-2011 08:00:00 1.52 C 3.99 g/m*3 1.52 C 0 km/h
1762 18-02-2011 09:00:00 2.12 C 3.96 g/m*3 2.12 C 0 km/h
1763 18-02-2011 10:00:00 2.52 C 3.95 g/m*3 2.52 C 0 km/h
1764 18-02-2011 11:00:00 2.92 C 4 g/m*3 2.92 C 0 km/h
1765 18-02-2011 12:00:00 3.18 C 4.03 g/m*3 3.18 C 0 km/h
1766 18-02-2011 13:00:00 3.38 C 4.1 g/m*3 3.38 C 0 km/h
1767 18-02-2011 14:00:00 3.56 C 4.15 g/m*3 3.56 C 0 km/h
1768 18-02-2011 15:00:00 3.66 C 4.15 g/m*3 3.66 C 0 km/h
1769 18-02-2011 16:00:00 3.36 C 4.17 g/m*3 3.36 C 0 km/h
1770 18-02-2011 17:00:00 2.9 C 4.28 g/m*3 2.9 C 0 km/h
1771 18-02-2011 18:00:00 2.72 C 4.38 g/m*3 2.72 C 0 km/h
1772 18-02-2011 19:00:00 2.64 C 4.43 g/m*3 2.64 C 0 km/h
1773 18-02-2011 20:00:00 2.48 C 4.44 g/m*3 2.48 C 0 km/h
1774 18-02-2011 21:00:00 2.38 C 4.5 g/m*3 2.38 C 0 km/h
1775 18-02-2011 22:00:00 2.24 C 4.48 g/m*3 2.24 C 0 km/h
Sensor: Nr:Datum:Temp:Abs-Feuchte:Windchill:Wind:
Aussen-T/F 1776 18-02-2011 23:00:00 2.22 C 4.56 g/m*3 2.22 C 0 km/h
1777 19-02-2011 00:00:00 2.16 C 4.57 g/m*3 2.16 C 0 km/h
1778 19-02-2011 01:00:00 2.08 C 4.58 g/m*3 2.08 C 0 km/h
1779 19-02-2011 02:00:00 1.98 C 4.56 g/m*3 1.98 C 0 km/h
1780 19-02-2011 03:00:00 1.94 C 4.59 g/m*3 1.94 C 0 km/h
1781 19-02-2011 04:00:00 1.86 C 4.62 g/m*3 1.86 C 0 km/h
1782 19-02-2011 05:00:00 1.88 C 4.54 g/m*3 1.88 C 0 km/h
1783 19-02-2011 06:00:00 1.8 C 4.39 g/m*3 1.8 C 0 km/h
1784 19-02-2011 07:00:00 1.68 C 4.36 g/m*3 1.68 C 0 km/h
1785 19-02-2011 08:00:00 1.78 C 4.28 g/m*3 1.78 C 0 km/h
1786 19-02-2011 09:00:00 2.08 C 4.11 g/m*3 2.08 C 0 km/h
1787 19-02-2011 10:00:00 2.82 C 4.15 g/m*3 2.82 C 0 km/h
1788 19-02-2011 11:00:00 3.82 C 4.05 g/m*3 3.82 C 0 km/h
1789 19-02-2011 12:00:00 4.94 C 3.98 g/m*3 4.94 C 0 km/h
1790 19-02-2011 13:00:00 5.14 C 4.06 g/m*3 5.14 C 0 km/h
1791 19-02-2011 14:00:00 4.74 C 4.01 g/m*3 4.74 C 0 km/h
1792 19-02-2011 15:00:00 4.66 C 4.07 g/m*3 4.66 C 0 km/h
1793 19-02-2011 16:00:00 4.4 C 4.14 g/m*3 4.4 C 0 km/h
1794 19-02-2011 17:00:00 3.74 C 4.27 g/m*3 3.74 C 0 km/h
1795 19-02-2011 18:00:00 3.02 C 4.31 g/m*3 3.02 C 0 km/h
1796 19-02-2011 19:00:00 2.9 C 4.37 g/m*3 2.9 C 0 km/h
1797 19-02-2011 20:00:00 2.14 C 4.23 g/m*3 2.14 C 0 km/h
1798 19-02-2011 21:00:00 2.36 C 4.4 g/m*3 2.36 C 0 km/h
1799 19-02-2011 22:00:00 2.16 C 4.16 g/m*3 2.16 C 0 km/h
1800 19-02-2011 23:00:00 1.8 C 4.12 g/m*3 1.8 C 0 km/h
Sensor: Nr:Datum:Temp:Abs-Feuchte:Windchill:Wind:
Aussen-T/F 1801 20-02-2011 00:00:00 1.58 C 3.92 g/m*3 1.58 C 0 km/h
1802 20-02-2011 01:00:00 0.9 C 3.79 g/m*3 0.9 C 0 km/h
1803 20-02-2011 02:00:00 0.56 C 3.82 g/m*3 0.56 C 0 km/h
1804 20-02-2011 03:00:00 0.7 C 3.7 g/m*3 0.7 C 0 km/h
1805 20-02-2011 04:00:00 0.52 C 3.62 g/m*3 0.52 C 0 km/h
1806 20-02-2011 05:00:00 0.34 C 3.56 g/m*3 0.34 C 0 km/h
1807 20-02-2011 06:00:00 0.36 C 3.53 g/m*3 0.36 C 0 km/h
1808 20-02-2011 07:00:00 0.42 C 3.47 g/m*3 0.42 C 0 km/h
1809 20-02-2011 08:00:00 0.54 C 3.38 g/m*3 0.54 C 0 km/h
1810 20-02-2011 09:00:00 1.1 C 3.31 g/m*3 1.1 C 0 km/h
1811 20-02-2011 10:00:00 1.62 C 3.21 g/m*3 1.62 C 0 km/h
1812 20-02-2011 11:00:00 2.14 C 3.15 g/m*3 2.14 C 0 km/h
1813 20-02-2011 12:00:00 2.42 C 3.1 g/m*3 2.42 C 0 km/h
1814 20-02-2011 13:00:00 2.22 C 3.05 g/m*3 2.22 C 0 km/h
1815 20-02-2011 14:00:00 2.14 C 2.98 g/m*3 2.14 C 0 km/h
1816 20-02-2011 15:00:00 2.48 C 2.88 g/m*3 2.48 C 0 km/h
1817 20-02-2011 16:00:00 1.34 C 2.89 g/m*3 1.34 C 0 km/h
1818 20-02-2011 17:00:00 0.6 C 2.91 g/m*3 0.6 C 0 km/h
1819 20-02-2011 18:00:00 0 C 2.81 g/m*3 0 C 0 km/h
1820 20-02-2011 19:00:00 -0.32 C 2.75 g/m*3 -0.32 C 0 km/h
1821 20-02-2011 20:00:00 -0.78 C 2.63 g/m*3 -0.78 C 0 km/h
1822 20-02-2011 21:00:00 -1.04 C 2.55 g/m*3 -1.04 C 0 km/h
1823 20-02-2011 22:00:00 -1.4 C 2.51 g/m*3 -1.4 C 0 km/h
1824 20-02-2011 23:00:00 -1.64 C 2.46 g/m*3 -1.64 C 0 km/h
1825 21-02-2011 00:00:00 -1.84 C 2.4 g/m*3 -1.84 C 0 km/h
Sensor: Nr:Datum:Temp:Abs-Feuchte:Windchill:Wind:
Aussen-T/F 1826 21-02-2011 01:00:00 -2.02 C 2.35 g/m*3 -2.02 C 0 km/h
1827 21-02-2011 02:00:00 -2.24 C 2.32 g/m*3 -2.24 C 0 km/h
1828 21-02-2011 03:00:00 -2.4 C 2.28 g/m*3 -2.4 C 0 km/h
1829 21-02-2011 04:00:00 -2.64 C 2.21 g/m*3 -2.64 C 0 km/h
1830 21-02-2011 05:00:00 -2.72 C 2.2 g/m*3 -2.72 C 0 km/h
1831 21-02-2011 06:00:00 -2.92 C 2.17 g/m*3 -2.92 C 0 km/h
1832 21-02-2011 07:00:00 -3.22 C 2.11 g/m*3 -3.22 C 0 km/h
1833 21-02-2011 08:00:00 -3.32 C 2.07 g/m*3 -3.32 C 0 km/h
1834 21-02-2011 09:00:00 -2.92 C 2.07 g/m*3 -2.92 C 0 km/h
1835 21-02-2011 10:00:00 -2.04 C 2.08 g/m*3 -2.04 C 0 km/h
1836 21-02-2011 11:00:00 -1.52 C 2.04 g/m*3 -1.52 C 0 km/h
1837 21-02-2011 12:00:00 -1.14 C 2.05 g/m*3 -1.14 C 0 km/h
1838 21-02-2011 13:00:00 -0.88 C 2.12 g/m*3 -0.88 C 0 km/h
1839 21-02-2011 14:00:00 -0.46 C 2.17 g/m*3 -0.46 C 0 km/h
1840 21-02-2011 15:00:00 -0.16 C 2.22 g/m*3 -0.16 C 0 km/h
1841 21-02-2011 16:00:00 -0.64 C 2.25 g/m*3 -0.64 C 0 km/h
1842 21-02-2011 17:00:00 -1 C 2.29 g/m*3 -1 C 0 km/h
1843 21-02-2011 18:00:00 -1.16 C 2.3 g/m*3 -1.16 C 0 km/h
1844 21-02-2011 19:00:00 -1.14 C 2.28 g/m*3 -1.14 C 0 km/h
1845 21-02-2011 20:00:00 -1.12 C 2.3 g/m*3 -1.12 C 0 km/h
1846 21-02-2011 21:00:00 -1.3 C 2.29 g/m*3 -1.3 C 0 km/h
1847 21-02-2011 22:00:00 -1.72 C 2.14 g/m*3 -1.72 C 0 km/h
1848 21-02-2011 23:00:00 -2.98 C 2.09 g/m*3 -2.98 C 0 km/h
1849 22-02-2011 00:00:00 -3.56 C 2.11 g/m*3 -3.56 C 0 km/h
1850 22-02-2011 01:00:00 -3.18 C 2.06 g/m*3 -3.18 C 0 km/h
Sensor: Nr:Datum:Temp:Abs-Feuchte:Windchill:Wind:
Aussen-T/F 1851 22-02-2011 02:00:00 -3.34 C 2.02 g/m*3 -3.34 C 0 km/h
1852 22-02-2011 03:00:00 -4.02 C 1.96 g/m*3 -4.02 C 0 km/h
1853 22-02-2011 04:00:00 -4.96 C 1.89 g/m*3 -4.96 C 0 km/h
1854 22-02-2011 05:00:00 -6.06 C 1.85 g/m*3 -6.06 C 0 km/h
1855 22-02-2011 06:00:00 -7.78 C 1.83 g/m*3 -7.78 C 0 km/h
1856 22-02-2011 07:00:00 -8.32 C 1.86 g/m*3 -8.32 C 0 km/h
1857 22-02-2011 08:00:00 -7.72 C 1.89 g/m*3 -7.72 C 0 km/h
1858 22-02-2011 09:00:00 -6.96 C 1.86 g/m*3 -6.96 C 0 km/h
1859 22-02-2011 10:00:00 -5.72 C 1.87 g/m*3 -5.72 C 0 km/h
1860 22-02-2011 11:00:00 -3.54 C 1.84 g/m*3 -3.54 C 0 km/h
1861 22-02-2011 12:00:00 -0.04 C 1.9 g/m*3 -0.04 C 0 km/h
1862 22-02-2011 13:00:00 1.94 C 1.59 g/m*3 1.94 C 0 km/h
1863 22-02-2011 14:00:00 1.62 C 1.84 g/m*3 1.62 C 0 km/h
1864 22-02-2011 15:00:00 3.48 C 1.62 g/m*3 3.48 C 0 km/h
1865 22-02-2011 16:00:00 5.9 C 1.44 g/m*3 5.9 C 0 km/h
1866 22-02-2011 17:00:00 1.3 C 1.74 g/m*3 1.3 C 0 km/h
1867 22-02-2011 18:00:00 -3.76 C 2.08 g/m*3 -3.76 C 0 km/h
1868 22-02-2011 19:00:00 -4.52 C 2.11 g/m*3 -4.52 C 0 km/h
1869 22-02-2011 20:00:00 -5.14 C 2.1 g/m*3 -5.14 C 0 km/h
1870 22-02-2011 21:00:00 -5.36 C 2.07 g/m*3 -5.36 C 0 km/h
1871 22-02-2011 22:00:00 -5.56 C 2.04 g/m*3 -5.56 C 0 km/h
1872 22-02-2011 23:00:00 -6.1 C 1.91 g/m*3 -6.1 C 0 km/h
1873 23-02-2011 00:00:00 -6.7 C 1.91 g/m*3 -6.7 C 0 km/h
1874 23-02-2011 01:00:00 -7.2 C 1.89 g/m*3 -7.2 C 0 km/h
1875 23-02-2011 02:00:00 -7.9 C 1.81 g/m*3 -7.9 C 0 km/h
Sensor: Nr:Datum:Temp:Abs-Feuchte:Windchill:Wind:
Aussen-T/F 1876 23-02-2011 03:00:00 -8.14 C 1.84 g/m*3 -8.14 C 0 km/h
1877 23-02-2011 04:00:00 -8.76 C 1.82 g/m*3 -8.76 C 0 km/h
1878 23-02-2011 05:00:00 -8.8 C 1.87 g/m*3 -8.8 C 0 km/h
1879 23-02-2011 06:00:00 -9.36 C 1.78 g/m*3 -9.36 C 0 km/h
1880 23-02-2011 07:00:00 -9.18 C 1.83 g/m*3 -9.18 C 0 km/h
1881 23-02-2011 08:00:00 -7.5 C 2.12 g/m*3 -7.5 C 0 km/h
1882 23-02-2011 09:00:00 -4.84 C 2.31 g/m*3 -4.84 C 0 km/h
1883 23-02-2011 10:00:00 -2.28 C 2.3 g/m*3 -2.28 C 0 km/h
1884 23-02-2011 11:00:00 -0.3 C 1.97 g/m*3 -0.3 C 0 km/h
1885 23-02-2011 12:00:00 1.72 C 1.54 g/m*3 1.72 C 0 km/h
1886 23-02-2011 13:00:00 3.66 C 1.24 g/m*3 3.66 C 0 km/h
1887 23-02-2011 14:00:00 3.96 C 1.27 g/m*3 3.96 C 0 km/h
1888 23-02-2011 15:00:00 3.74 C 1.25 g/m*3 3.74 C 0 km/h
1889 23-02-2011 16:00:00 3 C 1.19 g/m*3 3 C 0 km/h
1890 23-02-2011 17:00:00 1.26 C 1.65 g/m*3 1.26 C 0 km/h
1891 23-02-2011 18:00:00 -0.3 C 2.17 g/m*3 -0.3 C 0 km/h
1892 23-02-2011 19:00:00 0.26 C 2.09 g/m*3 0.26 C 0 km/h
1893 23-02-2011 20:00:00 0.08 C 2.09 g/m*3 0.08 C 0 km/h
1894 23-02-2011 21:00:00 -0.06 C 2.25 g/m*3 -0.06 C 0 km/h
1895 23-02-2011 22:00:00 -0.08 C 2.32 g/m*3 -0.08 C 0 km/h
1896 23-02-2011 23:00:00 -0.26 C 2.51 g/m*3 -0.26 C 0 km/h
1897 24-02-2011 00:00:00 -0.44 C 2.58 g/m*3 -0.44 C 0 km/h
1898 24-02-2011 01:00:00 -0.74 C 2.68 g/m*3 -0.74 C 0 km/h
1899 24-02-2011 02:00:00 -0.48 C 2.61 g/m*3 -0.48 C 0 km/h
1900 24-02-2011 03:00:00 -0.12 C 2.72 g/m*3 -0.12 C 0 km/h
Sensor: Nr:Datum:Temp:Abs-Feuchte:Windchill:Wind:
Aussen-T/F 1901 24-02-2011 04:00:00 0.12 C 2.88 g/m*3 0.12 C 0 km/h
1902 24-02-2011 05:00:00 -0.84 C 3.4 g/m*3 -0.84 C 0 km/h
1903 24-02-2011 06:00:00 -0.88 C 3.58 g/m*3 -0.88 C 0 km/h
1904 24-02-2011 07:00:00 -0.76 C 3.66 g/m*3 -0.76 C 0 km/h
1905 24-02-2011 08:00:00 -0.4 C 3.87 g/m*3 -0.4 C 0 km/h
1906 24-02-2011 09:00:00 0.12 C 4.01 g/m*3 0.12 C 0 km/h
1907 24-02-2011 10:00:00 0.76 C 4.15 g/m*3 0.76 C 0 km/h
1908 24-02-2011 11:00:00 1.58 C 4.19 g/m*3 1.58 C 0 km/h
1909 24-02-2011 12:00:00 2.66 C 4.29 g/m*3 2.66 C 0 km/h
1910 24-02-2011 13:00:00 3.38 C 4.17 g/m*3 3.38 C 0 km/h
1911 24-02-2011 14:00:00 2.62 C 4.3 g/m*3 2.62 C 0 km/h
1912 24-02-2011 15:00:00 3.18 C 4.33 g/m*3 3.18 C 0 km/h
1913 24-02-2011 16:00:00 2.52 C 4.34 g/m*3 2.52 C 0 km/h
1914 24-02-2011 17:00:00 1.64 C 4.45 g/m*3 1.64 C 0 km/h
1915 24-02-2011 18:00:00 1.28 C 4.52 g/m*3 1.28 C 0 km/h
1916 24-02-2011 19:00:00 1.26 C 4.61 g/m*3 1.26 C 0 km/h
1917 24-02-2011 20:00:00 1.28 C 4.66 g/m*3 1.28 C 0 km/h
1918 24-02-2011 21:00:00 1.32 C 4.7 g/m*3 1.32 C 0 km/h
1919 24-02-2011 22:00:00 1.4 C 4.75 g/m*3 1.4 C 0 km/h
1920 24-02-2011 23:00:00 1.4 C 4.75 g/m*3 1.4 C 0 km/h
1921 25-02-2011 00:00:00 1.44 C 4.76 g/m*3 1.44 C 0 km/h
1922 25-02-2011 01:00:00 1.44 C 4.79 g/m*3 1.44 C 0 km/h
1923 25-02-2011 02:00:00 1.42 C 4.81 g/m*3 1.42 C 0 km/h
1924 25-02-2011 03:00:00 1.5 C 4.83 g/m*3 1.5 C 0 km/h
1925 25-02-2011 04:00:00 1.48 C 4.83 g/m*3 1.48 C 0 km/h
Sensor: Nr:Datum:Temp:Abs-Feuchte:Windchill:Wind:
Aussen-T/F 1926 25-02-2011 05:00:00 1.64 C 4.93 g/m*3 1.64 C 0 km/h
1927 25-02-2011 06:00:00 1.7 C 4.95 g/m*3 1.7 C 0 km/h
1928 25-02-2011 07:00:00 1.82 C 5 g/m*3 1.82 C 0 km/h
1929 25-02-2011 08:00:00 2.2 C 5.1 g/m*3 2.2 C 0 km/h
1930 25-02-2011 09:00:00 2.92 C 5.31 g/m*3 2.92 C 0 km/h
1931 25-02-2011 10:00:00 3.68 C 5.38 g/m*3 3.68 C 0 km/h
1932 25-02-2011 11:00:00 4.56 C 5.35 g/m*3 4.56 C 0 km/h
1933 25-02-2011 12:00:00 5.32 C 5.16 g/m*3 5.32 C 0 km/h
1934 25-02-2011 13:00:00 6.12 C 5.22 g/m*3 6.12 C 0 km/h
1935 25-02-2011 14:00:00 6.06 C 5.2 g/m*3 6.06 C 0 km/h
1936 25-02-2011 15:00:00 6.14 C 5.24 g/m*3 6.14 C 0 km/h
1937 25-02-2011 16:00:00 5.38 C 5.39 g/m*3 5.38 C 0 km/h
1938 25-02-2011 17:00:00 4.66 C 5.31 g/m*3 4.66 C 0 km/h
1939 25-02-2011 18:00:00 4.22 C 5.28 g/m*3 4.22 C 0 km/h
1940 25-02-2011 19:00:00 3.94 C 5.26 g/m*3 3.94 C 0 km/h
1941 25-02-2011 20:00:00 3.82 C 5.3 g/m*3 3.82 C 0 km/h
1942 25-02-2011 21:00:00 3.64 C 5.3 g/m*3 3.64 C 0 km/h
1943 25-02-2011 22:00:00 3.78 C 5.4 g/m*3 3.78 C 0 km/h
1944 25-02-2011 23:00:00 3.8 C 5.38 g/m*3 3.8 C 0 km/h
1945 26-02-2011 00:00:00 3.6 C 5.34 g/m*3 3.6 C 0 km/h
1946 26-02-2011 01:00:00 3.52 C 5.36 g/m*3 3.52 C 0 km/h
1947 26-02-2011 02:00:00 3.5 C 5.35 g/m*3 3.5 C 0 km/h
1948 26-02-2011 03:00:00 3.42 C 5.26 g/m*3 3.42 C 0 km/h
1949 26-02-2011 04:00:00 3.38 C 5.25 g/m*3 3.38 C 0 km/h
1950 26-02-2011 05:00:00 3.74 C 5.22 g/m*3 3.74 C 0 km/h
Sensor: Nr:Datum:Temp:Abs-Feuchte:Windchill:Wind:
Aussen-T/F 1951 26-02-2011 06:00:00 3.62 C 4.87 g/m*3 3.62 C 0 km/h
1952 26-02-2011 07:00:00 2.9 C 4.96 g/m*3 2.9 C 0 km/h
1953 26-02-2011 08:00:00 3.94 C 4.89 g/m*3 3.94 C 0 km/h
1954 26-02-2011 09:00:00 4.1 C 4.67 g/m*3 4.1 C 0 km/h
1955 26-02-2011 10:00:00 4.8 C 4.61 g/m*3 4.8 C 0 km/h
1956 26-02-2011 11:00:00 5.88 C 4.45 g/m*3 5.88 C 0 km/h
1957 26-02-2011 12:00:00 7.6 C 4.5 g/m*3 7.6 C 0 km/h
1958 26-02-2011 13:00:00 8.4 C 4.55 g/m*3 8.4 C 0 km/h
1959 26-02-2011 14:00:00 8.76 C 4.62 g/m*3 8.76 C 0 km/h
1960 26-02-2011 15:00:00 7.98 C 4.71 g/m*3 7.98 C 0 km/h
1961 26-02-2011 16:00:00 7.14 C 4.83 g/m*3 7.14 C 0 km/h
1962 26-02-2011 17:00:00 6.4 C 5.08 g/m*3 6.4 C 0 km/h
1963 26-02-2011 18:00:00 5.56 C 5.39 g/m*3 5.56 C 0 km/h
1964 26-02-2011 19:00:00 4.96 C 5.73 g/m*3 4.96 C 0 km/h
1965 26-02-2011 20:00:00 4.74 C 5.78 g/m*3 4.74 C 0 km/h
1966 26-02-2011 21:00:00 4.6 C 5.82 g/m*3 4.6 C 0 km/h
1967 26-02-2011 22:00:00 4.48 C 5.83 g/m*3 4.48 C 0 km/h
1968 26-02-2011 23:00:00 4.7 C 5.94 g/m*3 4.7 C 0 km/h
1969 27-02-2011 00:00:00 4.68 C 5.99 g/m*3 4.68 C 0 km/h
1970 27-02-2011 01:00:00 4.54 C 5.97 g/m*3 4.54 C 0 km/h
1971 27-02-2011 02:00:00 4.66 C 6.05 g/m*3 4.66 C 0 km/h
1972 27-02-2011 03:00:00 4.78 C 6.03 g/m*3 4.78 C 0 km/h
1973 27-02-2011 04:00:00 4.62 C 5.96 g/m*3 4.62 C 0 km/h
1974 27-02-2011 05:00:00 4.46 C 5.9 g/m*3 4.46 C 0 km/h
1975 27-02-2011 06:00:00 4.3 C 5.84 g/m*3 4.3 C 0 km/h
Sensor: Nr:Datum:Temp:Abs-Feuchte:Windchill:Wind:
Aussen-T/F 1976 27-02-2011 07:00:00 4.3 C 5.86 g/m*3 4.3 C 0 km/h
1977 27-02-2011 08:00:00 4.62 C 5.78 g/m*3 4.62 C 0 km/h
1978 27-02-2011 09:00:00 5.42 C 5.6 g/m*3 5.42 C 0 km/h
1979 27-02-2011 10:00:00 6.32 C 5.53 g/m*3 6.32 C 0 km/h
1980 27-02-2011 11:00:00 7.24 C 5.04 g/m*3 7.24 C 0 km/h
1981 27-02-2011 12:00:00 7.54 C 4.59 g/m*3 7.54 C 0 km/h
1982 27-02-2011 13:00:00 7.5 C 4.45 g/m*3 7.5 C 0 km/h
1983 27-02-2011 14:00:00 7.4 C 4.36 g/m*3 7.4 C 0 km/h
1984 27-02-2011 15:00:00 7.3 C 4.35 g/m*3 7.3 C 0 km/h
1985 27-02-2011 16:00:00 6.78 C 4.46 g/m*3 6.78 C 0 km/h
1986 27-02-2011 17:00:00 6.52 C 4.28 g/m*3 6.52 C 0 km/h
1987 27-02-2011 18:00:00 5.78 C 4.36 g/m*3 5.78 C 0 km/h
1988 27-02-2011 19:00:00 5.2 C 4.63 g/m*3 5.2 C 0 km/h
1989 27-02-2011 20:00:00 4.5 C 4.75 g/m*3 4.5 C 0 km/h
1990 27-02-2011 21:00:00 4.7 C 4.36 g/m*3 4.7 C 0 km/h
1991 27-02-2011 22:00:00 4.25 C 4.36 g/m*3 4.25 C 0 km/h
1992 27-02-2011 23:00:00 3.8 C 4.25 g/m*3 3.8 C 0 km/h
1993 28-02-2011 00:00:00 3.14 C 4.31 g/m*3 3.14 C 0 km/h
1994 28-02-2011 01:00:00 2.12 C 4.37 g/m*3 2.12 C 0 km/h
1995 28-02-2011 02:00:00 1.16 C 4.38 g/m*3 1.16 C 0 km/h
1996 28-02-2011 03:00:00 1.82 C 4.61 g/m*3 1.82 C 0 km/h
1997 28-02-2011 04:00:00 2.26 C 4.52 g/m*3 2.26 C 0 km/h
1998 28-02-2011 05:00:00 2.68 C 4.47 g/m*3 2.68 C 0 km/h
1999 28-02-2011 06:00:00 2.74 C 4.51 g/m*3 2.74 C 0 km/h
2000 28-02-2011 07:00:00 2.6 C 4.57 g/m*3 2.6 C 0 km/h
Sensor: Nr:Datum:Temp:Abs-Feuchte:Windchill:Wind:
Aussen-T/F 2001 28-02-2011 08:00:00 3.24 C 4.59 g/m*3 3.24 C 0 km/h
2002 28-02-2011 09:00:00 4.22 C 4.52 g/m*3 4.22 C 0 km/h
2003 28-02-2011 10:00:00 4.14 C 4.63 g/m*3 4.14 C 0 km/h
2004 28-02-2011 11:00:00 7.46 C 4.22 g/m*3 7.46 C 0 km/h
2005 28-02-2011 12:00:00 8.46 C 3.93 g/m*3 8.46 C 0 km/h
2006 28-02-2011 13:00:00 9.02 C 3.8 g/m*3 9.02 C 0 km/h
2007 28-02-2011 14:00:00 10.34 C 3.86 g/m*3 10.34 C 0 km/h
2008 28-02-2011 15:00:00 10.34 C 3.82 g/m*3 10.34 C 0 km/h
2009 28-02-2011 16:00:00 11.96 C 3.72 g/m*3 11.96 C 0 km/h
2010 28-02-2011 17:00:00 7.84 C 3.86 g/m*3 7.84 C 0 km/h
2011 28-02-2011 18:00:00 5.12 C 4.21 g/m*3 5.12 C 0 km/h
2012 28-02-2011 19:00:00 2.82 C 4.39 g/m*3 2.82 C 0 km/h
2013 28-02-2011 20:00:00 1.8 C 4.48 g/m*3 1.8 C 0 km/h
2014 28-02-2011 21:00:00 1.32 C 4.52 g/m*3 1.32 C 0 km/h
2015 28-02-2011 22:00:00 1.04 C 4.5 g/m*3 1.04 C 0 km/h
2016 28-02-2011 23:00:00 0.92 C 4.52 g/m*3 0.92 C 0 km/h
2017 01-03-2011 00:00:00 0.54 C 4.43 g/m*3 0.54 C 0 km/h
2018 01-03-2011 01:00:00 -0.1 C 4.21 g/m*3 -0.1 C 0 km/h
2019 01-03-2011 02:00:00 -0.1 C 4.25 g/m*3 -0.1 C 0 km/h
2020 01-03-2011 03:00:00 -0.76 C 4.09 g/m*3 -0.76 C 0 km/h
2021 01-03-2011 04:00:00 -1.04 C 4.01 g/m*3 -1.04 C 0 km/h
2022 01-03-2011 05:00:00 0.34 C 4.5 g/m*3 0.34 C 0 km/h
2023 01-03-2011 06:00:00 0.52 C 4.57 g/m*3 0.52 C 0 km/h
2024 01-03-2011 07:00:00 0.62 C 4.64 g/m*3 0.62 C 0 km/h
2025 01-03-2011 08:00:00 1.08 C 4.76 g/m*3 1.08 C 0 km/h
Sensor: Nr:Datum:Temp:Abs-Feuchte:Windchill:Wind:
Aussen-T/F 2026 01-03-2011 09:00:00 1.84 C 4.94 g/m*3 1.84 C 0 km/h
2027 01-03-2011 10:00:00 2.44 C 4.76 g/m*3 2.44 C 0 km/h
2028 01-03-2011 11:00:00 4.54 C 4.84 g/m*3 4.54 C 0 km/h
2029 01-03-2011 12:00:00 7.7 C 4.93 g/m*3 7.7 C 0 km/h
2030 01-03-2011 13:00:00 9.98 C 4.65 g/m*3 9.98 C 0 km/h
2031 01-03-2011 14:00:00 10.64 C 4.76 g/m*3 10.64 C 0 km/h
2032 01-03-2011 15:00:00 12.7 C 4.63 g/m*3 12.7 C 0 km/h
2033 01-03-2011 16:00:00 15.02 C 3.36 g/m*3 15.02 C 0 km/h
2034 01-03-2011 17:00:00 11.82 C 3.52 g/m*3 11.82 C 0 km/h
2035 01-03-2011 18:00:00 6.96 C 3.97 g/m*3 6.96 C 0 km/h
2036 01-03-2011 19:00:00 5.64 C 4.18 g/m*3 5.64 C 0 km/h
2037 01-03-2011 20:00:00 4.34 C 4.11 g/m*3 4.34 C 0 km/h
2038 01-03-2011 21:00:00 2.82 C 4.01 g/m*3 2.82 C 0 km/h
2039 01-03-2011 22:00:00 3.12 C 3.76 g/m*3 3.12 C 0 km/h
2040 01-03-2011 23:00:00 2.82 C 3.49 g/m*3 2.82 C 0 km/h
2041 02-03-2011 00:00:00 1.34 C 3.55 g/m*3 1.34 C 0 km/h
2042 02-03-2011 01:00:00 0.68 C 3.57 g/m*3 0.68 C 0 km/h
2043 02-03-2011 02:00:00 -0.36 C 3.58 g/m*3 -0.36 C 0 km/h
2044 02-03-2011 03:00:00 -1 C 3.5 g/m*3 -1 C 0 km/h
2045 02-03-2011 04:00:00 -1.02 C 3.34 g/m*3 -1.02 C 0 km/h
2046 02-03-2011 05:00:00 -1.5 C 3.21 g/m*3 -1.5 C 0 km/h
2047 02-03-2011 06:00:00 -2.08 C 3.21 g/m*3 -2.08 C 0 km/h
2048 02-03-2011 07:00:00 -2.22 C 3.1 g/m*3 -2.22 C 0 km/h
2049 02-03-2011 08:00:00 -2 C 3.2 g/m*3 -2 C 0 km/h
2050 02-03-2011 09:00:00 -0.84 C 3.26 g/m*3 -0.84 C 0 km/h
Sensor: Nr:Datum:Temp:Abs-Feuchte:Windchill:Wind:
Aussen-T/F 2051 02-03-2011 10:00:00 1.44 C 3.26 g/m*3 1.44 C 0 km/h
2052 02-03-2011 11:00:00 5.68 C 2.66 g/m*3 5.68 C 0 km/h
2053 02-03-2011 12:00:00 9.78 C 1.87 g/m*3 9.78 C 0 km/h
2054 02-03-2011 13:00:00 11.64 C 2.08 g/m*3 11.64 C 0 km/h
2055 02-03-2011 14:00:00 10.84 C 1.98 g/m*3 10.84 C 0 km/h
2056 02-03-2011 15:00:00 11.68 C 2.09 g/m*3 11.68 C 0 km/h
2057 02-03-2011 16:00:00 13.18 C 2.29 g/m*3 13.18 C 0 km/h
2058 02-03-2011 17:00:00 10.36 C 1.92 g/m*3 10.36 C 0 km/h
2059 02-03-2011 18:00:00 4.78 C 2.2 g/m*3 4.78 C 0 km/h
2060 02-03-2011 19:00:00 2.5 C 2.64 g/m*3 2.5 C 0 km/h
2061 02-03-2011 20:00:00 2.9 C 2.44 g/m*3 2.9 C 0 km/h
2062 02-03-2011 21:00:00 2.84 C 2.34 g/m*3 2.84 C 0 km/h
2063 02-03-2011 22:00:00 2.44 C 2.34 g/m*3 2.44 C 0 km/h
2064 02-03-2011 23:00:00 0.78 C 2.6 g/m*3 0.78 C 0 km/h
2065 03-03-2011 00:00:00 -0.84 C 2.68 g/m*3 -0.84 C 0 km/h
2066 03-03-2011 01:00:00 -1.58 C 2.71 g/m*3 -1.58 C 0 km/h
2067 03-03-2011 02:00:00 -1.94 C 2.59 g/m*3 -1.94 C 0 km/h
2068 03-03-2011 03:00:00 -2.12 C 2.58 g/m*3 -2.12 C 0 km/h
2069 03-03-2011 04:00:00 -1.76 C 2.42 g/m*3 -1.76 C 0 km/h
2070 03-03-2011 05:00:00 -2.82 C 2.51 g/m*3 -2.82 C 0 km/h
2071 03-03-2011 06:00:00 -3.42 C 2.46 g/m*3 -3.42 C 0 km/h
2072 03-03-2011 07:00:00 -3.2 C 2.54 g/m*3 -3.2 C 0 km/h
2073 03-03-2011 08:00:00 -2.64 C 2.55 g/m*3 -2.64 C 0 km/h
2074 03-03-2011 09:00:00 -1.68 C 2.63 g/m*3 -1.68 C 0 km/h
2075 03-03-2011 10:00:00 0.84 C 2.72 g/m*3 0.84 C 0 km/h
Sensor: Nr:Datum:Temp:Abs-Feuchte:Windchill:Wind:
Aussen-T/F 2076 03-03-2011 11:00:00 4.24 C 2.13 g/m*3 4.24 C 0 km/h
2077 03-03-2011 12:00:00 6.94 C 1.85 g/m*3 6.94 C 0 km/h
2078 03-03-2011 13:00:00 8.44 C 1.7 g/m*3 8.44 C 0 km/h
2079 03-03-2011 14:00:00 8.7 C 1.73 g/m*3 8.7 C 0 km/h
2080 03-03-2011 15:00:00 9.52 C 1.82 g/m*3 9.52 C 0 km/h
2081 03-03-2011 16:00:00 10.76 C 1.97 g/m*3 10.76 C 0 km/h
2082 03-03-2011 17:00:00 8.1 C 1.83 g/m*3 8.1 C 0 km/h
2083 03-03-2011 18:00:00 3.18 C 2.47 g/m*3 3.18 C 0 km/h
2084 03-03-2011 19:00:00 1.08 C 2.82 g/m*3 1.08 C 0 km/h
2085 03-03-2011 20:00:00 0.5 C 2.94 g/m*3 0.5 C 0 km/h
2086 03-03-2011 21:00:00 -0.28 C 3.04 g/m*3 -0.28 C 0 km/h
2087 03-03-2011 22:00:00 -0.68 C 3.08 g/m*3 -0.68 C 0 km/h
2088 03-03-2011 23:00:00 -1.3 C 3.05 g/m*3 -1.3 C 0 km/h
2089 04-03-2011 00:00:00 -1.62 C 2.96 g/m*3 -1.62 C 0 km/h
2090 04-03-2011 01:00:00 -1.88 C 2.98 g/m*3 -1.88 C 0 km/h
2091 04-03-2011 02:00:00 -2.24 C 2.91 g/m*3 -2.24 C 0 km/h
2092 04-03-2011 03:00:00 -2.78 C 2.87 g/m*3 -2.78 C 0 km/h
2093 04-03-2011 04:00:00 -3.54 C 2.8 g/m*3 -3.54 C 0 km/h
2094 04-03-2011 05:00:00 -4.36 C 2.75 g/m*3 -4.36 C 0 km/h
2095 04-03-2011 06:00:00 -4.64 C 2.75 g/m*3 -4.64 C 0 km/h
2096 04-03-2011 07:00:00 -4.7 C 2.74 g/m*3 -4.7 C 0 km/h
2097 04-03-2011 08:00:00 -3.98 C 2.91 g/m*3 -3.98 C 0 km/h
2098 04-03-2011 09:00:00 -2.78 C 3.14 g/m*3 -2.78 C 0 km/h
2099 04-03-2011 10:00:00 -0.1 C 3.45 g/m*3 -0.1 C 0 km/h
2100 04-03-2011 11:00:00 3.6 C 3.16 g/m*3 3.6 C 0 km/h
Sensor: Nr:Datum:Temp:Abs-Feuchte:Windchill:Wind:
Aussen-T/F 2101 04-03-2011 12:00:00 7.46 C 3 g/m*3 7.46 C 0 km/h
2102 04-03-2011 13:00:00 10.32 C 2.76 g/m*3 10.32 C 0 km/h
2103 04-03-2011 14:00:00 9.66 C 2.94 g/m*3 9.66 C 0 km/h
2104 04-03-2011 15:00:00 11.96 C 3.02 g/m*3 11.96 C 0 km/h
2105 04-03-2011 16:00:00 15.74 C 2.87 g/m*3 15.74 C 0 km/h
2106 04-03-2011 17:00:00 10.92 C 3.39 g/m*3 10.92 C 0 km/h
2107 04-03-2011 18:00:00 5.38 C 3.67 g/m*3 5.38 C 0 km/h
2108 04-03-2011 19:00:00 4.46 C 3.57 g/m*3 4.46 C 0 km/h
2109 04-03-2011 20:00:00 2.72 C 3.83 g/m*3 2.72 C 0 km/h
2110 04-03-2011 21:00:00 1.82 C 3.88 g/m*3 1.82 C 0 km/h
2111 04-03-2011 22:00:00 1.02 C 3.88 g/m*3 1.02 C 0 km/h
2112 04-03-2011 23:00:00 -0.06 C 3.84 g/m*3 -0.06 C 0 km/h
2113 05-03-2011 00:00:00 -1.04 C 3.74 g/m*3 -1.04 C 0 km/h
2114 05-03-2011 01:00:00 -1.88 C 3.61 g/m*3 -1.88 C 0 km/h
2115 05-03-2011 02:00:00 -3.04 C 3.33 g/m*3 -3.04 C 0 km/h
2116 05-03-2011 03:00:00 -3.58 C 3.22 g/m*3 -3.58 C 0 km/h
2117 05-03-2011 04:00:00 -3.74 C 3.22 g/m*3 -3.74 C 0 km/h
2118 05-03-2011 05:00:00 -3.84 C 3.22 g/m*3 -3.84 C 0 km/h
2119 05-03-2011 06:00:00 -2.78 C 3.48 g/m*3 -2.78 C 0 km/h
2120 05-03-2011 07:00:00 -2.4 C 3.59 g/m*3 -2.4 C 0 km/h
2121 05-03-2011 08:00:00 -1.56 C 3.79 g/m*3 -1.56 C 0 km/h
2122 05-03-2011 09:00:00 -0.54 C 3.92 g/m*3 -0.54 C 0 km/h
2123 05-03-2011 10:00:00 1.56 C 4.09 g/m*3 1.56 C 0 km/h
2124 05-03-2011 11:00:00 2.82 C 3.79 g/m*3 2.82 C 0 km/h
2125 05-03-2011 12:00:00 4.48 C 3.72 g/m*3 4.48 C 0 km/h
Sensor: Nr:Datum:Temp:Abs-Feuchte:Windchill:Wind:
Aussen-T/F 2126 05-03-2011 13:00:00 5.68 C 3.44 g/m*3 5.68 C 0 km/h
2127 05-03-2011 14:00:00 4 C 3.34 g/m*3 4 C 0 km/h
2128 05-03-2011 15:00:00 3.98 C 3.37 g/m*3 3.98 C 0 km/h
2129 05-03-2011 16:00:00 3.38 C 3.39 g/m*3 3.38 C 0 km/h
2130 05-03-2011 17:00:00 2.62 C 3.57 g/m*3 2.62 C 0 km/h
2131 05-03-2011 18:00:00 1.36 C 3.83 g/m*3 1.36 C 0 km/h
2132 05-03-2011 19:00:00 1.14 C 4.07 g/m*3 1.14 C 0 km/h
2133 05-03-2011 20:00:00 1.48 C 4.14 g/m*3 1.48 C 0 km/h
2134 05-03-2011 21:00:00 -0.5 C 3.8 g/m*3 -0.5 C 0 km/h
2135 05-03-2011 22:00:00 -1.22 C 3.73 g/m*3 -1.22 C 0 km/h
2136 05-03-2011 23:00:00 -1.62 C 3.67 g/m*3 -1.62 C 0 km/h
2137 06-03-2011 00:00:00 -1.62 C 3.74 g/m*3 -1.62 C 0 km/h
2138 06-03-2011 01:00:00 -1.94 C 3.69 g/m*3 -1.94 C 0 km/h
2139 06-03-2011 02:00:00 -0.48 C 4.15 g/m*3 -0.48 C 0 km/h
2140 06-03-2011 03:00:00 -0.02 C 4.23 g/m*3 -0.02 C 0 km/h
2141 06-03-2011 04:00:00 -0.08 C 3.97 g/m*3 -0.08 C 0 km/h
2142 06-03-2011 05:00:00 -1.52 C 3.31 g/m*3 -1.52 C 0 km/h
2143 06-03-2011 06:00:00 -2.82 C 3.22 g/m*3 -2.82 C 0 km/h
2144 06-03-2011 07:00:00 -1.94 C 3.38 g/m*3 -1.94 C 0 km/h
2145 06-03-2011 08:00:00 -0.34 C 3.48 g/m*3 -0.34 C 0 km/h
2146 06-03-2011 09:00:00 1.24 C 3.13 g/m*3 1.24 C 0 km/h
2147 06-03-2011 10:00:00 2.14 C 2.82 g/m*3 2.14 C 0 km/h
2148 06-03-2011 11:00:00 3.76 C 2.69 g/m*3 3.76 C 0 km/h
2149 06-03-2011 12:00:00 5.26 C 2.6 g/m*3 5.26 C 0 km/h
2150 06-03-2011 13:00:00 5.92 C 2.43 g/m*3 5.92 C 0 km/h
Sensor: Nr:Datum:Temp:Abs-Feuchte:Windchill:Wind:
Aussen-T/F 2151 06-03-2011 14:00:00 6.66 C 2.3 g/m*3 6.66 C 0 km/h
2152 06-03-2011 15:00:00 9.1 C 2.16 g/m*3 9.1 C 0 km/h
2153 06-03-2011 16:00:00 12.66 C 2.22 g/m*3 12.66 C 0 km/h
2154 06-03-2011 17:00:00 8.86 C 2.36 g/m*3 8.86 C 0 km/h
2155 06-03-2011 18:00:00 2.02 C 2.92 g/m*3 2.02 C 0 km/h
2156 06-03-2011 19:00:00 0.04 C 3.02 g/m*3 0.04 C 0 km/h
2157 06-03-2011 20:00:00 -0.52 C 3.02 g/m*3 -0.52 C 0 km/h
2158 06-03-2011 21:00:00 -1.1 C 2.95 g/m*3 -1.1 C 0 km/h
2159 06-03-2011 22:00:00 -1.6 C 2.88 g/m*3 -1.6 C 0 km/h
2160 06-03-2011 23:00:00 -2.1 C 2.75 g/m*3 -2.1 C 0 km/h
2161 07-03-2011 00:00:00 -2.42 C 2.7 g/m*3 -2.42 C 0 km/h
2162 07-03-2011 01:00:00 -3.02 C 2.69 g/m*3 -3.02 C 0 km/h
2163 07-03-2011 02:00:00 -3.62 C 2.62 g/m*3 -3.62 C 0 km/h
2164 07-03-2011 03:00:00 -4.18 C 2.56 g/m*3 -4.18 C 0 km/h
2165 07-03-2011 04:00:00 -4.64 C 2.51 g/m*3 -4.64 C 0 km/h
2166 07-03-2011 05:00:00 -4.64 C 2.5 g/m*3 -4.64 C 0 km/h
2167 07-03-2011 06:00:00 -4.6 C 2.44 g/m*3 -4.6 C 0 km/h
2168 07-03-2011 07:00:00 -4.62 C 2.39 g/m*3 -4.62 C 0 km/h
2169 07-03-2011 08:00:00 -3.76 C 2.34 g/m*3 -3.76 C 0 km/h
2170 07-03-2011 09:00:00 -2.92 C 2.38 g/m*3 -2.92 C 0 km/h
2171 07-03-2011 10:00:00 1.04 C 2.09 g/m*3 1.04 C 0 km/h
2172 07-03-2011 11:00:00 4.28 C 1.3 g/m*3 4.28 C 0 km/h
2173 07-03-2011 12:00:00 7.74 C 1.63 g/m*3 7.74 C 0 km/h
2174 07-03-2011 13:00:00 8.3 C 1.69 g/m*3 8.3 C 0 km/h
2175 07-03-2011 14:00:00 8.36 C 1.69 g/m*3 8.36 C 0 km/h
Sensor: Nr:Datum:Temp:Abs-Feuchte:Windchill:Wind:
Aussen-T/F 2176 07-03-2011 15:00:00 11 C 2 g/m*3 11 C 0 km/h
2177 07-03-2011 16:00:00 13.64 C 2.36 g/m*3 13.64 C 0 km/h
2178 07-03-2011 17:00:00 10.42 C 1.93 g/m*3 10.42 C 0 km/h
2179 07-03-2011 18:00:00 2.44 C 1.96 g/m*3 2.44 C 0 km/h
2180 07-03-2011 19:00:00 0.4 C 2.18 g/m*3 0.4 C 0 km/h
2181 07-03-2011 20:00:00 -0.44 C 2.15 g/m*3 -0.44 C 0 km/h
2182 07-03-2011 21:00:00 -0.38 C 2.14 g/m*3 -0.38 C 0 km/h
2183 07-03-2011 22:00:00 -1.28 C 2.12 g/m*3 -1.28 C 0 km/h
2184 07-03-2011 23:00:00 -1.74 C 2.14 g/m*3 -1.74 C 0 km/h
2185 08-03-2011 00:00:00 -3.42 C 2.09 g/m*3 -3.42 C 0 km/h
2186 08-03-2011 01:00:00 -4.4 C 2.1 g/m*3 -4.4 C 0 km/h
2187 08-03-2011 02:00:00 -5.04 C 2.01 g/m*3 -5.04 C 0 km/h
2188 08-03-2011 03:00:00 -5.9 C 2 g/m*3 -5.9 C 0 km/h
2189 08-03-2011 04:00:00 -6.24 C 2.07 g/m*3 -6.24 C 0 km/h
2190 08-03-2011 05:00:00 -5.76 C 2.04 g/m*3 -5.76 C 0 km/h
2191 08-03-2011 06:00:00 -6.36 C 1.97 g/m*3 -6.36 C 0 km/h
2192 08-03-2011 07:00:00 -5.98 C 2.1 g/m*3 -5.98 C 0 km/h
2193 08-03-2011 08:00:00 -5.08 C 2.2 g/m*3 -5.08 C 0 km/h
2194 08-03-2011 09:00:00 -3.56 C 2.34 g/m*3 -3.56 C 0 km/h
2195 08-03-2011 10:00:00 0.34 C 2.46 g/m*3 0.34 C 0 km/h
2196 08-03-2011 11:00:00 4.5 C 2.34 g/m*3 4.5 C 0 km/h
2197 08-03-2011 12:00:00 9.08 C 2.04 g/m*3 9.08 C 0 km/h
2198 08-03-2011 13:00:00 10.82 C 2 g/m*3 10.82 C 0 km/h
2199 08-03-2011 14:00:00 12.28 C 2.34 g/m*3 12.28 C 0 km/h
2200 08-03-2011 15:00:00 13.96 C 2.5 g/m*3 13.96 C 0 km/h
Sensor: Nr:Datum:Temp:Abs-Feuchte:Windchill:Wind:
Aussen-T/F 2201 08-03-2011 16:00:00 15.04 C 2.57 g/m*3 15.04 C 0 km/h
2202 08-03-2011 17:00:00 11.96 C 3.08 g/m*3 11.96 C 0 km/h
2203 08-03-2011 18:00:00 7.16 C 3.55 g/m*3 7.16 C 0 km/h
2204 08-03-2011 19:00:00 5.48 C 3.83 g/m*3 5.48 C 0 km/h
2205 08-03-2011 20:00:00 3.3 C 4.3 g/m*3 3.3 C 0 km/h
2206 08-03-2011 21:00:00 1.9 C 4.24 g/m*3 1.9 C 0 km/h
2207 08-03-2011 22:00:00 1.36 C 4.33 g/m*3 1.36 C 0 km/h
2208 08-03-2011 23:00:00 0.78 C 4.27 g/m*3 0.78 C 0 km/h
2209 09-03-2011 00:00:00 -0.46 C 4 g/m*3 -0.46 C 0 km/h
2210 09-03-2011 01:00:00 -0.68 C 4.02 g/m*3 -0.68 C 0 km/h
2211 09-03-2011 02:00:00 0.74 C 4.53 g/m*3 0.74 C 0 km/h
2212 09-03-2011 03:00:00 2.78 C 4.98 g/m*3 2.78 C 0 km/h
2213 09-03-2011 04:00:00 3.26 C 4.47 g/m*3 3.26 C 0 km/h
2214 09-03-2011 05:00:00 2.44 C 4.37 g/m*3 2.44 C 0 km/h
2215 09-03-2011 06:00:00 2.36 C 4.45 g/m*3 2.36 C 0 km/h
2216 09-03-2011 07:00:00 3 C 4.44 g/m*3 3 C 0 km/h
2217 09-03-2011 08:00:00 3.76 C 4.43 g/m*3 3.76 C 0 km/h
2218 09-03-2011 09:00:00 7.96 C 4.24 g/m*3 7.96 C 0 km/h
2219 09-03-2011 10:00:00 9.2 C 4.14 g/m*3 9.2 C 0 km/h
2220 09-03-2011 11:00:00 10.02 C 4.53 g/m*3 10.02 C 0 km/h
2221 09-03-2011 12:00:00 9.98 C 4.62 g/m*3 9.98 C 0 km/h
2222 09-03-2011 13:00:00 11.38 C 4.47 g/m*3 11.38 C 0 km/h
2223 09-03-2011 14:00:00 11.8 C 4.04 g/m*3 11.8 C 0 km/h
2224 09-03-2011 15:00:00 11.32 C 3.72 g/m*3 11.32 C 0 km/h
2225 09-03-2011 16:00:00 10.8 C 3.8 g/m*3 10.8 C 0 km/h
Sensor: Nr:Datum:Temp:Abs-Feuchte:Windchill:Wind:
Aussen-T/F 2226 09-03-2011 17:00:00 10.12 C 4.34 g/m*3 10.12 C 0 km/h
2227 09-03-2011 18:00:00 9.28 C 4.67 g/m*3 9.28 C 0 km/h
2228 09-03-2011 19:00:00 8.76 C 4.79 g/m*3 8.76 C 0 km/h
2229 09-03-2011 20:00:00 8.08 C 4.89 g/m*3 8.08 C 0 km/h
2230 09-03-2011 21:00:00 7.66 C 4.88 g/m*3 7.66 C 0 km/h
2231 09-03-2011 22:00:00 6.64 C 5.03 g/m*3 6.64 C 0 km/h
2232 09-03-2011 23:00:00 5.4 C 5.08 g/m*3 5.4 C 0 km/h
2233 10-03-2011 00:00:00 5.56 C 4.85 g/m*3 5.56 C 0 km/h
2234 10-03-2011 01:00:00 5.28 C 4.85 g/m*3 5.28 C 0 km/h
2235 10-03-2011 02:00:00 4.42 C 4.81 g/m*3 4.42 C 0 km/h
2236 10-03-2011 03:00:00 5.16 C 4.61 g/m*3 5.16 C 0 km/h
2237 10-03-2011 04:00:00 4.62 C 4.64 g/m*3 4.62 C 0 km/h
2238 10-03-2011 05:00:00 4.94 C 4.6 g/m*3 4.94 C 0 km/h
2239 10-03-2011 06:00:00 4.6 C 4.72 g/m*3 4.6 C 0 km/h
2240 10-03-2011 07:00:00 4.66 C 4.69 g/m*3 4.66 C 0 km/h
2241 10-03-2011 08:00:00 5.88 C 4.59 g/m*3 5.88 C 0 km/h
2242 10-03-2011 09:00:00 6.94 C 4.43 g/m*3 6.94 C 0 km/h
2243 10-03-2011 10:00:00 8.06 C 4.3 g/m*3 8.06 C 0 km/h
2244 10-03-2011 11:00:00 8.92 C 4.26 g/m*3 8.92 C 0 km/h
2245 10-03-2011 12:00:00 9.68 C 4.18 g/m*3 9.68 C 0 km/h
2246 10-03-2011 13:00:00 9.9 C 3.88 g/m*3 9.9 C 0 km/h
2247 10-03-2011 14:00:00 9.22 C 4.01 g/m*3 9.22 C 0 km/h
2248 10-03-2011 15:00:00 8.52 C 4.05 g/m*3 8.52 C 0 km/h
2249 10-03-2011 16:00:00 8.3 C 4.18 g/m*3 8.3 C 0 km/h
2250 10-03-2011 17:00:00 8.18 C 4.3 g/m*3 8.18 C 0 km/h
Sensor: Nr:Datum:Temp:Abs-Feuchte:Windchill:Wind:
Aussen-T/F 2251 10-03-2011 18:00:00 8.4 C 4.41 g/m*3 8.4 C 0 km/h
2252 10-03-2011 19:00:00 8.84 C 4.45 g/m*3 8.84 C 0 km/h
2253 10-03-2011 20:00:00 8.86 C 4.54 g/m*3 8.86 C 0 km/h
2254 10-03-2011 21:00:00 8.54 C 4.79 g/m*3 8.54 C 0 km/h
2255 10-03-2011 22:00:00 8.78 C 4.83 g/m*3 8.78 C 0 km/h
2256 10-03-2011 23:00:00 8.94 C 4.81 g/m*3 8.94 C 0 km/h
2257 11-03-2011 00:00:00 8.82 C 4.92 g/m*3 8.82 C 0 km/h
2258 11-03-2011 01:00:00 8.68 C 4.98 g/m*3 8.68 C 0 km/h
2259 11-03-2011 02:00:00 8.6 C 5.05 g/m*3 8.6 C 0 km/h
2260 11-03-2011 03:00:00 8.48 C 5.15 g/m*3 8.48 C 0 km/h
2261 11-03-2011 04:00:00 8.22 C 5.3 g/m*3 8.22 C 0 km/h
2262 11-03-2011 05:00:00 8.4 C 5.21 g/m*3 8.4 C 0 km/h
2263 11-03-2011 06:00:00 8.18 C 5.24 g/m*3 8.18 C 0 km/h
2264 11-03-2011 07:00:00 8.64 C 5.1 g/m*3 8.64 C 0 km/h
2265 11-03-2011 08:00:00 8.84 C 5.11 g/m*3 8.84 C 0 km/h
2266 11-03-2011 09:00:00 9.34 C 4.96 g/m*3 9.34 C 0 km/h
2267 11-03-2011 10:00:00 10.46 C 4.8 g/m*3 10.46 C 0 km/h
2268 11-03-2011 11:00:00 10.92 C 4.52 g/m*3 10.92 C 0 km/h
2269 11-03-2011 12:00:00 11.24 C 4.15 g/m*3 11.24 C 0 km/h
2270 11-03-2011 13:00:00 11.5 C 3.88 g/m*3 11.5 C 0 km/h
2271 11-03-2011 14:00:00 11.14 C 3.92 g/m*3 11.14 C 0 km/h
2272 11-03-2011 15:00:00 11.14 C 3.86 g/m*3 11.14 C 0 km/h
2273 11-03-2011 16:00:00 11.12 C 3.77 g/m*3 11.12 C 0 km/h
2274 11-03-2011 17:00:00 10.8 C 3.64 g/m*3 10.8 C 0 km/h
2275 11-03-2011 18:00:00 9.64 C 3.78 g/m*3 9.64 C 0 km/h
Sensor: Nr:Datum:Temp:Abs-Feuchte:Windchill:Wind:
Aussen-T/F 2276 11-03-2011 19:00:00 8.2 C 4.34 g/m*3 8.2 C 0 km/h
2277 11-03-2011 20:00:00 6.82 C 4.35 g/m*3 6.82 C 0 km/h
2278 11-03-2011 21:00:00 4.88 C 4.49 g/m*3 4.88 C 0 km/h
2279 11-03-2011 22:00:00 3.5 C 4.57 g/m*3 3.5 C 0 km/h
2280 11-03-2011 23:00:00 2.24 C 4.47 g/m*3 2.24 C 0 km/h
2281 12-03-2011 00:00:00 0.92 C 4.27 g/m*3 0.92 C 0 km/h
2282 12-03-2011 01:00:00 0.22 C 4.16 g/m*3 0.22 C 0 km/h
2283 12-03-2011 02:00:00 -0.32 C 4.09 g/m*3 -0.32 C 0 km/h
2284 12-03-2011 03:00:00 -0.74 C 4.01 g/m*3 -0.74 C 0 km/h
2285 12-03-2011 04:00:00 -1.24 C 3.9 g/m*3 -1.24 C 0 km/h
2286 12-03-2011 05:00:00 -1.62 C 3.81 g/m*3 -1.62 C 0 km/h
2287 12-03-2011 06:00:00 -1.96 C 3.73 g/m*3 -1.96 C 0 km/h
2288 12-03-2011 07:00:00 -2 C 3.75 g/m*3 -2 C 0 km/h
2289 12-03-2011 08:00:00 -0.32 C 4.26 g/m*3 -0.32 C 0 km/h
2290 12-03-2011 09:00:00 1.76 C 4.83 g/m*3 1.76 C 0 km/h
2291 12-03-2011 10:00:00 5.72 C 5.3 g/m*3 5.72 C 0 km/h
2292 12-03-2011 11:00:00 10.74 C 4.88 g/m*3 10.74 C 0 km/h
2293 12-03-2011 12:00:00 14.6 C 4.45 g/m*3 14.6 C 0 km/h
2294 12-03-2011 13:00:00 16.16 C 4.46 g/m*3 16.16 C 0 km/h
2295 12-03-2011 14:00:00 16.58 C 4.32 g/m*3 16.58 C 0 km/h
2296 12-03-2011 15:00:00 16.3 C 4.38 g/m*3 16.3 C 0 km/h
2297 12-03-2011 16:00:00 18.02 C 4.37 g/m*3 18.02 C 0 km/h
2298 12-03-2011 17:00:00 14.98 C 4.87 g/m*3 14.98 C 0 km/h
2299 12-03-2011 18:00:00 10.98 C 5.2 g/m*3 10.98 C 0 km/h
2300 12-03-2011 19:00:00 10.88 C 4.63 g/m*3 10.88 C 0 km/h
Sensor: Nr:Datum:Temp:Abs-Feuchte:Windchill:Wind:
Aussen-T/F 2301 12-03-2011 20:00:00 11.34 C 4.29 g/m*3 11.34 C 0 km/h
2302 12-03-2011 21:00:00 12.22 C 4.3 g/m*3 12.22 C 0 km/h
2303 12-03-2011 22:00:00 12.1 C 4.55 g/m*3 12.1 C 0 km/h
2304 12-03-2011 23:00:00 11.14 C 4.79 g/m*3 11.14 C 0 km/h
2305 13-03-2011 00:00:00 10.1 C 5.48 g/m*3 10.1 C 0 km/h
2306 13-03-2011 01:00:00 10.22 C 5.62 g/m*3 10.22 C 0 km/h
2307 13-03-2011 02:00:00 10.6 C 5.8 g/m*3 10.6 C 0 km/h
2308 13-03-2011 03:00:00 9.98 C 5.86 g/m*3 9.98 C 0 km/h
2309 13-03-2011 04:00:00 9.06 C 6.21 g/m*3 9.06 C 0 km/h
2310 13-03-2011 05:00:00 7.9 C 6.9 g/m*3 7.9 C 0 km/h
2311 13-03-2011 06:00:00 7.7 C 6.96 g/m*3 7.7 C 0 km/h
2312 13-03-2011 07:00:00 7.82 C 6.9 g/m*3 7.82 C 0 km/h
2313 13-03-2011 08:00:00 8.72 C 6.89 g/m*3 8.72 C 0 km/h
2314 13-03-2011 09:00:00 10.86 C 6.55 g/m*3 10.86 C 0 km/h
2315 13-03-2011 10:00:00 12.64 C 6.1 g/m*3 12.64 C 0 km/h
2316 13-03-2011 11:00:00 14.34 C 5.76 g/m*3 14.34 C 0 km/h
2317 13-03-2011 12:00:00 14.74 C 5.53 g/m*3 14.74 C 0 km/h
2318 13-03-2011 13:00:00 14.7 C 5.34 g/m*3 14.7 C 0 km/h
2319 13-03-2011 14:00:00 15.12 C 5.4 g/m*3 15.12 C 0 km/h
2320 13-03-2011 15:00:00 15.36 C 5.32 g/m*3 15.36 C 0 km/h
2321 13-03-2011 16:00:00 14.5 C 5.47 g/m*3 14.5 C 0 km/h
2322 13-03-2011 17:00:00 12.9 C 6.04 g/m*3 12.9 C 0 km/h
2323 13-03-2011 18:00:00 11.52 C 6.33 g/m*3 11.52 C 0 km/h
2324 13-03-2011 19:00:00 10.76 C 6.65 g/m*3 10.76 C 0 km/h
2325 13-03-2011 20:00:00 9.62 C 7.69 g/m*3 9.62 C 0 km/h
Sensor: Nr:Datum:Temp:Abs-Feuchte:Windchill:Wind:
Aussen-T/F 2326 13-03-2011 21:00:00 9.22 C 7.74 g/m*3 9.22 C 0 km/h
2327 13-03-2011 22:00:00 8.86 C 7.72 g/m*3 8.86 C 0 km/h
2328 13-03-2011 23:00:00 8.66 C 7.68 g/m*3 8.66 C 0 km/h
2329 14-03-2011 00:00:00 8.6 C 7.66 g/m*3 8.6 C 0 km/h
2330 14-03-2011 01:00:00 8.56 C 7.71 g/m*3 8.56 C 0 km/h
2331 14-03-2011 02:00:00 8.48 C 7.67 g/m*3 8.48 C 0 km/h
2332 14-03-2011 03:00:00 8.22 C 7.55 g/m*3 8.22 C 0 km/h
2333 14-03-2011 04:00:00 8.34 C 7.61 g/m*3 8.34 C 0 km/h
2334 14-03-2011 05:00:00 8.34 C 7.67 g/m*3 8.34 C 0 km/h
2335 14-03-2011 06:00:00 7.8 C 7.43 g/m*3 7.8 C 0 km/h
2336 14-03-2011 07:00:00 8.04 C 7.59 g/m*3 8.04 C 0 km/h
2337 14-03-2011 08:00:00 8.6 C 7.82 g/m*3 8.6 C 0 km/h
2338 14-03-2011 09:00:00 9.34 C 8.14 g/m*3 9.34 C 0 km/h
2339 14-03-2011 10:00:00 11.32 C 7.97 g/m*3 11.32 C 0 km/h
2340 14-03-2011 11:00:00 12.72 C 7.27 g/m*3 12.72 C 0 km/h
2341 14-03-2011 12:00:00 13.12 C 7.04 g/m*3 13.12 C 0 km/h
2342 14-03-2011 13:00:00 14.26 C 6.74 g/m*3 14.26 C 0 km/h
2343 14-03-2011 14:00:00 14 C 6.59 g/m*3 14 C 0 km/h
2344 14-03-2011 15:00:00 13.68 C 6.5 g/m*3 13.68 C 0 km/h
2345 14-03-2011 16:00:00 15.14 C 6.05 g/m*3 15.14 C 0 km/h
2346 14-03-2011 17:00:00 13.08 C 6.38 g/m*3 13.08 C 0 km/h
2347 14-03-2011 18:00:00 11.2 C 6.95 g/m*3 11.2 C 0 km/h
2348 14-03-2011 19:00:00 10.04 C 7.03 g/m*3 10.04 C 0 km/h
2349 14-03-2011 20:00:00 8.4 C 6.94 g/m*3 8.4 C 0 km/h
2350 14-03-2011 21:00:00 7.98 C 6.92 g/m*3 7.98 C 0 km/h
Sensor: Nr:Datum:Temp:Abs-Feuchte:Windchill:Wind:
Aussen-T/F 2351 14-03-2011 22:00:00 7.26 C 6.86 g/m*3 7.26 C 0 km/h
2352 14-03-2011 23:00:00 5.86 C 6.37 g/m*3 5.86 C 0 km/h
2353 15-03-2011 00:00:00 5.2 C 6.17 g/m*3 5.2 C 0 km/h
2354 15-03-2011 01:00:00 4.88 C 6.13 g/m*3 4.88 C 0 km/h
2355 15-03-2011 02:00:00 5.96 C 6.59 g/m*3 5.96 C 0 km/h
2356 15-03-2011 03:00:00 5.7 C 6.55 g/m*3 5.7 C 0 km/h
2357 15-03-2011 04:00:00 5.78 C 6.57 g/m*3 5.78 C 0 km/h
2358 15-03-2011 05:00:00 5.3 C 6.38 g/m*3 5.3 C 0 km/h
2359 15-03-2011 06:00:00 4.58 C 6.08 g/m*3 4.58 C 0 km/h
2360 15-03-2011 07:00:00 5 C 6.25 g/m*3 5 C 0 km/h
2361 15-03-2011 08:00:00 5.34 C 6.39 g/m*3 5.34 C 0 km/h
2362 15-03-2011 09:00:00 6.6 C 6.9 g/m*3 6.6 C 0 km/h
2363 15-03-2011 10:00:00 9.5 C 7.97 g/m*3 9.5 C 0 km/h
2364 15-03-2011 11:00:00 13.04 C 7.34 g/m*3 13.04 C 0 km/h
2365 15-03-2011 12:00:00 17.82 C 5.99 g/m*3 17.82 C 0 km/h
2366 15-03-2011 13:00:00 19.16 C 5.72 g/m*3 19.16 C 0 km/h
2367 15-03-2011 14:00:00 18.9 C 5.48 g/m*3 18.9 C 0 km/h
2368 15-03-2011 15:00:00 21.06 C 5.18 g/m*3 21.06 C 0 km/h
2369 15-03-2011 16:00:00 20.7 C 4.93 g/m*3 20.7 C 0 km/h
2370 15-03-2011 17:00:00 18.1 C 5.47 g/m*3 18.1 C 0 km/h
2371 15-03-2011 18:00:00 13.78 C 6.16 g/m*3 13.78 C 0 km/h
2372 15-03-2011 19:00:00 12.1 C 6.39 g/m*3 12.1 C 0 km/h
2373 15-03-2011 20:00:00 11.02 C 6.47 g/m*3 11.02 C 0 km/h
2374 15-03-2011 21:00:00 9.78 C 6.58 g/m*3 9.78 C 0 km/h
2375 15-03-2011 22:00:00 9.24 C 6.46 g/m*3 9.24 C 0 km/h
Sensor: Nr:Datum:Temp:Abs-Feuchte:Windchill:Wind:
Aussen-T/F 2376 15-03-2011 23:00:00 9.2 C 6.16 g/m*3 9.2 C 0 km/h
2377 16-03-2011 00:00:00 8.6 C 6.14 g/m*3 8.6 C 0 km/h
2378 16-03-2011 01:00:00 6.88 C 6.09 g/m*3 6.88 C 0 km/h
2379 16-03-2011 02:00:00 6.64 C 6.27 g/m*3 6.64 C 0 km/h
2380 16-03-2011 03:00:00 6.86 C 6.17 g/m*3 6.86 C 0 km/h
2381 16-03-2011 04:00:00 7.2 C 6 g/m*3 7.2 C 0 km/h
2382 16-03-2011 05:00:00 7.04 C 5.86 g/m*3 7.04 C 0 km/h
2383 16-03-2011 06:00:00 7.14 C 5.96 g/m*3 7.14 C 0 km/h
2384 16-03-2011 07:00:00 7.78 C 5.98 g/m*3 7.78 C 0 km/h
2385 16-03-2011 08:00:00 9.1 C 5.87 g/m*3 9.1 C 0 km/h
2386 16-03-2011 09:00:00 9.88 C 5.74 g/m*3 9.88 C 0 km/h
2387 16-03-2011 10:00:00 10.28 C 5.62 g/m*3 10.28 C 0 km/h
2388 16-03-2011 11:00:00 11.34 C 5.5 g/m*3 11.34 C 0 km/h
2389 16-03-2011 12:00:00 11.2 C 5.45 g/m*3 11.2 C 0 km/h
2390 16-03-2011 13:00:00 11.58 C 5.48 g/m*3 11.58 C 0 km/h
2391 16-03-2011 14:00:00 11.58 C 5.48 g/m*3 11.58 C 0 km/h
2392 16-03-2011 15:00:00 10.76 C 5.5 g/m*3 10.76 C 0 km/h
2393 16-03-2011 16:00:00 10.06 C 5.41 g/m*3 10.06 C 0 km/h
2394 16-03-2011 17:00:00 9.52 C 5.47 g/m*3 9.52 C 0 km/h
2395 16-03-2011 18:00:00 8.68 C 5.44 g/m*3 8.68 C 0 km/h
2396 16-03-2011 19:00:00 8.16 C 5.4 g/m*3 8.16 C 0 km/h
2397 16-03-2011 20:00:00 7.9 C 5.4 g/m*3 7.9 C 0 km/h
2398 16-03-2011 21:00:00 7.4 C 5.34 g/m*3 7.4 C 0 km/h
2399 16-03-2011 22:00:00 7.12 C 5.36 g/m*3 7.12 C 0 km/h
2400 16-03-2011 23:00:00 6.96 C 5.46 g/m*3 6.96 C 0 km/h
Sensor: Nr:Datum:Temp:Abs-Feuchte:Windchill:Wind:
Aussen-T/F 2401 17-03-2011 00:00:00 6.84 C 5.52 g/m*3 6.84 C 0 km/h
2402 17-03-2011 01:00:00 6.8 C 5.52 g/m*3 6.8 C 0 km/h
2403 17-03-2011 02:00:00 6.78 C 5.59 g/m*3 6.78 C 0 km/h
2404 17-03-2011 03:00:00 6.76 C 5.64 g/m*3 6.76 C 0 km/h
2405 17-03-2011 04:00:00 6.78 C 5.65 g/m*3 6.78 C 0 km/h
2406 17-03-2011 05:00:00 6.76 C 5.69 g/m*3 6.76 C 0 km/h
2407 17-03-2011 06:00:00 6.78 C 5.7 g/m*3 6.78 C 0 km/h
2408 17-03-2011 07:00:00 6.44 C 5.78 g/m*3 6.44 C 0 km/h
2409 17-03-2011 08:00:00 6.32 C 5.65 g/m*3 6.32 C 0 km/h
2410 17-03-2011 09:00:00 5.94 C 5.71 g/m*3 5.94 C 0 km/h
2411 17-03-2011 10:00:00 5.84 C 5.99 g/m*3 5.84 C 0 km/h
2412 17-03-2011 11:00:00 5.98 C 5.96 g/m*3 5.98 C 0 km/h
2413 17-03-2011 12:00:00 6.12 C 5.98 g/m*3 6.12 C 0 km/h
2414 17-03-2011 13:00:00 6.1 C 6.01 g/m*3 6.1 C 0 km/h
2415 17-03-2011 14:00:00 5.94 C 6.04 g/m*3 5.94 C 0 km/h
2416 17-03-2011 15:00:00 5.92 C 6.09 g/m*3 5.92 C 0 km/h
2417 17-03-2011 16:00:00 6 C 6.01 g/m*3 6 C 0 km/h
2418 17-03-2011 17:00:00 5.94 C 6.03 g/m*3 5.94 C 0 km/h
2419 17-03-2011 18:00:00 5.98 C 6.1 g/m*3 5.98 C 0 km/h
2420 17-03-2011 19:00:00 6.22 C 6.11 g/m*3 6.22 C 0 km/h
2421 17-03-2011 20:00:00 6.32 C 6.12 g/m*3 6.32 C 0 km/h
2422 17-03-2011 21:00:00 6.32 C 6.06 g/m*3 6.32 C 0 km/h
2423 17-03-2011 22:00:00 6.22 C 5.94 g/m*3 6.22 C 0 km/h
2424 17-03-2011 23:00:00 5.98 C 5.83 g/m*3 5.98 C 0 km/h
2425 18-03-2011 00:00:00 5.98 C 5.62 g/m*3 5.98 C 0 km/h
Sensor: Nr:Datum:Temp:Abs-Feuchte:Windchill:Wind:
Aussen-T/F 2426 18-03-2011 01:00:00 5.7 C 5.62 g/m*3 5.7 C 0 km/h
2427 18-03-2011 02:00:00 5.44 C 5.71 g/m*3 5.44 C 0 km/h
2428 18-03-2011 03:00:00 5.12 C 5.79 g/m*3 5.12 C 0 km/h
2429 18-03-2011 04:00:00 5.16 C 5.69 g/m*3 5.16 C 0 km/h
2430 18-03-2011 05:00:00 5.04 C 5.64 g/m*3 5.04 C 0 km/h
2431 18-03-2011 06:00:00 4.84 C 5.54 g/m*3 4.84 C 0 km/h
2432 18-03-2011 07:00:00 4.82 C 5.36 g/m*3 4.82 C 0 km/h
2433 18-03-2011 08:00:00 5.2 C 5.04 g/m*3 5.2 C 0 km/h
2434 18-03-2011 09:00:00 5.72 C 4.79 g/m*3 5.72 C 0 km/h
2435 18-03-2011 10:00:00 6.3 C 4.53 g/m*3 6.3 C 0 km/h
2436 18-03-2011 11:00:00 6.78 C 4.75 g/m*3 6.78 C 0 km/h
2437 18-03-2011 12:00:00 7.5 C 4.67 g/m*3 7.5 C 0 km/h
2438 18-03-2011 13:00:00 8.76 C 4.58 g/m*3 8.76 C 0 km/h
2439 18-03-2011 14:00:00 8.78 C 4.52 g/m*3 8.78 C 0 km/h
2440 18-03-2011 15:00:00 8.9 C 4.49 g/m*3 8.9 C 0 km/h
2441 18-03-2011 16:00:00 8.74 C 4.49 g/m*3 8.74 C 0 km/h
2442 18-03-2011 17:00:00 7.94 C 4.83 g/m*3 7.94 C 0 km/h
2443 18-03-2011 18:00:00 7.34 C 5.1 g/m*3 7.34 C 0 km/h
2444 18-03-2011 19:00:00 6.86 C 5.22 g/m*3 6.86 C 0 km/h
2445 18-03-2011 20:00:00 6.4 C 5.31 g/m*3 6.4 C 0 km/h
2446 18-03-2011 21:00:00 6.2 C 5.34 g/m*3 6.2 C 0 km/h
2447 18-03-2011 22:00:00 5.44 C 5.76 g/m*3 5.44 C 0 km/h
2448 18-03-2011 23:00:00 5.08 C 5.97 g/m*3 5.08 C 0 km/h
2449 19-03-2011 00:00:00 4.72 C 5.98 g/m*3 4.72 C 0 km/h
2450 19-03-2011 01:00:00 4.52 C 5.95 g/m*3 4.52 C 0 km/h
Sensor: Nr:Datum:Temp:Abs-Feuchte:Windchill:Wind:
Aussen-T/F 2451 19-03-2011 02:00:00 4.38 C 5.93 g/m*3 4.38 C 0 km/h
2452 19-03-2011 03:00:00 4.48 C 5.97 g/m*3 4.48 C 0 km/h
2453 19-03-2011 04:00:00 4.68 C 6.11 g/m*3 4.68 C 0 km/h
2454 19-03-2011 05:00:00 4.68 C 6.12 g/m*3 4.68 C 0 km/h
2455 19-03-2011 06:00:00 4.54 C 6.06 g/m*3 4.54 C 0 km/h
2456 19-03-2011 07:00:00 4.38 C 6 g/m*3 4.38 C 0 km/h
2457 19-03-2011 08:00:00 4.74 C 6.05 g/m*3 4.74 C 0 km/h
2458 19-03-2011 09:00:00 5.78 C 5.74 g/m*3 5.78 C 0 km/h
2459 19-03-2011 10:00:00 6.8 C 5.29 g/m*3 6.8 C 0 km/h
2460 19-03-2011 11:00:00 7.36 C 4.95 g/m*3 7.36 C 0 km/h
2461 19-03-2011 12:00:00 11.32 C 3.55 g/m*3 11.32 C 0 km/h
2462 19-03-2011 13:00:00 12.08 C 2.93 g/m*3 12.08 C 0 km/h
2463 19-03-2011 14:00:00 12.6 C 2.61 g/m*3 12.6 C 0 km/h
2464 19-03-2011 15:00:00 16 C 2.72 g/m*3 16 C 0 km/h
2465 19-03-2011 16:00:00 17.46 C 2.97 g/m*3 17.46 C 0 km/h
2466 19-03-2011 17:00:00 15.38 C 2.62 g/m*3 15.38 C 0 km/h
2467 19-03-2011 18:00:00 8.5 C 3.33 g/m*3 8.5 C 0 km/h
2468 19-03-2011 19:00:00 3.86 C 3.46 g/m*3 3.86 C 0 km/h
2469 19-03-2011 20:00:00 2.58 C 3.68 g/m*3 2.58 C 0 km/h
2470 19-03-2011 21:00:00 0.88 C 3.68 g/m*3 0.88 C 0 km/h
2471 19-03-2011 22:00:00 -0.76 C 3.58 g/m*3 -0.76 C 0 km/h
2472 19-03-2011 23:00:00 -1.84 C 3.38 g/m*3 -1.84 C 0 km/h
2473 20-03-2011 00:00:00 -2.44 C 3.35 g/m*3 -2.44 C 0 km/h
2474 20-03-2011 01:00:00 -2.86 C 3.32 g/m*3 -2.86 C 0 km/h
2475 20-03-2011 02:00:00 -3.3 C 3.27 g/m*3 -3.3 C 0 km/h
Sensor: Nr:Datum:Temp:Abs-Feuchte:Windchill:Wind:
Aussen-T/F 2476 20-03-2011 03:00:00 -3.62 C 3.23 g/m*3 -3.62 C 0 km/h
2477 20-03-2011 04:00:00 -3.86 C 3.19 g/m*3 -3.86 C 0 km/h
2478 20-03-2011 05:00:00 -3.78 C 3.25 g/m*3 -3.78 C 0 km/h
2479 20-03-2011 06:00:00 -3.72 C 3.3 g/m*3 -3.72 C 0 km/h
2480 20-03-2011 07:00:00 -3.76 C 3.3 g/m*3 -3.76 C 0 km/h
2481 20-03-2011 08:00:00 -2.52 C 3.63 g/m*3 -2.52 C 0 km/h
2482 20-03-2011 09:00:00 -0.6 C 4.13 g/m*3 -0.6 C 0 km/h
2483 20-03-2011 10:00:00 2.66 C 4.37 g/m*3 2.66 C 0 km/h
2484 20-03-2011 11:00:00 5.52 C 3.8 g/m*3 5.52 C 0 km/h
2485 20-03-2011 12:00:00 11.74 C 2.66 g/m*3 11.74 C 0 km/h
2486 20-03-2011 13:00:00 12.58 C 2.21 g/m*3 12.58 C 0 km/h
2487 20-03-2011 14:00:00 13.02 C 2.27 g/m*3 13.02 C 0 km/h
2488 20-03-2011 15:00:00 17.44 C 2.97 g/m*3 17.44 C 0 km/h
2489 20-03-2011 16:00:00 18.98 C 3.26 g/m*3 18.98 C 0 km/h
2490 20-03-2011 17:00:00 15.94 C 2.72 g/m*3 15.94 C 0 km/h
2491 20-03-2011 18:00:00 7.92 C 3.54 g/m*3 7.92 C 0 km/h
2492 20-03-2011 19:00:00 4.36 C 3.65 g/m*3 4.36 C 0 km/h
2493 20-03-2011 20:00:00 2.64 C 3.49 g/m*3 2.64 C 0 km/h
2494 20-03-2011 21:00:00 0.76 C 3.35 g/m*3 0.76 C 0 km/h
2495 20-03-2011 22:00:00 -0.44 C 3.25 g/m*3 -0.44 C 0 km/h
2496 20-03-2011 23:00:00 -1.26 C 3.18 g/m*3 -1.26 C 0 km/h
2497 21-03-2011 00:00:00 -1.64 C 3.21 g/m*3 -1.64 C 0 km/h
2498 21-03-2011 01:00:00 -2.5 C 3.15 g/m*3 -2.5 C 0 km/h
2499 21-03-2011 02:00:00 -2.62 C 3.28 g/m*3 -2.62 C 0 km/h
2500 21-03-2011 03:00:00 -3.08 C 3.25 g/m*3 -3.08 C 0 km/h
Sensor: Nr:Datum:Temp:Abs-Feuchte:Windchill:Wind:
Aussen-T/F 2501 21-03-2011 04:00:00 -3.5 C 3.2 g/m*3 -3.5 C 0 km/h
2502 21-03-2011 05:00:00 -3.86 C 3.15 g/m*3 -3.86 C 0 km/h
2503 21-03-2011 06:00:00 -3.94 C 3.16 g/m*3 -3.94 C 0 km/h
2504 21-03-2011 07:00:00 -3.22 C 3.36 g/m*3 -3.22 C 0 km/h
2505 21-03-2011 08:00:00 -2.12 C 3.63 g/m*3 -2.12 C 0 km/h
2506 21-03-2011 09:00:00 -0.64 C 3.87 g/m*3 -0.64 C 0 km/h
2507 21-03-2011 10:00:00 2.56 C 4.22 g/m*3 2.56 C 0 km/h
2508 21-03-2011 11:00:00 7.38 C 3.72 g/m*3 7.38 C 0 km/h
2509 21-03-2011 12:00:00 13.6 C 3.18 g/m*3 13.6 C 0 km/h
2510 21-03-2011 13:00:00 14.34 C 2.46 g/m*3 14.34 C 0 km/h
2511 21-03-2011 14:00:00 16.04 C 2.73 g/m*3 16.04 C 0 km/h
2512 21-03-2011 15:00:00 19.7 C 3.4 g/m*3 19.7 C 0 km/h
2513 21-03-2011 16:00:00 19.98 C 3.45 g/m*3 19.98 C 0 km/h
2514 21-03-2011 17:00:00 17.66 C 3.07 g/m*3 17.66 C 0 km/h
2515 21-03-2011 18:00:00 10.58 C 3.65 g/m*3 10.58 C 0 km/h
2516 21-03-2011 19:00:00 6.66 C 3.97 g/m*3 6.66 C 0 km/h
2517 21-03-2011 20:00:00 5.06 C 4.09 g/m*3 5.06 C 0 km/h
2518 21-03-2011 21:00:00 3.14 C 4.05 g/m*3 3.14 C 0 km/h
2519 21-03-2011 22:00:00 1.74 C 3.94 g/m*3 1.74 C 0 km/h
2520 21-03-2011 23:00:00 0.6 C 3.89 g/m*3 0.6 C 0 km/h
2521 22-03-2011 00:00:00 -0.16 C 3.78 g/m*3 -0.16 C 0 km/h
2522 22-03-2011 01:00:00 -0.86 C 3.75 g/m*3 -0.86 C 0 km/h
2523 22-03-2011 02:00:00 -1.36 C 3.72 g/m*3 -1.36 C 0 km/h
2524 22-03-2011 03:00:00 -1.86 C 3.62 g/m*3 -1.86 C 0 km/h
2525 22-03-2011 04:00:00 -2.24 C 3.55 g/m*3 -2.24 C 0 km/h
Sensor: Nr:Datum:Temp:Abs-Feuchte:Windchill:Wind:
Aussen-T/F 2526 22-03-2011 05:00:00 -2.56 C 3.53 g/m*3 -2.56 C 0 km/h
2527 22-03-2011 06:00:00 -2.22 C 3.67 g/m*3 -2.22 C 0 km/h
2528 22-03-2011 07:00:00 -2.12 C 3.72 g/m*3 -2.12 C 0 km/h
2529 22-03-2011 08:00:00 -0.94 C 4.08 g/m*3 -0.94 C 0 km/h
2530 22-03-2011 09:00:00 0.8 C 4.59 g/m*3 0.8 C 0 km/h
2531 22-03-2011 10:00:00 4.84 C 4.81 g/m*3 4.84 C 0 km/h
2532 22-03-2011 11:00:00 8.82 C 4.18 g/m*3 8.82 C 0 km/h
2533 22-03-2011 12:00:00 15.66 C 3.52 g/m*3 15.66 C 0 km/h
2534 22-03-2011 13:00:00 16.9 C 2.88 g/m*3 16.9 C 0 km/h
2535 22-03-2011 14:00:00 18.88 C 3.24 g/m*3 18.88 C 0 km/h
2536 22-03-2011 15:00:00 22.26 C 3.94 g/m*3 22.26 C 0 km/h
2537 22-03-2011 16:00:00 21.74 C 3.82 g/m*3 21.74 C 0 km/h
2538 22-03-2011 17:00:00 19.04 C 3.27 g/m*3 19.04 C 0 km/h
2539 22-03-2011 18:00:00 13.28 C 3.21 g/m*3 13.28 C 0 km/h
2540 22-03-2011 19:00:00 9.68 C 3.89 g/m*3 9.68 C 0 km/h
2541 22-03-2011 20:00:00 9.14 C 4.11 g/m*3 9.14 C 0 km/h
2542 22-03-2011 21:00:00 7.5 C 4.63 g/m*3 7.5 C 0 km/h
2543 22-03-2011 22:00:00 5.88 C 4.82 g/m*3 5.88 C 0 km/h
2544 22-03-2011 23:00:00 3.9 C 4.8 g/m*3 3.9 C 0 km/h
2545 23-03-2011 00:00:00 2.68 C 4.67 g/m*3 2.68 C 0 km/h
2546 23-03-2011 01:00:00 2.22 C 4.72 g/m*3 2.22 C 0 km/h
2547 23-03-2011 02:00:00 1.7 C 4.69 g/m*3 1.7 C 0 km/h
2548 23-03-2011 03:00:00 0.58 C 4.39 g/m*3 0.58 C 0 km/h
2549 23-03-2011 04:00:00 0.3 C 4.38 g/m*3 0.3 C 0 km/h
2550 23-03-2011 05:00:00 0.06 C 4.37 g/m*3 0.06 C 0 km/h
Sensor: Nr:Datum:Temp:Abs-Feuchte:Windchill:Wind:
Aussen-T/F 2551 23-03-2011 06:00:00 -0.1 C 4.37 g/m*3 -0.1 C 0 km/h
2552 23-03-2011 07:00:00 0.54 C 4.61 g/m*3 0.54 C 0 km/h
2553 23-03-2011 08:00:00 2.04 C 5.04 g/m*3 2.04 C 0 km/h
2554 23-03-2011 09:00:00 4.54 C 5.6 g/m*3 4.54 C 0 km/h
2555 23-03-2011 10:00:00 8.02 C 5.53 g/m*3 8.02 C 0 km/h
2556 23-03-2011 11:00:00 11.9 C 5.4 g/m*3 11.9 C 0 km/h
2557 23-03-2011 12:00:00 16.98 C 4.97 g/m*3 16.98 C 0 km/h
2558 23-03-2011 13:00:00 17.72 C 4.44 g/m*3 17.72 C 0 km/h
2559 23-03-2011 14:00:00 20.16 C 4.29 g/m*3 20.16 C 0 km/h
2560 23-03-2011 15:00:00 22.58 C 4.05 g/m*3 22.58 C 0 km/h
2561 23-03-2011 16:00:00 22.24 C 4.29 g/m*3 22.24 C 0 km/h
2562 23-03-2011 17:00:00 19.14 C 4.86 g/m*3 19.14 C 0 km/h
2563 23-03-2011 18:00:00 13.36 C 5.68 g/m*3 13.36 C 0 km/h
2564 23-03-2011 19:00:00 10.72 C 5.92 g/m*3 10.72 C 0 km/h
2565 23-03-2011 20:00:00 9.6 C 5.99 g/m*3 9.6 C 0 km/h
2566 23-03-2011 21:00:00 8.08 C 6 g/m*3 8.08 C 0 km/h
2567 23-03-2011 22:00:00 6.22 C 5.86 g/m*3 6.22 C 0 km/h
2568 23-03-2011 23:00:00 4.96 C 5.72 g/m*3 4.96 C 0 km/h
2569 24-03-2011 00:00:00 4.26 C 5.54 g/m*3 4.26 C 0 km/h
2570 24-03-2011 01:00:00 3.4 C 5.35 g/m*3 3.4 C 0 km/h
2571 24-03-2011 02:00:00 2.94 C 5.23 g/m*3 2.94 C 0 km/h
2572 24-03-2011 03:00:00 2.56 C 5.18 g/m*3 2.56 C 0 km/h
2573 24-03-2011 04:00:00 2.26 C 5.1 g/m*3 2.26 C 0 km/h
2574 24-03-2011 05:00:00 1.84 C 4.99 g/m*3 1.84 C 0 km/h
2575 24-03-2011 06:00:00 1.4 C 4.91 g/m*3 1.4 C 0 km/h
Sensor: Nr:Datum:Temp:Abs-Feuchte:Windchill:Wind:
Aussen-T/F 2576 24-03-2011 07:00:00 1.56 C 4.96 g/m*3 1.56 C 0 km/h
2577 24-03-2011 08:00:00 2.8 C 5.4 g/m*3 2.8 C 0 km/h
2578 24-03-2011 09:00:00 4.98 C 6.18 g/m*3 4.98 C 0 km/h
2579 24-03-2011 10:00:00 8.06 C 6.67 g/m*3 8.06 C 0 km/h
2580 24-03-2011 11:00:00 12.1 C 5.1 g/m*3 12.1 C 0 km/h
2581 24-03-2011 12:00:00 17.36 C 3.99 g/m*3 17.36 C 0 km/h
2582 24-03-2011 13:00:00 18.78 C 3.31 g/m*3 18.78 C 0 km/h
2583 24-03-2011 14:00:00 21.26 C 3.72 g/m*3 21.26 C 0 km/h
2584 24-03-2011 15:00:00 24.54 C 4.49 g/m*3 24.54 C 0 km/h
2585 24-03-2011 16:00:00 22.62 C 4.02 g/m*3 22.62 C 0 km/h
2586 24-03-2011 17:00:00 20.12 C 3.65 g/m*3 20.12 C 0 km/h
2587 24-03-2011 18:00:00 13.84 C 3.65 g/m*3 13.84 C 0 km/h
2588 24-03-2011 19:00:00 9.84 C 4.15 g/m*3 9.84 C 0 km/h
2589 24-03-2011 20:00:00 8 C 4.43 g/m*3 8 C 0 km/h
2590 24-03-2011 21:00:00 6.08 C 4.01 g/m*3 6.08 C 0 km/h
2591 24-03-2011 22:00:00 4.72 C 4 g/m*3 4.72 C 0 km/h
2592 24-03-2011 23:00:00 4.14 C 3.95 g/m*3 4.14 C 0 km/h
2593 25-03-2011 00:00:00 3.32 C 3.99 g/m*3 3.32 C 0 km/h
2594 25-03-2011 01:00:00 1.92 C 3.98 g/m*3 1.92 C 0 km/h
2595 25-03-2011 02:00:00 2.02 C 4.12 g/m*3 2.02 C 0 km/h
2596 25-03-2011 03:00:00 1.04 C 4.07 g/m*3 1.04 C 0 km/h
2597 25-03-2011 04:00:00 0.7 C 4.12 g/m*3 0.7 C 0 km/h
2598 25-03-2011 05:00:00 0.08 C 4.04 g/m*3 0.08 C 0 km/h
2599 25-03-2011 06:00:00 0.12 C 4.17 g/m*3 0.12 C 0 km/h
2600 25-03-2011 07:00:00 1 C 4.42 g/m*3 1 C 0 km/h
Sensor: Nr:Datum:Temp:Abs-Feuchte:Windchill:Wind:
Aussen-T/F 2601 25-03-2011 08:00:00 3.58 C 4.62 g/m*3 3.58 C 0 km/h
2602 25-03-2011 09:00:00 6.64 C 4.36 g/m*3 6.64 C 0 km/h
2603 25-03-2011 10:00:00 10.02 C 4.18 g/m*3 10.02 C 0 km/h
2604 25-03-2011 11:00:00 13.34 C 4.22 g/m*3 13.34 C 0 km/h
2605 25-03-2011 12:00:00 18.02 C 3.91 g/m*3 18.02 C 0 km/h
2606 25-03-2011 13:00:00 20.04 C 4.16 g/m*3 20.04 C 0 km/h
2607 25-03-2011 14:00:00 22.9 C 4.37 g/m*3 22.9 C 0 km/h
2608 25-03-2011 15:00:00 24.52 C 4.48 g/m*3 24.52 C 0 km/h
2609 25-03-2011 16:00:00 22.02 C 4.27 g/m*3 22.02 C 0 km/h
2610 25-03-2011 17:00:00 18.94 C 4.9 g/m*3 18.94 C 0 km/h
2611 25-03-2011 18:00:00 14.78 C 5.36 g/m*3 14.78 C 0 km/h
2612 25-03-2011 19:00:00 11.5 C 5.6 g/m*3 11.5 C 0 km/h
2613 25-03-2011 20:00:00 10.06 C 5.85 g/m*3 10.06 C 0 km/h
2614 25-03-2011 21:00:00 9.08 C 5.72 g/m*3 9.08 C 0 km/h
2615 25-03-2011 22:00:00 8.55 C 5.78 g/m*3 8.55 C 0 km/h
2616 25-03-2011 23:00:00 7.38 C 5.75 g/m*3 7.38 C 0 km/h
2617 26-03-2011 00:00:00 5.56 C 5.58 g/m*3 5.56 C 0 km/h
2618 26-03-2011 01:00:00 5.24 C 5.8 g/m*3 5.24 C 0 km/h
2619 26-03-2011 02:00:00 4.62 C 5.59 g/m*3 4.62 C 0 km/h
2620 26-03-2011 03:00:00 3.94 C 5.52 g/m*3 3.94 C 0 km/h
2621 26-03-2011 04:00:00 4.44 C 5.75 g/m*3 4.44 C 0 km/h
2622 26-03-2011 05:00:00 4.86 C 5.6 g/m*3 4.86 C 0 km/h
2623 26-03-2011 06:00:00 4.86 C 5.51 g/m*3 4.86 C 0 km/h
2624 26-03-2011 07:00:00 5.64 C 5.54 g/m*3 5.64 C 0 km/h
2625 26-03-2011 08:00:00 6.32 C 5.66 g/m*3 6.32 C 0 km/h
Sensor: Nr:Datum:Temp:Abs-Feuchte:Windchill:Wind:
Aussen-T/F 2626 26-03-2011 09:00:00 8.88 C 5.32 g/m*3 8.88 C 0 km/h
2627 26-03-2011 10:00:00 9.16 C 4.6 g/m*3 9.16 C 0 km/h
2628 26-03-2011 11:00:00 10.56 C 3.91 g/m*3 10.56 C 0 km/h
2629 26-03-2011 12:00:00 12.56 C 3.42 g/m*3 12.56 C 0 km/h
2630 26-03-2011 13:00:00 13.34 C 3.24 g/m*3 13.34 C 0 km/h
2631 26-03-2011 14:00:00 14.58 C 3.1 g/m*3 14.58 C 0 km/h
2632 26-03-2011 15:00:00 15.32 C 2.95 g/m*3 15.32 C 0 km/h
2633 26-03-2011 16:00:00 12.66 C 3.46 g/m*3 12.66 C 0 km/h
2634 26-03-2011 17:00:00 11.1 C 3.87 g/m*3 11.1 C 0 km/h
2635 26-03-2011 18:00:00 9.4 C 4.12 g/m*3 9.4 C 0 km/h
2636 26-03-2011 19:00:00 8 C 4.45 g/m*3 8 C 0 km/h
2637 26-03-2011 20:00:00 6.74 C 4.54 g/m*3 6.74 C 0 km/h
2638 26-03-2011 21:00:00 6.12 C 4.73 g/m*3 6.12 C 0 km/h
2639 26-03-2011 22:00:00 5.64 C 4.83 g/m*3 5.64 C 0 km/h
2640 26-03-2011 23:00:00 5.32 C 4.84 g/m*3 5.32 C 0 km/h
2641 27-03-2011 00:00:00 5.06 C 4.91 g/m*3 5.06 C 0 km/h
2642 27-03-2011 01:00:00 4.98 C 4.94 g/m*3 4.98 C 0 km/h
2643 27-03-2011 02:00:00 4.82 C 4.87 g/m*3 4.82 C 0 km/h
2644 27-03-2011 04:00:00 4.88 C 4.81 g/m*3 4.88 C 0 km/h
2645 27-03-2011 05:00:00 4.68 C 4.86 g/m*3 4.68 C 0 km/h
2646 27-03-2011 06:00:00 4.4 C 4.75 g/m*3 4.4 C 0 km/h
2647 27-03-2011 07:00:00 4.4 C 4.78 g/m*3 4.4 C 0 km/h
2648 27-03-2011 08:00:00 5.56 C 4.78 g/m*3 5.56 C 0 km/h
2649 27-03-2011 09:00:00 7.16 C 4.62 g/m*3 7.16 C 0 km/h
2650 27-03-2011 10:00:00 8.34 C 4.48 g/m*3 8.34 C 0 km/h
Sensor: Nr:Datum:Temp:Abs-Feuchte:Windchill:Wind:
Aussen-T/F 2651 27-03-2011 11:00:00 10.02 C 4.42 g/m*3 10.02 C 0 km/h
2652 27-03-2011 12:00:00 11.32 C 4.39 g/m*3 11.32 C 0 km/h
2653 27-03-2011 13:00:00 14.1 C 4.59 g/m*3 14.1 C 0 km/h
2654 27-03-2011 14:00:00 15.86 C 4.16 g/m*3 15.86 C 0 km/h
2655 27-03-2011 15:00:00 18.86 C 3.78 g/m*3 18.86 C 0 km/h
2656 27-03-2011 16:00:00 19.96 C 3.45 g/m*3 19.96 C 0 km/h
2657 27-03-2011 17:00:00 17.8 C 3.52 g/m*3 17.8 C 0 km/h
2658 27-03-2011 18:00:00 15.46 C 3.98 g/m*3 15.46 C 0 km/h
2659 27-03-2011 19:00:00 12.36 C 4.69 g/m*3 12.36 C 0 km/h
2660 27-03-2011 20:00:00 9.06 C 4.81 g/m*3 9.06 C 0 km/h
2661 27-03-2011 21:00:00 7.78 C 4.96 g/m*3 7.78 C 0 km/h
2662 27-03-2011 22:00:00 7.74 C 4.99 g/m*3 7.74 C 0 km/h
2663 27-03-2011 23:00:00 6.7 C 5.11 g/m*3 6.7 C 0 km/h
2664 28-03-2011 00:00:00 5.46 C 5.13 g/m*3 5.46 C 0 km/h
2665 28-03-2011 01:00:00 4 C 5 g/m*3 4 C 0 km/h
2666 28-03-2011 02:00:00 2.8 C 4.89 g/m*3 2.8 C 0 km/h
2667 28-03-2011 03:00:00 2.14 C 4.81 g/m*3 2.14 C 0 km/h
2668 28-03-2011 04:00:00 2.68 C 5.1 g/m*3 2.68 C 0 km/h
2669 28-03-2011 05:00:00 1.84 C 4.85 g/m*3 1.84 C 0 km/h
2670 28-03-2011 06:00:00 1.14 C 4.67 g/m*3 1.14 C 0 km/h
2671 28-03-2011 07:00:00 0.62 C 4.58 g/m*3 0.62 C 0 km/h
2672 28-03-2011 08:00:00 1.14 C 4.77 g/m*3 1.14 C 0 km/h
2673 28-03-2011 09:00:00 2.42 C 5.15 g/m*3 2.42 C 0 km/h
2674 28-03-2011 10:00:00 4.66 C 5.49 g/m*3 4.66 C 0 km/h
2675 28-03-2011 11:00:00 8.6 C 4.35 g/m*3 8.6 C 0 km/h
Sensor: Nr:Datum:Temp:Abs-Feuchte:Windchill:Wind:
Aussen-T/F 2676 28-03-2011 12:00:00 11.28 C 3.44 g/m*3 11.28 C 0 km/h
2677 28-03-2011 13:00:00 13.88 C 3.07 g/m*3 13.88 C 0 km/h
2678 28-03-2011 14:00:00 14.58 C 2.5 g/m*3 14.58 C 0 km/h
2679 28-03-2011 15:00:00 17.22 C 2.93 g/m*3 17.22 C 0 km/h
2680 28-03-2011 16:00:00 18.94 C 3.25 g/m*3 18.94 C 0 km/h
2681 28-03-2011 17:00:00 17.94 C 3.06 g/m*3 17.94 C 0 km/h
2682 28-03-2011 18:00:00 16.12 C 2.74 g/m*3 16.12 C 0 km/h
2683 28-03-2011 19:00:00 12.38 C 2.88 g/m*3 12.38 C 0 km/h
2684 28-03-2011 20:00:00 9.38 C 3.22 g/m*3 9.38 C 0 km/h
2685 28-03-2011 21:00:00 6.9 C 3.68 g/m*3 6.9 C 0 km/h
2686 28-03-2011 22:00:00 5.7 C 3.8 g/m*3 5.7 C 0 km/h
2687 28-03-2011 23:00:00 3.52 C 3.97 g/m*3 3.52 C 0 km/h
2688 29-03-2011 00:00:00 1.3 C 3.86 g/m*3 1.3 C 0 km/h
2689 29-03-2011 01:00:00 0.46 C 3.81 g/m*3 0.46 C 0 km/h
2690 29-03-2011 02:00:00 -0.34 C 3.7 g/m*3 -0.34 C 0 km/h
2691 29-03-2011 03:00:00 -0.84 C 3.72 g/m*3 -0.84 C 0 km/h
2692 29-03-2011 04:00:00 -1.46 C 3.67 g/m*3 -1.46 C 0 km/h
2693 29-03-2011 05:00:00 -2 C 3.58 g/m*3 -2 C 0 km/h
2694 29-03-2011 06:00:00 -2 C 3.66 g/m*3 -2 C 0 km/h
2695 29-03-2011 07:00:00 -2.22 C 3.64 g/m*3 -2.22 C 0 km/h
2696 29-03-2011 08:00:00 -1.64 C 3.8 g/m*3 -1.64 C 0 km/h
2697 29-03-2011 09:00:00 -0.24 C 4.21 g/m*3 -0.24 C 0 km/h
2698 29-03-2011 10:00:00 2.38 C 4.69 g/m*3 2.38 C 0 km/h
2699 29-03-2011 11:00:00 6.68 C 4.34 g/m*3 6.68 C 0 km/h
2700 29-03-2011 12:00:00 10.4 C 4.12 g/m*3 10.4 C 0 km/h
Sensor: Nr:Datum:Temp:Abs-Feuchte:Windchill:Wind:
Aussen-T/F 2701 29-03-2011 13:00:00 16.1 C 3.73 g/m*3 16.1 C 0 km/h
2702 29-03-2011 14:00:00 18.2 C 3.17 g/m*3 18.2 C 0 km/h
2703 29-03-2011 15:00:00 20.6 C 3.58 g/m*3 20.6 C 0 km/h
2704 29-03-2011 16:00:00 23.64 C 4.26 g/m*3 23.64 C 0 km/h
2705 29-03-2011 17:00:00 21.6 C 3.79 g/m*3 21.6 C 0 km/h
2706 29-03-2011 18:00:00 20.18 C 3.49 g/m*3 20.18 C 0 km/h
2707 29-03-2011 19:00:00 14.96 C 4.3 g/m*3 14.96 C 0 km/h
2708 29-03-2011 20:00:00 10.66 C 4.68 g/m*3 10.66 C 0 km/h
2709 29-03-2011 21:00:00 8.56 C 4.78 g/m*3 8.56 C 0 km/h
2710 29-03-2011 22:00:00 7.52 C 4.78 g/m*3 7.52 C 0 km/h
2711 29-03-2011 23:00:00 5.6 C 4.71 g/m*3 5.6 C 0 km/h
2712 30-03-2011 00:00:00 4.12 C 4.54 g/m*3 4.12 C 0 km/h
2713 30-03-2011 01:00:00 3.08 C 4.57 g/m*3 3.08 C 0 km/h
2714 30-03-2011 02:00:00 3.06 C 4.79 g/m*3 3.06 C 0 km/h
2715 30-03-2011 03:00:00 1.82 C 4.53 g/m*3 1.82 C 0 km/h
2716 30-03-2011 04:00:00 1.02 C 4.42 g/m*3 1.02 C 0 km/h
2717 30-03-2011 05:00:00 0.64 C 4.44 g/m*3 0.64 C 0 km/h
2718 30-03-2011 06:00:00 0.14 C 4.32 g/m*3 0.14 C 0 km/h
2719 30-03-2011 07:00:00 0.62 C 4.53 g/m*3 0.62 C 0 km/h
2720 30-03-2011 08:00:00 2.94 C 5.09 g/m*3 2.94 C 0 km/h
2721 30-03-2011 09:00:00 5.08 C 4.66 g/m*3 5.08 C 0 km/h
2722 30-03-2011 10:00:00 8.5 C 4.78 g/m*3 8.5 C 0 km/h
2723 30-03-2011 11:00:00 11.28 C 4.65 g/m*3 11.28 C 0 km/h
2724 30-03-2011 12:00:00 12.7 C 5.41 g/m*3 12.7 C 0 km/h
2725 30-03-2011 13:00:00 14.46 C 5.83 g/m*3 14.46 C 0 km/h
Sensor: Nr:Datum:Temp:Abs-Feuchte:Windchill:Wind:
Aussen-T/F 2726 30-03-2011 14:00:00 16.16 C 5.67 g/m*3 16.16 C 0 km/h
2727 30-03-2011 15:00:00 17.16 C 5.55 g/m*3 17.16 C 0 km/h
2728 30-03-2011 16:00:00 15.96 C 5.49 g/m*3 15.96 C 0 km/h
2729 30-03-2011 17:00:00 13.94 C 7.16 g/m*3 13.94 C 0 km/h
2730 30-03-2011 18:00:00 14.16 C 7.24 g/m*3 14.16 C 0 km/h
2731 30-03-2011 19:00:00 12.7 C 6.35 g/m*3 12.7 C 0 km/h
2732 30-03-2011 20:00:00 11.5 C 6.49 g/m*3 11.5 C 0 km/h
2733 30-03-2011 21:00:00 10.36 C 6.69 g/m*3 10.36 C 0 km/h
2734 30-03-2011 22:00:00 9.8 C 6.77 g/m*3 9.8 C 0 km/h
2735 30-03-2011 23:00:00 9.52 C 7 g/m*3 9.52 C 0 km/h
2736 31-03-2011 00:00:00 10.24 C 7.33 g/m*3 10.24 C 0 km/h
2737 31-03-2011 01:00:00 9.92 C 7.37 g/m*3 9.92 C 0 km/h
2738 31-03-2011 02:00:00 9.54 C 7.15 g/m*3 9.54 C 0 km/h
2739 31-03-2011 03:00:00 9.44 C 7.24 g/m*3 9.44 C 0 km/h
2740 31-03-2011 04:00:00 10.48 C 6.95 g/m*3 10.48 C 0 km/h
2741 31-03-2011 05:00:00 10.46 C 6.95 g/m*3 10.46 C 0 km/h
2742 31-03-2011 06:00:00 10.4 C 7.09 g/m*3 10.4 C 0 km/h
2743 31-03-2011 07:00:00 10.5 C 7.1 g/m*3 10.5 C 0 km/h
2744 31-03-2011 08:00:00 10.88 C 7.21 g/m*3 10.88 C 0 km/h
2745 31-03-2011 09:00:00 11.4 C 7.27 g/m*3 11.4 C 0 km/h
2746 31-03-2011 10:00:00 11.86 C 7.23 g/m*3 11.86 C 0 km/h
2747 31-03-2011 11:00:00 11.46 C 7.56 g/m*3 11.46 C 0 km/h
2748 31-03-2011 12:00:00 11.62 C 8.2 g/m*3 11.62 C 0 km/h
2749 31-03-2011 13:00:00 12.02 C 8.32 g/m*3 12.02 C 0 km/h
2750 31-03-2011 14:00:00 12.1 C 8.41 g/m*3 12.1 C 0 km/h
Sensor: Nr:Datum:Temp:Abs-Feuchte:Windchill:Wind:
Aussen-T/F 2751 31-03-2011 15:00:00 13.06 C 8.51 g/m*3 13.06 C 0 km/h
2752 31-03-2011 16:00:00 14.76 C 8.42 g/m*3 14.76 C 0 km/h
2753 31-03-2011 17:00:00 14.48 C 8.4 g/m*3 14.48 C 0 km/h
2754 31-03-2011 18:00:00 13.82 C 8.73 g/m*3 13.82 C 0 km/h
2755 31-03-2011 19:00:00 14.2 C 8.6 g/m*3 14.2 C 0 km/h
2756 31-03-2011 20:00:00 13.82 C 8.4 g/m*3 13.82 C 0 km/h
2757 31-03-2011 21:00:00 14.06 C 8.5 g/m*3 14.06 C 0 km/h
2758 31-03-2011 22:00:00 14.22 C 8.26 g/m*3 14.22 C 0 km/h
2759 31-03-2011 23:00:00 14.18 C 8.42 g/m*3 14.18 C 0 km/h
2760 01-04-2011 00:00:00 13.68 C 8.63 g/m*3 13.68 C 0 km/h
2761 01-04-2011 01:00:00 13.08 C 8.57 g/m*3 13.08 C 0 km/h
2762 01-04-2011 02:00:00 11.96 C 8.59 g/m*3 11.96 C 0 km/h
2763 01-04-2011 03:00:00 12.36 C 8.52 g/m*3 12.36 C 0 km/h
2764 01-04-2011 04:00:00 12.06 C 8.3 g/m*3 12.06 C 0 km/h
2765 01-04-2011 05:00:00 11.34 C 8.08 g/m*3 11.34 C 0 km/h
2766 01-04-2011 06:00:00 10.14 C 7.96 g/m*3 10.14 C 0 km/h
2767 01-04-2011 07:00:00 10.22 C 8.08 g/m*3 10.22 C 0 km/h
2768 01-04-2011 08:00:00 10.86 C 8.43 g/m*3 10.86 C 0 km/h
2769 01-04-2011 09:00:00 12.74 C 8.39 g/m*3 12.74 C 0 km/h
2770 01-04-2011 10:00:00 15.36 C 8 g/m*3 15.36 C 0 km/h
2771 01-04-2011 11:00:00 15.9 C 7.88 g/m*3 15.9 C 0 km/h
2772 01-04-2011 12:00:00 16.92 C 7.95 g/m*3 16.92 C 0 km/h
2773 01-04-2011 13:00:00 16.92 C 8.01 g/m*3 16.92 C 0 km/h
2774 01-04-2011 14:00:00 18.32 C 7.8 g/m*3 18.32 C 0 km/h
2775 01-04-2011 15:00:00 18.68 C 7.48 g/m*3 18.68 C 0 km/h
Sensor: Nr:Datum:Temp:Abs-Feuchte:Windchill:Wind:
Aussen-T/F 2776 01-04-2011 16:00:00 18.6 C 7.29 g/m*3 18.6 C 0 km/h
2777 01-04-2011 17:00:00 17.18 C 7.61 g/m*3 17.18 C 0 km/h
2778 01-04-2011 18:00:00 16.54 C 7.69 g/m*3 16.54 C 0 km/h
2779 01-04-2011 19:00:00 15.6 C 7.93 g/m*3 15.6 C 0 km/h
2780 01-04-2011 20:00:00 14.28 C 8.15 g/m*3 14.28 C 0 km/h
2781 01-04-2011 21:00:00 12.2 C 8.16 g/m*3 12.2 C 0 km/h
2782 01-04-2011 22:00:00 10.86 C 8.24 g/m*3 10.86 C 0 km/h
2783 01-04-2011 23:00:00 9.84 C 7.98 g/m*3 9.84 C 0 km/h
2784 02-04-2011 00:00:00 8.82 C 7.7 g/m*3 8.82 C 0 km/h
2785 02-04-2011 01:00:00 8.06 C 7.42 g/m*3 8.06 C 0 km/h
2786 02-04-2011 02:00:00 7.38 C 7.15 g/m*3 7.38 C 0 km/h
2787 02-04-2011 03:00:00 6.4 C 6.78 g/m*3 6.4 C 0 km/h
2788 02-04-2011 04:00:00 6.38 C 6.8 g/m*3 6.38 C 0 km/h
2789 02-04-2011 05:00:00 6.52 C 6.91 g/m*3 6.52 C 0 km/h
2790 02-04-2011 06:00:00 6.6 C 6.96 g/m*3 6.6 C 0 km/h
2791 02-04-2011 07:00:00 6.3 C 6.84 g/m*3 6.3 C 0 km/h
2792 02-04-2011 08:00:00 6.36 C 6.91 g/m*3 6.36 C 0 km/h
2793 02-04-2011 09:00:00 7.46 C 7.36 g/m*3 7.46 C 0 km/h
2794 02-04-2011 10:00:00 9 C 7.74 g/m*3 9 C 0 km/h
2795 02-04-2011 11:00:00 12.12 C 8.74 g/m*3 12.12 C 0 km/h
2796 02-04-2011 12:00:00 17.68 C 8.53 g/m*3 17.68 C 0 km/h
2797 02-04-2011 13:00:00 22.24 C 7.04 g/m*3 22.24 C 0 km/h
2798 02-04-2011 14:00:00 23.76 C 6.22 g/m*3 23.76 C 0 km/h
2799 02-04-2011 15:00:00 27.42 C 5.64 g/m*3 27.42 C 0 km/h
2800 02-04-2011 16:00:00 29.94 C 6.05 g/m*3 29.94 C 0 km/h
Sensor: Nr:Datum:Temp:Abs-Feuchte:Windchill:Wind:
Aussen-T/F 2801 02-04-2011 17:00:00 28.22 C 5.67 g/m*3 28.22 C 0 km/h
2802 02-04-2011 18:00:00 23.66 C 6.87 g/m*3 23.66 C 0 km/h
2803 02-04-2011 19:00:00 19.58 C 7.96 g/m*3 19.58 C 0 km/h
2804 02-04-2011 20:00:00 16.26 C 7.75 g/m*3 16.26 C 0 km/h
2805 02-04-2011 21:00:00 15.18 C 7.73 g/m*3 15.18 C 0 km/h
2806 02-04-2011 22:00:00 13.74 C 7.72 g/m*3 13.74 C 0 km/h
2807 02-04-2011 23:00:00 12.16 C 7.56 g/m*3 12.16 C 0 km/h
2808 03-04-2011 00:00:00 10.3 C 7.36 g/m*3 10.3 C 0 km/h
2809 03-04-2011 01:00:00 9.06 C 7.35 g/m*3 9.06 C 0 km/h
2810 03-04-2011 02:00:00 8.5 C 7.33 g/m*3 8.5 C 0 km/h
2811 03-04-2011 03:00:00 8.32 C 7.34 g/m*3 8.32 C 0 km/h
2812 03-04-2011 04:00:00 9 C 7.67 g/m*3 9 C 0 km/h
2813 03-04-2011 05:00:00 9.56 C 7.73 g/m*3 9.56 C 0 km/h
2814 03-04-2011 06:00:00 8.86 C 7.29 g/m*3 8.86 C 0 km/h
2815 03-04-2011 07:00:00 8.8 C 7.49 g/m*3 8.8 C 0 km/h
2816 03-04-2011 08:00:00 10.1 C 7.6 g/m*3 10.1 C 0 km/h
2817 03-04-2011 09:00:00 11.56 C 7.4 g/m*3 11.56 C 0 km/h
2818 03-04-2011 10:00:00 13.38 C 7.55 g/m*3 13.38 C 0 km/h
2819 03-04-2011 11:00:00 15.94 C 7.49 g/m*3 15.94 C 0 km/h
2820 03-04-2011 12:00:00 16.82 C 7.47 g/m*3 16.82 C 0 km/h
2821 03-04-2011 13:00:00 19 C 7.5 g/m*3 19 C 0 km/h
2822 03-04-2011 14:00:00 19.18 C 7.41 g/m*3 19.18 C 0 km/h
2823 03-04-2011 15:00:00 15.04 C 7.76 g/m*3 15.04 C 0 km/h
2824 03-04-2011 16:00:00 11.92 C 8.5 g/m*3 11.92 C 0 km/h
2825 03-04-2011 17:00:00 12.12 C 8.95 g/m*3 12.12 C 0 km/h
Sensor: Nr:Datum:Temp:Abs-Feuchte:Windchill:Wind:
Aussen-T/F 2826 03-04-2011 18:00:00 12.24 C 8.85 g/m*3 12.24 C 0 km/h
2827 03-04-2011 19:00:00 11.42 C 8.72 g/m*3 11.42 C 0 km/h
2828 03-04-2011 20:00:00 11 C 8.67 g/m*3 11 C 0 km/h
2829 03-04-2011 21:00:00 10.72 C 8.69 g/m*3 10.72 C 0 km/h
2830 03-04-2011 22:00:00 10.6 C 8.69 g/m*3 10.6 C 0 km/h
2831 03-04-2011 23:00:00 10.04 C 8.29 g/m*3 10.04 C 0 km/h
2832 04-04-2011 00:00:00 9.56 C 8.04 g/m*3 9.56 C 0 km/h
2833 04-04-2011 01:00:00 8.8 C 7.56 g/m*3 8.8 C 0 km/h
2834 04-04-2011 02:00:00 8.16 C 7.08 g/m*3 8.16 C 0 km/h
2835 04-04-2011 03:00:00 7.78 C 7.19 g/m*3 7.78 C 0 km/h
2836 04-04-2011 04:00:00 7.48 C 7.18 g/m*3 7.48 C 0 km/h
2837 04-04-2011 05:00:00 7.14 C 7.12 g/m*3 7.14 C 0 km/h
2838 04-04-2011 06:00:00 7.16 C 7.12 g/m*3 7.16 C 0 km/h
2839 04-04-2011 07:00:00 7.1 C 7.11 g/m*3 7.1 C 0 km/h
2840 04-04-2011 08:00:00 7.94 C 7.43 g/m*3 7.94 C 0 km/h
2841 04-04-2011 09:00:00 9.26 C 7.06 g/m*3 9.26 C 0 km/h
2842 04-04-2011 10:00:00 10.58 C 6.43 g/m*3 10.58 C 0 km/h
2843 04-04-2011 11:00:00 11.34 C 6.01 g/m*3 11.34 C 0 km/h
2844 04-04-2011 12:00:00 13.26 C 5.88 g/m*3 13.26 C 0 km/h
2845 04-04-2011 13:00:00 14.04 C 5.68 g/m*3 14.04 C 0 km/h
2846 04-04-2011 14:00:00 14.88 C 4.86 g/m*3 14.88 C 0 km/h
2847 04-04-2011 15:00:00 15.94 C 4.72 g/m*3 15.94 C 0 km/h
2848 04-04-2011 16:00:00 16.46 C 4.68 g/m*3 16.46 C 0 km/h
2849 04-04-2011 17:00:00 16.72 C 4.27 g/m*3 16.72 C 0 km/h
2850 04-04-2011 18:00:00 13.52 C 4.59 g/m*3 13.52 C 0 km/h
Sensor: Nr:Datum:Temp:Abs-Feuchte:Windchill:Wind:
Aussen-T/F 2851 04-04-2011 19:00:00 11.5 C 5.37 g/m*3 11.5 C 0 km/h
2852 04-04-2011 20:00:00 10.66 C 5.78 g/m*3 10.66 C 0 km/h
2853 04-04-2011 21:00:00 9.28 C 6.32 g/m*3 9.28 C 0 km/h
2854 04-04-2011 22:00:00 9.02 C 6.44 g/m*3 9.02 C 0 km/h
2855 04-04-2011 23:00:00 8.82 C 6.59 g/m*3 8.82 C 0 km/h
2856 05-04-2011 00:00:00 8.18 C 6.41 g/m*3 8.18 C 0 km/h
2857 05-04-2011 01:00:00 6.52 C 6.32 g/m*3 6.52 C 0 km/h
2858 05-04-2011 02:00:00 5.44 C 6.06 g/m*3 5.44 C 0 km/h
2859 05-04-2011 03:00:00 4.22 C 5.7 g/m*3 4.22 C 0 km/h
2860 05-04-2011 04:00:00 3.7 C 5.56 g/m*3 3.7 C 0 km/h
2861 05-04-2011 05:00:00 2.54 C 5.26 g/m*3 2.54 C 0 km/h
2862 05-04-2011 06:00:00 1.52 C 4.95 g/m*3 1.52 C 0 km/h
2863 05-04-2011 07:00:00 2.32 C 5.24 g/m*3 2.32 C 0 km/h
2864 05-04-2011 08:00:00 4.7 C 6.05 g/m*3 4.7 C 0 km/h
2865 05-04-2011 09:00:00 6.94 C 6.11 g/m*3 6.94 C 0 km/h
2866 05-04-2011 10:00:00 10.04 C 5.86 g/m*3 10.04 C 0 km/h
2867 05-04-2011 11:00:00 12.34 C 5.53 g/m*3 12.34 C 0 km/h
2868 05-04-2011 12:00:00 13.64 C 5.17 g/m*3 13.64 C 0 km/h
2869 05-04-2011 13:00:00 14.54 C 5.01 g/m*3 14.54 C 0 km/h
2870 05-04-2011 14:00:00 14.18 C 5.07 g/m*3 14.18 C 0 km/h
2871 05-04-2011 15:00:00 14.6 C 5.06 g/m*3 14.6 C 0 km/h
2872 05-04-2011 16:00:00 14.48 C 5.14 g/m*3 14.48 C 0 km/h
2873 05-04-2011 17:00:00 15.4 C 5.05 g/m*3 15.4 C 0 km/h
2874 05-04-2011 18:00:00 14.9 C 5 g/m*3 14.9 C 0 km/h
2875 05-04-2011 19:00:00 14.3 C 5.18 g/m*3 14.3 C 0 km/h
Sensor: Nr:Datum:Temp:Abs-Feuchte:Windchill:Wind:
Aussen-T/F 2876 05-04-2011 20:00:00 11.12 C 6.43 g/m*3 11.12 C 0 km/h
2877 05-04-2011 21:00:00 9.42 C 7.57 g/m*3 9.42 C 0 km/h
2878 05-04-2011 22:00:00 9.2 C 7.79 g/m*3 9.2 C 0 km/h
2879 05-04-2011 23:00:00 9.16 C 7.84 g/m*3 9.16 C 0 km/h
2880 06-04-2011 00:00:00 9.3 C 7.91 g/m*3 9.3 C 0 km/h
2881 06-04-2011 01:00:00 9.5 C 8.01 g/m*3 9.5 C 0 km/h
2882 06-04-2011 02:00:00 9.64 C 7.97 g/m*3 9.64 C 0 km/h
2883 06-04-2011 03:00:00 9.72 C 7.86 g/m*3 9.72 C 0 km/h
2884 06-04-2011 04:00:00 10.04 C 7.63 g/m*3 10.04 C 0 km/h
2885 06-04-2011 05:00:00 10.2 C 7.52 g/m*3 10.2 C 0 km/h
2886 06-04-2011 06:00:00 10.36 C 7.52 g/m*3 10.36 C 0 km/h
2887 06-04-2011 07:00:00 10.78 C 7.38 g/m*3 10.78 C 0 km/h
2888 06-04-2011 08:00:00 11.82 C 7.25 g/m*3 11.82 C 0 km/h
2889 06-04-2011 09:00:00 12.88 C 7.29 g/m*3 12.88 C 0 km/h
2890 06-04-2011 10:00:00 14.52 C 7.17 g/m*3 14.52 C 0 km/h
2891 06-04-2011 11:00:00 15.56 C 7.32 g/m*3 15.56 C 0 km/h
2892 06-04-2011 12:00:00 17.48 C 7.59 g/m*3 17.48 C 0 km/h
2893 06-04-2011 13:00:00 19.46 C 7.9 g/m*3 19.46 C 0 km/h
2894 06-04-2011 14:00:00 21.18 C 8.14 g/m*3 21.18 C 0 km/h
2895 06-04-2011 15:00:00 24.9 C 7.69 g/m*3 24.9 C 0 km/h
2896 06-04-2011 16:00:00 26.26 C 7.61 g/m*3 26.26 C 0 km/h
2897 06-04-2011 17:00:00 27.08 C 7.34 g/m*3 27.08 C 0 km/h
2898 06-04-2011 18:00:00 25.2 C 7.54 g/m*3 25.2 C 0 km/h
2899 06-04-2011 19:00:00 20.82 C 9.06 g/m*3 20.82 C 0 km/h
2900 06-04-2011 20:00:00 17.3 C 9.52 g/m*3 17.3 C 0 km/h
Sensor: Nr:Datum:Temp:Abs-Feuchte:Windchill:Wind:
Aussen-T/F 2901 06-04-2011 21:00:00 15.92 C 9.65 g/m*3 15.92 C 0 km/h
2902 06-04-2011 22:00:00 14.12 C 9.48 g/m*3 14.12 C 0 km/h
2903 06-04-2011 23:00:00 12.56 C 9.16 g/m*3 12.56 C 0 km/h
2904 07-04-2011 00:00:00 11.8 C 9.03 g/m*3 11.8 C 0 km/h
2905 07-04-2011 01:00:00 11.14 C 8.81 g/m*3 11.14 C 0 km/h
2906 07-04-2011 02:00:00 10.275 C 8.41 g/m*3 10.28 C 0 km/h
2907 07-04-2011 03:00:00 10.08 C 8.35 g/m*3 10.08 C 0 km/h
2908 07-04-2011 04:00:00 10.34 C 8.6 g/m*3 10.34 C 0 km/h
2909 07-04-2011 05:00:00 9.56 C 8.3 g/m*3 9.56 C 0 km/h
2910 07-04-2011 06:00:00 9.44 C 8.25 g/m*3 9.44 C 0 km/h
2911 07-04-2011 07:00:00 9.96 C 8.51 g/m*3 9.96 C 0 km/h
2912 07-04-2011 08:00:00 11.5 C 9.38 g/m*3 11.5 C 0 km/h
2913 07-04-2011 09:00:00 13.5 C 9.83 g/m*3 13.5 C 0 km/h
2914 07-04-2011 10:00:00 16.78 C 9.22 g/m*3 16.78 C 0 km/h
2915 07-04-2011 11:00:00 18.74 C 8.83 g/m*3 18.74 C 0 km/h
2916 07-04-2011 12:00:00 20.04 C 7.59 g/m*3 20.04 C 0 km/h
2917 07-04-2011 13:00:00 21.04 C 6.24 g/m*3 21.04 C 0 km/h
2918 07-04-2011 14:00:00 22.8 C 4.67 g/m*3 22.8 C 0 km/h
2919 07-04-2011 15:00:00 26.08 C 4.89 g/m*3 26.08 C 0 km/h
2920 07-04-2011 16:00:00 26.92 C 5.12 g/m*3 26.92 C 0 km/h
2921 07-04-2011 17:00:00 24.16 C 4.39 g/m*3 24.16 C 0 km/h
2922 07-04-2011 18:00:00 22.9 C 4.78 g/m*3 22.9 C 0 km/h
2923 07-04-2011 19:00:00 20.36 C 6 g/m*3 20.36 C 0 km/h
2924 07-04-2011 20:00:00 17.92 C 7.12 g/m*3 17.92 C 0 km/h
2925 07-04-2011 21:00:00 16.28 C 7.43 g/m*3 16.28 C 0 km/h
Sensor: Nr:Datum:Temp:Abs-Feuchte:Windchill:Wind:
Aussen-T/F 2926 07-04-2011 22:00:00 15.34 C 7.46 g/m*3 15.34 C 0 km/h
2927 07-04-2011 23:00:00 14.3 C 7.52 g/m*3 14.3 C 0 km/h
2928 08-04-2011 00:00:00 13.86 C 7.22 g/m*3 13.86 C 0 km/h
2929 08-04-2011 01:00:00 12.38 C 6.87 g/m*3 12.38 C 0 km/h
2930 08-04-2011 02:00:00 10.48 C 6.82 g/m*3 10.48 C 0 km/h
2931 08-04-2011 03:00:00 9.12 C 6.81 g/m*3 9.12 C 0 km/h
2932 08-04-2011 04:00:00 8.04 C 6.61 g/m*3 8.04 C 0 km/h
2933 08-04-2011 05:00:00 9 C 6.59 g/m*3 9 C 0 km/h
2934 08-04-2011 06:00:00 8.5 C 6.47 g/m*3 8.5 C 0 km/h
2935 08-04-2011 07:00:00 7.12 C 6.56 g/m*3 7.12 C 0 km/h
2936 08-04-2011 08:00:00 8.22 C 6.88 g/m*3 8.22 C 0 km/h
2937 08-04-2011 09:00:00 9.44 C 6.4 g/m*3 9.44 C 0 km/h
2938 08-04-2011 10:00:00 10.82 C 6.02 g/m*3 10.82 C 0 km/h
2939 08-04-2011 11:00:00 12.4 C 5.57 g/m*3 12.4 C 0 km/h
2940 08-04-2011 12:00:00 14.04 C 5.18 g/m*3 14.04 C 0 km/h
2941 08-04-2011 13:00:00 16.04 C 5.11 g/m*3 16.04 C 0 km/h
2942 08-04-2011 14:00:00 17.86 C 4.75 g/m*3 17.86 C 0 km/h
2943 08-04-2011 15:00:00 22.5 C 4.27 g/m*3 22.5 C 0 km/h
2944 08-04-2011 16:00:00 23.34 C 4.28 g/m*3 23.34 C 0 km/h
2945 08-04-2011 17:00:00 21.74 C 5.05 g/m*3 21.74 C 0 km/h
2946 08-04-2011 18:00:00 19.82 C 5.34 g/m*3 19.82 C 0 km/h
2947 08-04-2011 19:00:00 16.9 C 6.04 g/m*3 16.9 C 0 km/h
2948 08-04-2011 20:00:00 14.84 C 6.55 g/m*3 14.84 C 0 km/h
2949 08-04-2011 21:00:00 13.24 C 6.88 g/m*3 13.24 C 0 km/h
2950 08-04-2011 22:00:00 12.44 C 7.03 g/m*3 12.44 C 0 km/h
Sensor: Nr:Datum:Temp:Abs-Feuchte:Windchill:Wind:
Aussen-T/F 2951 08-04-2011 23:00:00 11.68 C 7.04 g/m*3 11.68 C 0 km/h
2952 09-04-2011 00:00:00 11.34 C 6.54 g/m*3 11.34 C 0 km/h
2953 09-04-2011 01:00:00 10.72 C 6.16 g/m*3 10.72 C 0 km/h
2954 09-04-2011 02:00:00 9.86 C 5.9 g/m*3 9.86 C 0 km/h
2955 09-04-2011 03:00:00 8.56 C 5.76 g/m*3 8.56 C 0 km/h
2956 09-04-2011 04:00:00 7.54 C 5.99 g/m*3 7.54 C 0 km/h
2957 09-04-2011 05:00:00 8.04 C 6.27 g/m*3 8.04 C 0 km/h
2958 09-04-2011 06:00:00 8.52 C 6.09 g/m*3 8.52 C 0 km/h
2959 09-04-2011 07:00:00 8.34 C 5.97 g/m*3 8.34 C 0 km/h
2960 09-04-2011 08:00:00 9.14 C 5.71 g/m*3 9.14 C 0 km/h
2961 09-04-2011 09:00:00 9.9 C 5.43 g/m*3 9.9 C 0 km/h
2962 09-04-2011 10:00:00 10.16 C 5.3 g/m*3 10.16 C 0 km/h
2963 09-04-2011 11:00:00 11.14 C 5.11 g/m*3 11.14 C 0 km/h
2964 09-04-2011 12:00:00 12.34 C 4.88 g/m*3 12.34 C 0 km/h
2965 09-04-2011 13:00:00 14.64 C 4.64 g/m*3 14.64 C 0 km/h
2966 09-04-2011 14:00:00 17.08 C 4.22 g/m*3 17.08 C 0 km/h
2967 09-04-2011 15:00:00 20.28 C 3.79 g/m*3 20.28 C 0 km/h
2968 09-04-2011 16:00:00 23.72 C 4.28 g/m*3 23.72 C 0 km/h
2969 09-04-2011 17:00:00 24.14 C 4.39 g/m*3 24.14 C 0 km/h
2970 09-04-2011 18:00:00 22.84 C 4.07 g/m*3 22.84 C 0 km/h
2971 09-04-2011 19:00:00 18.48 C 3.86 g/m*3 18.48 C 0 km/h
2972 09-04-2011 20:00:00 13.8 C 4.55 g/m*3 13.8 C 0 km/h
2973 09-04-2011 21:00:00 12.02 C 4.76 g/m*3 12.02 C 0 km/h
2974 09-04-2011 22:00:00 10.18 C 5.15 g/m*3 10.18 C 0 km/h
2975 09-04-2011 23:00:00 8.48 C 5.22 g/m*3 8.48 C 0 km/h
Sensor: Nr:Datum:Temp:Abs-Feuchte:Windchill:Wind:
Aussen-T/F 2976 10-04-2011 00:00:00 6.78 C 5.18 g/m*3 6.78 C 0 km/h
2977 10-04-2011 01:00:00 5.32 C 4.96 g/m*3 5.32 C 0 km/h
2978 10-04-2011 02:00:00 4.54 C 4.96 g/m*3 4.54 C 0 km/h
2979 10-04-2011 03:00:00 4.06 C 5.04 g/m*3 4.06 C 0 km/h
2980 10-04-2011 04:00:00 3.48 C 5.07 g/m*3 3.48 C 0 km/h
2981 10-04-2011 05:00:00 2.9 C 5 g/m*3 2.9 C 0 km/h
2982 10-04-2011 06:00:00 2.52 C 4.98 g/m*3 2.52 C 0 km/h
2983 10-04-2011 07:00:00 2.82 C 5.17 g/m*3 2.82 C 0 km/h
2984 10-04-2011 08:00:00 4.08 C 5.59 g/m*3 4.08 C 0 km/h
2985 10-04-2011 09:00:00 5.8 C 5.99 g/m*3 5.8 C 0 km/h
2986 10-04-2011 10:00:00 8.98 C 5.95 g/m*3 8.98 C 0 km/h
2987 10-04-2011 11:00:00 12.46 C 5.42 g/m*3 12.46 C 0 km/h
2988 10-04-2011 12:00:00 15.26 C 4.95 g/m*3 15.26 C 0 km/h
2989 10-04-2011 13:00:00 18.54 C 4.54 g/m*3 18.54 C 0 km/h
2990 10-04-2011 14:00:00 21.9 C 4.05 g/m*3 21.9 C 0 km/h
2991 10-04-2011 15:00:00 27.1 C 5.18 g/m*3 27.1 C 0 km/h
2992 10-04-2011 16:00:00 28.18 C 5.49 g/m*3 28.18 C 0 km/h
2993 10-04-2011 17:00:00 26.9 C 5.12 g/m*3 26.9 C 0 km/h
2994 10-04-2011 18:00:00 25.82 C 4.92 g/m*3 25.82 C 0 km/h
2995 10-04-2011 19:00:00 20.38 C 5.05 g/m*3 20.38 C 0 km/h
2996 10-04-2011 20:00:00 14.7 C 5.09 g/m*3 14.7 C 0 km/h
2997 10-04-2011 21:00:00 12.36 C 5.51 g/m*3 12.36 C 0 km/h
2998 10-04-2011 22:00:00 10.68 C 5.59 g/m*3 10.68 C 0 km/h
2999 10-04-2011 23:00:00 9.22 C 5.49 g/m*3 9.22 C 0 km/h
3000 11-04-2011 00:00:00 8.14 C 5.56 g/m*3 8.14 C 0 km/h
Sensor: Nr:Datum:Temp:Abs-Feuchte:Windchill:Wind:
Aussen-T/F 3001 11-04-2011 01:00:00 7.28 C 5.65 g/m*3 7.28 C 0 km/h
3002 11-04-2011 02:00:00 6.52 C 5.78 g/m*3 6.52 C 0 km/h
3003 11-04-2011 03:00:00 6.06 C 5.95 g/m*3 6.06 C 0 km/h
3004 11-04-2011 04:00:00 5.24 C 5.8 g/m*3 5.24 C 0 km/h
3005 11-04-2011 05:00:00 4.78 C 5.8 g/m*3 4.78 C 0 km/h
3006 11-04-2011 06:00:00 4.36 C 5.76 g/m*3 4.36 C 0 km/h
3007 11-04-2011 07:00:00 4.58 C 5.88 g/m*3 4.58 C 0 km/h
3008 11-04-2011 08:00:00 5.86 C 6.33 g/m*3 5.86 C 0 km/h
3009 11-04-2011 09:00:00 7.74 C 6.65 g/m*3 7.74 C 0 km/h
3010 11-04-2011 10:00:00 10.68 C 6.59 g/m*3 10.68 C 0 km/h
3011 11-04-2011 11:00:00 15.64 C 6.16 g/m*3 15.64 C 0 km/h
3012 11-04-2011 12:00:00 19.54 C 5.79 g/m*3 19.54 C 0 km/h
3013 11-04-2011 13:00:00 21.76 C 4.02 g/m*3 21.76 C 0 km/h
3014 11-04-2011 14:00:00 23.64 C 4.26 g/m*3 23.64 C 0 km/h
3015 11-04-2011 15:00:00 27.46 C 5.28 g/m*3 27.46 C 0 km/h
3016 11-04-2011 16:00:00 28.54 C 5.6 g/m*3 28.54 C 0 km/h
3017 11-04-2011 17:00:00 27.16 C 5.19 g/m*3 27.16 C 0 km/h
3018 11-04-2011 18:00:00 25.8 C 5.1 g/m*3 25.8 C 0 km/h
3019 11-04-2011 19:00:00 21.48 C 6.03 g/m*3 21.48 C 0 km/h
3020 11-04-2011 20:00:00 19.8 C 6.11 g/m*3 19.8 C 0 km/h
3021 11-04-2011 21:00:00 18.82 C 6.51 g/m*3 18.82 C 0 km/h
3022 11-04-2011 22:00:00 17.62 C 6.58 g/m*3 17.62 C 0 km/h
3023 11-04-2011 23:00:00 15.82 C 6.25 g/m*3 15.82 C 0 km/h
3024 12-04-2011 00:00:00 15.4 C 6.18 g/m*3 15.4 C 0 km/h
3025 12-04-2011 01:00:00 14.94 C 6.26 g/m*3 14.94 C 0 km/h
Sensor: Nr:Datum:Temp:Abs-Feuchte:Windchill:Wind:
Aussen-T/F 3026 12-04-2011 02:00:00 14.34 C 6.68 g/m*3 14.34 C 0 km/h
3027 12-04-2011 03:00:00 13.88 C 6.8 g/m*3 13.88 C 0 km/h
3028 12-04-2011 04:00:00 10.38 C 6.74 g/m*3 10.38 C 0 km/h
3029 12-04-2011 05:00:00 9.4 C 6.44 g/m*3 9.4 C 0 km/h
3030 12-04-2011 06:00:00 9.12 C 6.06 g/m*3 9.12 C 0 km/h
3031 12-04-2011 07:00:00 8.58 C 5.89 g/m*3 8.58 C 0 km/h
3032 12-04-2011 08:00:00 9.58 C 5.76 g/m*3 9.58 C 0 km/h
3033 12-04-2011 09:00:00 10.2 C 5.71 g/m*3 10.2 C 0 km/h
3034 12-04-2011 10:00:00 10.02 C 5.08 g/m*3 10.02 C 0 km/h
3035 12-04-2011 11:00:00 10.54 C 5.02 g/m*3 10.54 C 0 km/h
3036 12-04-2011 12:00:00 9.52 C 5.16 g/m*3 9.52 C 0 km/h
3037 12-04-2011 13:00:00 9.38 C 5.17 g/m*3 9.38 C 0 km/h
3038 12-04-2011 14:00:00 9.22 C 5.4 g/m*3 9.22 C 0 km/h
3039 12-04-2011 15:00:00 12.3 C 4.58 g/m*3 12.3 C 0 km/h
3040 12-04-2011 16:00:00 11.96 C 5.1 g/m*3 11.96 C 0 km/h
3041 12-04-2011 17:00:00 11.18 C 4.9 g/m*3 11.18 C 0 km/h
3042 12-04-2011 18:00:00 12.48 C 5.58 g/m*3 12.48 C 0 km/h
3043 12-04-2011 19:00:00 9.1 C 5.31 g/m*3 9.1 C 0 km/h
3044 12-04-2011 20:00:00 7.6 C 3.98 g/m*3 7.6 C 0 km/h
3045 12-04-2011 21:00:00 6.8 C 3.98 g/m*3 6.8 C 0 km/h
3046 12-04-2011 22:00:00 5.54 C 4.38 g/m*3 5.54 C 0 km/h
3047 12-04-2011 23:00:00 5.24 C 4.67 g/m*3 5.24 C 0 km/h
3048 13-04-2011 00:00:00 4.6 C 4.45 g/m*3 4.6 C 0 km/h
3049 13-04-2011 01:00:00 4.66 C 4.54 g/m*3 4.66 C 0 km/h
3050 13-04-2011 02:00:00 3.32 C 4.73 g/m*3 3.32 C 0 km/h
Sensor: Nr:Datum:Temp:Abs-Feuchte:Windchill:Wind:
Aussen-T/F 3051 13-04-2011 03:00:00 2.48 C 4.72 g/m*3 2.48 C 0 km/h
3052 13-04-2011 04:00:00 1.74 C 4.72 g/m*3 1.74 C 0 km/h
3053 13-04-2011 05:00:00 1.9 C 4.86 g/m*3 1.9 C 0 km/h
3054 13-04-2011 06:00:00 1.74 C 4.8 g/m*3 1.74 C 0 km/h
3055 13-04-2011 07:00:00 2.06 C 4.87 g/m*3 2.06 C 0 km/h
3056 13-04-2011 08:00:00 2.9 C 4.97 g/m*3 2.9 C 0 km/h
3057 13-04-2011 09:00:00 5.86 C 4.83 g/m*3 5.86 C 0 km/h
3058 13-04-2011 10:00:00 9.02 C 4.03 g/m*3 9.02 C 0 km/h
3059 13-04-2011 11:00:00 10.28 C 3.75 g/m*3 10.28 C 0 km/h
3060 13-04-2011 12:00:00 11.32 C 3.37 g/m*3 11.32 C 0 km/h
3061 13-04-2011 13:00:00 13.2 C 3.08 g/m*3 13.2 C 0 km/h
3062 13-04-2011 14:00:00 13.96 C 2.55 g/m*3 13.96 C 0 km/h
3063 13-04-2011 15:00:00 15.24 C 2.73 g/m*3 15.24 C 0 km/h
3064 13-04-2011 16:00:00 13.22 C 3.01 g/m*3 13.22 C 0 km/h
3065 13-04-2011 17:00:00 13.24 C 3.18 g/m*3 13.24 C 0 km/h
3066 13-04-2011 18:00:00 12.72 C 3.23 g/m*3 12.72 C 0 km/h
3067 13-04-2011 19:00:00 10.66 C 3.9 g/m*3 10.66 C 0 km/h
3068 13-04-2011 20:00:00 8.3 C 4 g/m*3 8.3 C 0 km/h
3069 13-04-2011 21:00:00 7.76 C 3.97 g/m*3 7.76 C 0 km/h
3070 13-04-2011 22:00:00 6.48 C 4.43 g/m*3 6.48 C 0 km/h
3071 13-04-2011 23:00:00 5.76 C 4.6 g/m*3 5.76 C 0 km/h
3072 14-04-2011 00:00:00 4.44 C 4.56 g/m*3 4.44 C 0 km/h
3073 14-04-2011 01:00:00 3.92 C 4.67 g/m*3 3.92 C 0 km/h
3074 14-04-2011 02:00:00 3.12 C 4.65 g/m*3 3.12 C 0 km/h
3075 14-04-2011 03:00:00 2.7 C 4.77 g/m*3 2.7 C 0 km/h
Sensor: Nr:Datum:Temp:Abs-Feuchte:Windchill:Wind:
Aussen-T/F 3076 14-04-2011 04:00:00 3.66 C 4.82 g/m*3 3.66 C 0 km/h
3077 14-04-2011 05:00:00 3.76 C 4.71 g/m*3 3.76 C 0 km/h
3078 14-04-2011 06:00:00 3.9 C 4.79 g/m*3 3.9 C 0 km/h
3079 14-04-2011 07:00:00 4.52 C 4.9 g/m*3 4.52 C 0 km/h
3080 14-04-2011 08:00:00 5.46 C 4.92 g/m*3 5.46 C 0 km/h
3081 14-04-2011 09:00:00 7.18 C 4.7 g/m*3 7.18 C 0 km/h
3082 14-04-2011 10:00:00 9.08 C 4.68 g/m*3 9.08 C 0 km/h
3083 14-04-2011 11:00:00 11 C 3.86 g/m*3 11 C 0 km/h
3084 14-04-2011 12:00:00 13.82 C 3.27 g/m*3 13.82 C 0 km/h
3085 14-04-2011 13:00:00 14.28 C 3.02 g/m*3 14.28 C 0 km/h
3086 14-04-2011 14:00:00 15.04 C 2.91 g/m*3 15.04 C 0 km/h
3087 14-04-2011 15:00:00 14.88 C 2.9 g/m*3 14.88 C 0 km/h
3088 14-04-2011 16:00:00 15.38 C 2.83 g/m*3 15.38 C 0 km/h
3089 14-04-2011 17:00:00 15.04 C 2.6 g/m*3 15.04 C 0 km/h
3090 14-04-2011 18:00:00 14.26 C 2.77 g/m*3 14.26 C 0 km/h
3091 14-04-2011 19:00:00 12.3 C 3.67 g/m*3 12.3 C 0 km/h
3092 14-04-2011 20:00:00 7.56 C 4.26 g/m*3 7.56 C 0 km/h
3093 14-04-2011 21:00:00 6.04 C 4.5 g/m*3 6.04 C 0 km/h
3094 14-04-2011 22:00:00 4.64 C 4.49 g/m*3 4.64 C 0 km/h
3095 14-04-2011 23:00:00 3.28 C 4.5 g/m*3 3.28 C 0 km/h
3096 15-04-2011 00:00:00 2.52 C 4.58 g/m*3 2.52 C 0 km/h
3097 15-04-2011 01:00:00 2.78 C 4.79 g/m*3 2.78 C 0 km/h
3098 15-04-2011 02:00:00 3.22 C 4.75 g/m*3 3.22 C 0 km/h
3099 15-04-2011 03:00:00 1.68 C 4.45 g/m*3 1.68 C 0 km/h
3100 15-04-2011 04:00:00 0.82 C 4.42 g/m*3 0.82 C 0 km/h
Sensor: Nr:Datum:Temp:Abs-Feuchte:Windchill:Wind:
Aussen-T/F 3101 15-04-2011 05:00:00 0.76 C 4.49 g/m*3 0.76 C 0 km/h
3102 15-04-2011 06:00:00 -0.1 C 4.25 g/m*3 -0.1 C 0 km/h
3103 15-04-2011 07:00:00 0.18 C 4.39 g/m*3 0.18 C 0 km/h
3104 15-04-2011 08:00:00 1.1 C 4.71 g/m*3 1.1 C 0 km/h
3105 15-04-2011 09:00:00 2.74 C 5.25 g/m*3 2.74 C 0 km/h
3106 15-04-2011 10:00:00 5.96 C 6.1 g/m*3 5.96 C 0 km/h
3107 15-04-2011 11:00:00 10.18 C 4.51 g/m*3 10.18 C 0 km/h
3108 15-04-2011 12:00:00 12.22 C 2.96 g/m*3 12.22 C 0 km/h
3109 15-04-2011 13:00:00 15.04 C 2.57 g/m*3 15.04 C 0 km/h
3110 15-04-2011 14:00:00 17.48 C 2.98 g/m*3 17.48 C 0 km/h
3111 15-04-2011 15:00:00 17.5 C 2.98 g/m*3 17.5 C 0 km/h
3112 15-04-2011 16:00:00 16.44 C 2.8 g/m*3 16.44 C 0 km/h
3113 15-04-2011 17:00:00 16.1 C 2.74 g/m*3 16.1 C 0 km/h
3114 15-04-2011 18:00:00 17.54 C 2.99 g/m*3 17.54 C 0 km/h
3115 15-04-2011 19:00:00 11.56 C 3.61 g/m*3 11.56 C 0 km/h
3116 15-04-2011 20:00:00 7.7 C 3.97 g/m*3 7.7 C 0 km/h
3117 15-04-2011 21:00:00 6.42 C 4.09 g/m*3 6.42 C 0 km/h
3118 15-04-2011 22:00:00 5.08 C 4.14 g/m*3 5.08 C 0 km/h
3119 15-04-2011 23:00:00 3.54 C 4.32 g/m*3 3.54 C 0 km/h
3120 16-04-2011 00:00:00 2.34 C 4.24 g/m*3 2.34 C 0 km/h
3121 16-04-2011 01:00:00 1.52 C 4.3 g/m*3 1.52 C 0 km/h
3122 16-04-2011 02:00:00 1 C 4.33 g/m*3 1 C 0 km/h
3123 16-04-2011 03:00:00 0.3 C 4.24 g/m*3 0.3 C 0 km/h
3124 16-04-2011 04:00:00 -0.12 C 4.18 g/m*3 -0.12 C 0 km/h
3125 16-04-2011 05:00:00 0.72 C 4.54 g/m*3 0.72 C 0 km/h
Sensor: Nr:Datum:Temp:Abs-Feuchte:Windchill:Wind:
Aussen-T/F 3126 16-04-2011 06:00:00 1.94 C 4.83 g/m*3 1.94 C 0 km/h
3127 16-04-2011 07:00:00 2.62 C 4.69 g/m*3 2.62 C 0 km/h
3128 16-04-2011 08:00:00 3.94 C 4.6 g/m*3 3.94 C 0 km/h
3129 16-04-2011 09:00:00 6.02 C 4.46 g/m*3 6.02 C 0 km/h
3130 16-04-2011 10:00:00 7.92 C 4.31 g/m*3 7.92 C 0 km/h
3131 16-04-2011 11:00:00 10.8 C 4.67 g/m*3 10.8 C 0 km/h
3132 16-04-2011 12:00:00 15.08 C 3.58 g/m*3 15.08 C 0 km/h
3133 16-04-2011 13:00:00 16.12 C 2.74 g/m*3 16.12 C 0 km/h
3134 16-04-2011 14:00:00 16.8 C 2.86 g/m*3 16.8 C 0 km/h
3135 16-04-2011 15:00:00 15.1 C 2.63 g/m*3 15.1 C 0 km/h
3136 16-04-2011 16:00:00 15.7 C 2.81 g/m*3 15.7 C 0 km/h
3137 16-04-2011 17:00:00 15.28 C 3.21 g/m*3 15.28 C 0 km/h
3138 16-04-2011 18:00:00 12.9 C 4.33 g/m*3 12.9 C 0 km/h
3139 16-04-2011 19:00:00 11.66 C 4.49 g/m*3 11.66 C 0 km/h
3140 16-04-2011 20:00:00 10.28 C 4.28 g/m*3 10.28 C 0 km/h
3141 16-04-2011 21:00:00 9.76 C 4.61 g/m*3 9.76 C 0 km/h
3142 16-04-2011 22:00:00 9.12 C 4.55 g/m*3 9.12 C 0 km/h
3143 16-04-2011 23:00:00 8.72 C 4.78 g/m*3 8.72 C 0 km/h
3144 17-04-2011 00:00:00 8.32 C 4.78 g/m*3 8.32 C 0 km/h
3145 17-04-2011 01:00:00 7.62 C 4.86 g/m*3 7.62 C 0 km/h
3146 17-04-2011 02:00:00 7.36 C 4.79 g/m*3 7.36 C 0 km/h
3147 17-04-2011 03:00:00 7.16 C 4.96 g/m*3 7.16 C 0 km/h
3148 17-04-2011 04:00:00 6.96 C 5.18 g/m*3 6.96 C 0 km/h
3149 17-04-2011 05:00:00 6.86 C 5.34 g/m*3 6.86 C 0 km/h
3150 17-04-2011 06:00:00 6.68 C 5.37 g/m*3 6.68 C 0 km/h
Sensor: Nr:Datum:Temp:Abs-Feuchte:Windchill:Wind:
Aussen-T/F 3151 17-04-2011 07:00:00 7.04 C 5.61 g/m*3 7.04 C 0 km/h
3152 17-04-2011 08:00:00 8.1 C 5.67 g/m*3 8.1 C 0 km/h
3153 17-04-2011 09:00:00 9.44 C 5.57 g/m*3 9.44 C 0 km/h
3154 17-04-2011 10:00:00 11.66 C 5.13 g/m*3 11.66 C 0 km/h
3155 17-04-2011 11:00:00 14.5 C 4.6 g/m*3 14.5 C 0 km/h
3156 17-04-2011 12:00:00 16.56 C 3.64 g/m*3 16.56 C 0 km/h
3157 17-04-2011 13:00:00 18.9 C 3.24 g/m*3 18.9 C 0 km/h
3158 17-04-2011 14:00:00 21.06 C 3.68 g/m*3 21.06 C 0 km/h
3159 17-04-2011 15:00:00 18.48 C 3.16 g/m*3 18.48 C 0 km/h
3160 17-04-2011 16:00:00 18.98 C 3.26 g/m*3 18.98 C 0 km/h
3161 17-04-2011 17:00:00 18.64 C 3.19 g/m*3 18.64 C 0 km/h
3162 17-04-2011 18:00:00 16.54 C 2.93 g/m*3 16.54 C 0 km/h
3163 17-04-2011 19:00:00 14.24 C 3.89 g/m*3 14.24 C 0 km/h
3164 17-04-2011 20:00:00 11.64 C 3.9 g/m*3 11.64 C 0 km/h
3165 17-04-2011 21:00:00 9.18 C 3.96 g/m*3 9.18 C 0 km/h
3166 17-04-2011 22:00:00 7.22 C 4.28 g/m*3 7.22 C 0 km/h
3167 17-04-2011 23:00:00 5.72 C 4.32 g/m*3 5.72 C 0 km/h
3168 18-04-2011 00:00:00 4.86 C 4.48 g/m*3 4.86 C 0 km/h
3169 18-04-2011 01:00:00 3.76 C 4.44 g/m*3 3.76 C 0 km/h
3170 18-04-2011 02:00:00 2.68 C 4.49 g/m*3 2.68 C 0 km/h
3171 18-04-2011 03:00:00 2.06 C 4.56 g/m*3 2.06 C 0 km/h
3172 18-04-2011 04:00:00 1.42 C 4.5 g/m*3 1.42 C 0 km/h
3173 18-04-2011 05:00:00 0.98 C 4.47 g/m*3 0.98 C 0 km/h
3174 18-04-2011 06:00:00 0.72 C 4.48 g/m*3 0.72 C 0 km/h
3175 18-04-2011 07:00:00 1.3 C 4.7 g/m*3 1.3 C 0 km/h
Sensor: Nr:Datum:Temp:Abs-Feuchte:Windchill:Wind:
Aussen-T/F 3176 18-04-2011 08:00:00 2.7 C 5.14 g/m*3 2.7 C 0 km/h
3177 18-04-2011 09:00:00 4.56 C 5.68 g/m*3 4.56 C 0 km/h
3178 18-04-2011 10:00:00 8.08 C 6.03 g/m*3 8.08 C 0 km/h
3179 18-04-2011 11:00:00 12.02 C 5.34 g/m*3 12.02 C 0 km/h
3180 18-04-2011 12:00:00 15.86 C 3.86 g/m*3 15.86 C 0 km/h
3181 18-04-2011 13:00:00 19.24 C 3.64 g/m*3 19.24 C 0 km/h
3182 18-04-2011 14:00:00 23.64 C 4.26 g/m*3 23.64 C 0 km/h
3183 18-04-2011 15:00:00 24.52 C 4.48 g/m*3 24.52 C 0 km/h
3184 18-04-2011 16:00:00 26.1 C 4.9 g/m*3 26.1 C 0 km/h
3185 18-04-2011 17:00:00 25.44 C 4.72 g/m*3 25.44 C 0 km/h
3186 18-04-2011 18:00:00 23.54 C 4.24 g/m*3 23.54 C 0 km/h
3187 18-04-2011 19:00:00 18.26 C 4.46 g/m*3 18.26 C 0 km/h
3188 18-04-2011 20:00:00 12.92 C 4.63 g/m*3 12.92 C 0 km/h
3189 18-04-2011 21:00:00 10.72 C 4.76 g/m*3 10.72 C 0 km/h
3190 18-04-2011 22:00:00 9.275 C 5 g/m*3 9.28 C 0 km/h
3191 18-04-2011 23:00:00 7.86 C 5.03 g/m*3 7.86 C 0 km/h
3192 19-04-2011 00:00:00 6.42 C 5.07 g/m*3 6.42 C 0 km/h
3193 19-04-2011 01:00:00 5.3 C 5.03 g/m*3 5.3 C 0 km/h
3194 19-04-2011 02:00:00 4.46 C 5.01 g/m*3 4.46 C 0 km/h
3195 19-04-2011 03:00:00 3.74 C 5 g/m*3 3.74 C 0 km/h
3196 19-04-2011 04:00:00 3.16 C 5.01 g/m*3 3.16 C 0 km/h
3197 19-04-2011 05:00:00 2.5 C 4.91 g/m*3 2.5 C 0 km/h
3198 19-04-2011 06:00:00 2.22 C 4.93 g/m*3 2.22 C 0 km/h
3199 19-04-2011 07:00:00 2.64 C 5.14 g/m*3 2.64 C 0 km/h
3200 19-04-2011 08:00:00 3.76 C 5.54 g/m*3 3.76 C 0 km/h
Sensor: Nr:Datum:Temp:Abs-Feuchte:Windchill:Wind:
Aussen-T/F 3201 19-04-2011 09:00:00 5.42 C 6.15 g/m*3 5.42 C 0 km/h
3202 19-04-2011 10:00:00 8.58 C 6.8 g/m*3 8.58 C 0 km/h
3203 19-04-2011 11:00:00 12.76 C 6.26 g/m*3 12.76 C 0 km/h
3204 19-04-2011 12:00:00 17.58 C 4.7 g/m*3 17.58 C 0 km/h
3205 19-04-2011 13:00:00 20.42 C 4.18 g/m*3 20.42 C 0 km/h
3206 19-04-2011 14:00:00 26.44 C 4.99 g/m*3 26.44 C 0 km/h
3207 19-04-2011 15:00:00 28.6 C 5.62 g/m*3 28.6 C 0 km/h
3208 19-04-2011 16:00:00 28.78 C 5.68 g/m*3 28.78 C 0 km/h
3209 19-04-2011 17:00:00 28.68 C 5.65 g/m*3 28.68 C 0 km/h
3210 19-04-2011 18:00:00 27.58 C 5.31 g/m*3 27.58 C 0 km/h
3211 19-04-2011 19:00:00 22.26 C 4.65 g/m*3 22.26 C 0 km/h